<?xml version='1.0' encoding='UTF-8'?><gpx version="1.1" creator="JPX - https://github.com/jenetics/jpx" xmlns="http://www.topografix.com/GPX/1/1"><trk><trkseg><trkpt lat="44.3945183" lon="11.266005"><ele>88.0</ele><time>2026-04-06T08:28:17.06Z</time></trkpt><trkpt lat="44.394455" lon="11.2659533"><ele>88.0</ele><time>2026-04-06T08:28:19.06Z</time></trkpt><trkpt lat="44.394365" lon="11.26589"><ele>88.0</ele><time>2026-04-06T08:28:21.06Z</time></trkpt><trkpt lat="44.3942967" lon="11.2658117"><ele>88.0</ele><time>2026-04-06T08:28:23.06Z</time></trkpt><trkpt lat="44.3942367" lon="11.2657133"><ele>88.0</ele><time>2026-04-06T08:28:25.06Z</time></trkpt><trkpt lat="44.394165" lon="11.265645"><ele>88.0</ele><time>2026-04-06T08:28:27.06Z</time></trkpt><trkpt lat="44.3940933" lon="11.2655933"><ele>88.16666666666666</ele><time>2026-04-06T08:28:29.06Z</time></trkpt><trkpt lat="44.3940083" lon="11.2655467"><ele>88.33333333333333</ele><time>2026-04-06T08:28:32.06Z</time></trkpt><trkpt lat="44.3938783" lon="11.26553"><ele>88.5</ele><time>2026-04-06T08:28:34.061Z</time></trkpt><trkpt lat="44.3938083" lon="11.2654967"><ele>88.66666666666667</ele><time>2026-04-06T08:28:35.06Z</time></trkpt><trkpt lat="44.3937467" lon="11.2654517"><ele>88.83333333333334</ele><time>2026-04-06T08:28:36.06Z</time></trkpt><trkpt lat="44.393685" lon="11.265395"><ele>89.0</ele><time>2026-04-06T08:28:37.06Z</time></trkpt><trkpt lat="44.393625" lon="11.26531"><ele>90.83333333333334</ele><time>2026-04-06T08:28:38.06Z</time></trkpt><trkpt lat="44.3935917" lon="11.2651983"><ele>92.66666666666667</ele><time>2026-04-06T08:28:39.06Z</time></trkpt><trkpt lat="44.393575" lon="11.2650767"><ele>94.5</ele><time>2026-04-06T08:28:40.06Z</time></trkpt><trkpt lat="44.3935833" lon="11.2649767"><ele>96.33333333333334</ele><time>2026-04-06T08:28:41.06Z</time></trkpt><trkpt lat="44.3936433" lon="11.2648567"><ele>98.16666666666667</ele><time>2026-04-06T08:28:43.06Z</time></trkpt><trkpt lat="44.393705" lon="11.2648767"><ele>100.0</ele><time>2026-04-06T08:28:45.06Z</time></trkpt><trkpt lat="44.3937333" lon="11.264975"><ele>100.0</ele><time>2026-04-06T08:28:47.06Z</time></trkpt><trkpt lat="44.3938017" lon="11.2650683"><ele>100.0</ele><time>2026-04-06T08:28:49.06Z</time></trkpt><trkpt lat="44.3939133" lon="11.26507"><ele>100.0</ele><time>2026-04-06T08:28:51.06Z</time></trkpt><trkpt lat="44.393985" lon="11.2650433"><ele>100.0</ele><time>2026-04-06T08:28:52.06Z</time></trkpt><trkpt lat="44.3940867" lon="11.2650017"><ele>100.0</ele><time>2026-04-06T08:28:53.06Z</time></trkpt><trkpt lat="44.3941867" lon="11.26496"><ele>97.8</ele><time>2026-04-06T08:28:54.06Z</time></trkpt><trkpt lat="44.3942917" lon="11.2649317"><ele>95.6</ele><time>2026-04-06T08:28:55.061Z</time></trkpt><trkpt lat="44.394385" lon="11.2648967"><ele>93.4</ele><time>2026-04-06T08:28:56.06Z</time></trkpt><trkpt lat="44.3944833" lon="11.2648567"><ele>91.2</ele><time>2026-04-06T08:28:57.06Z</time></trkpt><trkpt lat="44.3945767" lon="11.264795"><ele>89.0</ele><time>2026-04-06T08:28:58.06Z</time></trkpt><trkpt lat="44.3946383" lon="11.26472"><ele>88.99999999999999</ele><time>2026-04-06T08:28:59.06Z</time></trkpt><trkpt lat="44.39469" lon="11.26465"><ele>89.0</ele><time>2026-04-06T08:29:00.06Z</time></trkpt><trkpt lat="44.3947217" lon="11.264565"><ele>89.0</ele><time>2026-04-06T08:29:01.06Z</time></trkpt><trkpt lat="44.3947233" lon="11.2644717"><ele>89.0</ele><time>2026-04-06T08:29:02.061Z</time></trkpt><trkpt lat="44.394705" lon="11.26437"><ele>89.0</ele><time>2026-04-06T08:29:03.06Z</time></trkpt><trkpt lat="44.3946583" lon="11.2642767"><ele>88.99999999999999</ele><time>2026-04-06T08:29:04.06Z</time></trkpt><trkpt lat="44.3946017" lon="11.2641917"><ele>89.0</ele><time>2026-04-06T08:29:05.061Z</time></trkpt><trkpt lat="44.39453" lon="11.2640683"><ele>88.80000000000001</ele><time>2026-04-06T08:29:06.06Z</time></trkpt><trkpt lat="44.3944617" lon="11.263945"><ele>88.60000000000001</ele><time>2026-04-06T08:29:07.06Z</time></trkpt><trkpt lat="44.3943967" lon="11.26384"><ele>88.4</ele><time>2026-04-06T08:29:08.06Z</time></trkpt><trkpt lat="44.39434" lon="11.2637617"><ele>88.2</ele><time>2026-04-06T08:29:09.06Z</time></trkpt><trkpt lat="44.394275" lon="11.2636717"><ele>88.0</ele><time>2026-04-06T08:29:10.06Z</time></trkpt><trkpt lat="44.3941917" lon="11.2635583"><ele>88.0</ele><time>2026-04-06T08:29:11.06Z</time></trkpt><trkpt lat="44.3940983" lon="11.263465"><ele>88.0</ele><time>2026-04-06T08:29:12.06Z</time></trkpt><trkpt lat="44.3940167" lon="11.2634033"><ele>88.0</ele><time>2026-04-06T08:29:13.06Z</time></trkpt><trkpt lat="44.3939567" lon="11.2633717"><ele>88.0</ele><time>2026-04-06T08:29:14.06Z</time></trkpt><trkpt lat="44.3938783" lon="11.26346"><ele>88.0</ele><time>2026-04-06T08:29:16.061Z</time></trkpt><trkpt lat="44.3939267" lon="11.263605"><ele>88.0</ele><time>2026-04-06T08:29:17.06Z</time></trkpt><trkpt lat="44.3940067" lon="11.2637383"><ele>88.0</ele><time>2026-04-06T08:29:18.06Z</time></trkpt><trkpt lat="44.39409" lon="11.2638333"><ele>88.0</ele><time>2026-04-06T08:29:19.06Z</time></trkpt><trkpt lat="44.394175" lon="11.263915"><ele>88.0</ele><time>2026-04-06T08:29:20.061Z</time></trkpt><trkpt lat="44.3942533" lon="11.2640017"><ele>88.0</ele><time>2026-04-06T08:29:21.061Z</time></trkpt><trkpt lat="44.3943583" lon="11.264095"><ele>88.16666666666666</ele><time>2026-04-06T08:29:22.06Z</time></trkpt><trkpt lat="44.3944517" lon="11.2641817"><ele>88.33333333333333</ele><time>2026-04-06T08:29:23.06Z</time></trkpt><trkpt lat="44.3945183" lon="11.2642817"><ele>88.5</ele><time>2026-04-06T08:29:24.06Z</time></trkpt><trkpt lat="44.39456" lon="11.2643817"><ele>88.66666666666667</ele><time>2026-04-06T08:29:25.06Z</time></trkpt><trkpt lat="44.394575" lon="11.2644767"><ele>88.83333333333334</ele><time>2026-04-06T08:29:26.06Z</time></trkpt><trkpt lat="44.3945633" lon="11.26457"><ele>89.0</ele><time>2026-04-06T08:29:27.06Z</time></trkpt><trkpt lat="44.3945133" lon="11.264655"><ele>89.0</ele><time>2026-04-06T08:29:28.06Z</time></trkpt><trkpt lat="44.394445" lon="11.2647317"><ele>89.0</ele><time>2026-04-06T08:29:29.06Z</time></trkpt><trkpt lat="44.3943567" lon="11.2647967"><ele>89.0</ele><time>2026-04-06T08:29:30.06Z</time></trkpt><trkpt lat="44.3942567" lon="11.2648317"><ele>89.0</ele><time>2026-04-06T08:29:31.06Z</time></trkpt><trkpt lat="44.3941633" lon="11.2648333"><ele>89.0</ele><time>2026-04-06T08:29:32.06Z</time></trkpt><trkpt lat="44.394105" lon="11.26476"><ele>89.0</ele><time>2026-04-06T08:29:33.06Z</time></trkpt><trkpt lat="44.3940617" lon="11.2646433"><ele>89.0</ele><time>2026-04-06T08:29:34.06Z</time></trkpt><trkpt lat="44.3940417" lon="11.2645217"><ele>89.0</ele><time>2026-04-06T08:29:35.06Z</time></trkpt><trkpt lat="44.3940167" lon="11.2644283"><ele>89.0</ele><time>2026-04-06T08:29:36.06Z</time></trkpt><trkpt lat="44.3939533" lon="11.26463"><ele>89.0</ele><time>2026-04-06T08:29:40.06Z</time></trkpt><trkpt lat="44.393935" lon="11.26477"><ele>89.0</ele><time>2026-04-06T08:29:41.06Z</time></trkpt><trkpt lat="44.3938433" lon="11.2648233"><ele>89.0</ele><time>2026-04-06T08:29:43.06Z</time></trkpt><trkpt lat="44.39377" lon="11.2647667"><ele>89.0</ele><time>2026-04-06T08:29:44.06Z</time></trkpt><trkpt lat="44.3937033" lon="11.2646933"><ele>89.0</ele><time>2026-04-06T08:29:45.06Z</time></trkpt><trkpt lat="44.393625" lon="11.2646017"><ele>89.0</ele><time>2026-04-06T08:29:46.06Z</time></trkpt><trkpt lat="44.3935567" lon="11.2645283"><ele>90.66666666666667</ele><time>2026-04-06T08:29:47.06Z</time></trkpt><trkpt lat="44.3934983" lon="11.2644417"><ele>92.33333333333334</ele><time>2026-04-06T08:29:48.06Z</time></trkpt><trkpt lat="44.3934533" lon="11.2643583"><ele>94.0</ele><time>2026-04-06T08:29:49.06Z</time></trkpt><trkpt lat="44.39341" lon="11.2642517"><ele>95.66666666666667</ele><time>2026-04-06T08:29:50.06Z</time></trkpt><trkpt lat="44.3933767" lon="11.2641333"><ele>97.33333333333333</ele><time>2026-04-06T08:29:51.06Z</time></trkpt><trkpt lat="44.39336" lon="11.2639917"><ele>99.0</ele><time>2026-04-06T08:29:52.06Z</time></trkpt><trkpt lat="44.3933567" lon="11.2638417"><ele>99.0</ele><time>2026-04-06T08:29:53.06Z</time></trkpt><trkpt lat="44.393365" lon="11.263725"><ele>99.0</ele><time>2026-04-06T08:29:54.06Z</time></trkpt><trkpt lat="44.3934383" lon="11.2636767"><ele>99.0</ele><time>2026-04-06T08:29:56.06Z</time></trkpt><trkpt lat="44.39351" lon="11.263745"><ele>99.0</ele><time>2026-04-06T08:29:58.06Z</time></trkpt><trkpt lat="44.3935417" lon="11.2638583"><ele>99.0</ele><time>2026-04-06T08:29:59.06Z</time></trkpt><trkpt lat="44.39356" lon="11.2640067"><ele>99.0</ele><time>2026-04-06T08:30:00.06Z</time></trkpt><trkpt lat="44.393595" lon="11.26418"><ele>99.0</ele><time>2026-04-06T08:30:01.06Z</time></trkpt><trkpt lat="44.3936217" lon="11.2643067"><ele>99.0</ele><time>2026-04-06T08:30:02.06Z</time></trkpt><trkpt lat="44.3936517" lon="11.2644083"><ele>99.0</ele><time>2026-04-06T08:30:03.06Z</time></trkpt><trkpt lat="44.3936983" lon="11.2644817"><ele>99.0</ele><time>2026-04-06T08:30:04.061Z</time></trkpt><trkpt lat="44.3937883" lon="11.2645483"><ele>99.0</ele><time>2026-04-06T08:30:06.06Z</time></trkpt><trkpt lat="44.3937417" lon="11.264435"><ele>99.0</ele><time>2026-04-06T08:30:08.06Z</time></trkpt><trkpt lat="44.393705" lon="11.26436"><ele>99.0</ele><time>2026-04-06T08:30:09.06Z</time></trkpt><trkpt lat="44.3936767" lon="11.26423"><ele>99.0</ele><time>2026-04-06T08:30:11.06Z</time></trkpt><trkpt lat="44.3937167" lon="11.26416"><ele>99.0</ele><time>2026-04-06T08:30:13.06Z</time></trkpt><trkpt lat="44.39379" lon="11.2641883"><ele>99.0</ele><time>2026-04-06T08:30:15.06Z</time></trkpt><trkpt lat="44.3938567" lon="11.2642117"><ele>99.0</ele><time>2026-04-06T08:30:16.06Z</time></trkpt><trkpt lat="44.3939383" lon="11.2642367"><ele>99.0</ele><time>2026-04-06T08:30:17.06Z</time></trkpt><trkpt lat="44.394055" lon="11.2642883"><ele>97.0</ele><time>2026-04-06T08:30:18.06Z</time></trkpt><trkpt lat="44.3941767" lon="11.2643317"><ele>95.0</ele><time>2026-04-06T08:30:19.06Z</time></trkpt><trkpt lat="44.3942783" lon="11.2643583"><ele>93.0</ele><time>2026-04-06T08:30:20.06Z</time></trkpt><trkpt lat="44.3943483" lon="11.264365"><ele>91.0</ele><time>2026-04-06T08:30:21.061Z</time></trkpt><trkpt lat="44.3942983" lon="11.2642467"><ele>89.0</ele><time>2026-04-06T08:30:24.06Z</time></trkpt><trkpt lat="44.3942083" lon="11.2641967"><ele>89.0</ele><time>2026-04-06T08:30:25.06Z</time></trkpt><trkpt lat="44.39407" lon="11.2641417"><ele>89.0</ele><time>2026-04-06T08:30:26.06Z</time></trkpt><trkpt lat="44.3939317" lon="11.2640917"><ele>89.0</ele><time>2026-04-06T08:30:27.06Z</time></trkpt><trkpt lat="44.3938217" lon="11.2640267"><ele>89.0</ele><time>2026-04-06T08:30:28.06Z</time></trkpt><trkpt lat="44.3937267" lon="11.263935"><ele>91.0</ele><time>2026-04-06T08:30:29.06Z</time></trkpt><trkpt lat="44.3936583" lon="11.263805"><ele>93.0</ele><time>2026-04-06T08:30:30.06Z</time></trkpt><trkpt lat="44.3936017" lon="11.2636733"><ele>95.0</ele><time>2026-04-06T08:30:31.06Z</time></trkpt><trkpt lat="44.3935667" lon="11.2635683"><ele>97.0</ele><time>2026-04-06T08:30:32.06Z</time></trkpt><trkpt lat="44.393535" lon="11.2634483"><ele>99.0</ele><time>2026-04-06T08:30:33.06Z</time></trkpt><trkpt lat="44.3934833" lon="11.2632967"><ele>98.0</ele><time>2026-04-06T08:30:34.06Z</time></trkpt><trkpt lat="44.3934333" lon="11.263095"><ele>97.0</ele><time>2026-04-06T08:30:35.06Z</time></trkpt><trkpt lat="44.3933933" lon="11.2628883"><ele>96.0</ele><time>2026-04-06T08:30:36.06Z</time></trkpt><trkpt lat="44.3933833" lon="11.262705"><ele>95.0</ele><time>2026-04-06T08:30:37.06Z</time></trkpt><trkpt lat="44.3933867" lon="11.262565"><ele>95.0</ele><time>2026-04-06T08:30:38.06Z</time></trkpt><trkpt lat="44.3934038" lon="11.2624651"><ele>95.0</ele><time>2026-04-06T08:30:39.06Z</time></trkpt><trkpt lat="44.3934618" lon="11.2623777"><ele>95.0</ele><time>2026-04-06T08:30:41.06Z</time></trkpt><trkpt lat="44.3935789" lon="11.2624218"><ele>95.0</ele><time>2026-04-06T08:30:43.06Z</time></trkpt><trkpt lat="44.3936783" lon="11.2624859"><ele>95.0</ele><time>2026-04-06T08:30:44.06Z</time></trkpt><trkpt lat="44.393769" lon="11.2625727"><ele>95.0</ele><time>2026-04-06T08:30:45.061Z</time></trkpt><trkpt lat="44.3938308" lon="11.2626606"><ele>95.0</ele><time>2026-04-06T08:30:46.06Z</time></trkpt><trkpt lat="44.3938623" lon="11.2627419"><ele>95.0</ele><time>2026-04-06T08:30:47.06Z</time></trkpt><trkpt lat="44.3938615" lon="11.2628554"><ele>95.0</ele><time>2026-04-06T08:30:49.061Z</time></trkpt><trkpt lat="44.3937557" lon="11.262782"><ele>95.0</ele><time>2026-04-06T08:30:51.061Z</time></trkpt><trkpt lat="44.39368" lon="11.2626737"><ele>95.0</ele><time>2026-04-06T08:30:52.06Z</time></trkpt><trkpt lat="44.39362" lon="11.2625803"><ele>95.0</ele><time>2026-04-06T08:30:53.06Z</time></trkpt><trkpt lat="44.393543" lon="11.26258"><ele>95.0</ele><time>2026-04-06T08:30:55.06Z</time></trkpt><trkpt lat="44.3935173" lon="11.2626729"><ele>95.0</ele><time>2026-04-06T08:30:57.06Z</time></trkpt><trkpt lat="44.3935376" lon="11.2628081"><ele>95.0</ele><time>2026-04-06T08:30:59.06Z</time></trkpt><trkpt lat="44.3935839" lon="11.2629605"><ele>95.8</ele><time>2026-04-06T08:31:00.061Z</time></trkpt><trkpt lat="44.3936357" lon="11.2631254"><ele>96.6</ele><time>2026-04-06T08:31:01.06Z</time></trkpt><trkpt lat="44.3936769" lon="11.2632697"><ele>97.4</ele><time>2026-04-06T08:31:02.061Z</time></trkpt><trkpt lat="44.3937105" lon="11.2633959"><ele>98.2</ele><time>2026-04-06T08:31:03.06Z</time></trkpt><trkpt lat="44.3937411" lon="11.2635299"><ele>99.0</ele><time>2026-04-06T08:31:04.06Z</time></trkpt><trkpt lat="44.393771" lon="11.2636657"><ele>99.0</ele><time>2026-04-06T08:31:05.06Z</time></trkpt><trkpt lat="44.3938022" lon="11.263781"><ele>99.0</ele><time>2026-04-06T08:31:06.06Z</time></trkpt><trkpt lat="44.3938424" lon="11.2638697"><ele>99.0</ele><time>2026-04-06T08:31:07.06Z</time></trkpt><trkpt lat="44.3939181" lon="11.2639616"><ele>99.0</ele><time>2026-04-06T08:31:09.06Z</time></trkpt><trkpt lat="44.3939061" lon="11.2638329"><ele>99.0</ele><time>2026-04-06T08:31:11.061Z</time></trkpt><trkpt lat="44.3938615" lon="11.2636173"><ele>97.4</ele><time>2026-04-06T08:31:12.061Z</time></trkpt><trkpt lat="44.3938442" lon="11.2634017"><ele>95.80000000000001</ele><time>2026-04-06T08:31:13.06Z</time></trkpt><trkpt lat="44.3938567" lon="11.263231"><ele>94.19999999999999</ele><time>2026-04-06T08:31:14.06Z</time></trkpt><trkpt lat="44.3938895" lon="11.2631012"><ele>92.6</ele><time>2026-04-06T08:31:15.06Z</time></trkpt><trkpt lat="44.3939319" lon="11.2630224"><ele>91.0</ele><time>2026-04-06T08:31:16.06Z</time></trkpt><trkpt lat="44.3940631" lon="11.263083"><ele>90.4</ele><time>2026-04-06T08:31:18.06Z</time></trkpt><trkpt lat="44.3941451" lon="11.2632025"><ele>89.8</ele><time>2026-04-06T08:31:19.06Z</time></trkpt><trkpt lat="44.394224" lon="11.263307"><ele>89.2</ele><time>2026-04-06T08:31:20.06Z</time></trkpt><trkpt lat="44.3942901" lon="11.2633884"><ele>88.60000000000001</ele><time>2026-04-06T08:31:21.06Z</time></trkpt><trkpt lat="44.3943628" lon="11.2634714"><ele>88.0</ele><time>2026-04-06T08:31:22.06Z</time></trkpt><trkpt lat="44.3944517" lon="11.2635758"><ele>88.0</ele><time>2026-04-06T08:31:23.06Z</time></trkpt><trkpt lat="44.3945399" lon="11.2636814"><ele>88.0</ele><time>2026-04-06T08:31:24.06Z</time></trkpt><trkpt lat="44.3946252" lon="11.263782"><ele>88.0</ele><time>2026-04-06T08:31:25.06Z</time></trkpt><trkpt lat="44.394721" lon="11.2638896"><ele>88.0</ele><time>2026-04-06T08:31:26.06Z</time></trkpt><trkpt lat="44.3948228" lon="11.2640137"><ele>88.0</ele><time>2026-04-06T08:31:27.06Z</time></trkpt><trkpt lat="44.3949195" lon="11.2641457"><ele>88.0</ele><time>2026-04-06T08:31:28.06Z</time></trkpt><trkpt lat="44.3949925" lon="11.2642868"><ele>88.0</ele><time>2026-04-06T08:31:29.06Z</time></trkpt><trkpt lat="44.3950322" lon="11.2644245"><ele>88.0</ele><time>2026-04-06T08:31:30.06Z</time></trkpt><trkpt lat="44.3950504" lon="11.2645541"><ele>88.0</ele><time>2026-04-06T08:31:31.061Z</time></trkpt><trkpt lat="44.3950572" lon="11.2646736"><ele>88.0</ele><time>2026-04-06T08:31:32.06Z</time></trkpt><trkpt lat="44.3950532" lon="11.2647831"><ele>88.0</ele><time>2026-04-06T08:31:33.06Z</time></trkpt><trkpt lat="44.3950203" lon="11.2648875"><ele>88.0</ele><time>2026-04-06T08:31:34.06Z</time></trkpt><trkpt lat="44.3949551" lon="11.2649867"><ele>88.0</ele><time>2026-04-06T08:31:35.06Z</time></trkpt><trkpt lat="44.3948083" lon="11.2650403"><ele>88.33333333333333</ele><time>2026-04-06T08:31:36.06Z</time></trkpt><trkpt lat="44.3946648" lon="11.2650872"><ele>88.66666666666667</ele><time>2026-04-06T08:31:37.06Z</time></trkpt><trkpt lat="44.3945071" lon="11.2651297"><ele>89.0</ele><time>2026-04-06T08:31:38.06Z</time></trkpt><trkpt lat="44.3943556" lon="11.2651689"><ele>89.0</ele><time>2026-04-06T08:31:39.06Z</time></trkpt><trkpt lat="44.3942301" lon="11.2652111"><ele>89.0</ele><time>2026-04-06T08:31:40.06Z</time></trkpt><trkpt lat="44.3941491" lon="11.2652706"><ele>89.0</ele><time>2026-04-06T08:31:41.06Z</time></trkpt><trkpt lat="44.3940861" lon="11.2653632"><ele>89.0</ele><time>2026-04-06T08:31:42.06Z</time></trkpt><trkpt lat="44.3940362" lon="11.2654607"><ele>89.0</ele><time>2026-04-06T08:31:43.06Z</time></trkpt><trkpt lat="44.3939903" lon="11.2655376"><ele>89.0</ele><time>2026-04-06T08:31:44.06Z</time></trkpt><trkpt lat="44.393922" lon="11.2655665"><ele>89.0</ele><time>2026-04-06T08:31:45.06Z</time></trkpt><trkpt lat="44.3938398" lon="11.2655502"><ele>89.0</ele><time>2026-04-06T08:31:46.06Z</time></trkpt><trkpt lat="44.3937567" lon="11.2655059"><ele>89.0</ele><time>2026-04-06T08:31:47.06Z</time></trkpt><trkpt lat="44.3936812" lon="11.2654392"><ele>89.0</ele><time>2026-04-06T08:31:48.06Z</time></trkpt><trkpt lat="44.3936103" lon="11.2653499"><ele>89.0</ele><time>2026-04-06T08:31:49.06Z</time></trkpt><trkpt lat="44.39356" lon="11.2652465"><ele>91.2</ele><time>2026-04-06T08:31:50.06Z</time></trkpt><trkpt lat="44.3935316" lon="11.2651359"><ele>93.4</ele><time>2026-04-06T08:31:51.06Z</time></trkpt><trkpt lat="44.3935297" lon="11.265034"><ele>95.6</ele><time>2026-04-06T08:31:52.06Z</time></trkpt><trkpt lat="44.3935966" lon="11.2649097"><ele>97.8</ele><time>2026-04-06T08:31:54.06Z</time></trkpt><trkpt lat="44.3937022" lon="11.2649009"><ele>100.0</ele><time>2026-04-06T08:31:56.06Z</time></trkpt><trkpt lat="44.3937628" lon="11.2650133"><ele>97.8</ele><time>2026-04-06T08:31:58.06Z</time></trkpt><trkpt lat="44.3938421" lon="11.2651287"><ele>95.6</ele><time>2026-04-06T08:32:00.061Z</time></trkpt><trkpt lat="44.3939416" lon="11.265129"><ele>93.4</ele><time>2026-04-06T08:32:02.06Z</time></trkpt><trkpt lat="44.3940252" lon="11.2650701"><ele>91.2</ele><time>2026-04-06T08:32:03.06Z</time></trkpt><trkpt lat="44.3941285" lon="11.2650046"><ele>89.0</ele><time>2026-04-06T08:32:04.061Z</time></trkpt><trkpt lat="44.3942398" lon="11.2649509"><ele>89.0</ele><time>2026-04-06T08:32:05.06Z</time></trkpt><trkpt lat="44.394343" lon="11.2649159"><ele>89.0</ele><time>2026-04-06T08:32:06.061Z</time></trkpt><trkpt lat="44.3944493" lon="11.2648756"><ele>89.0</ele><time>2026-04-06T08:32:07.06Z</time></trkpt><trkpt lat="44.3945576" lon="11.2648178"><ele>89.0</ele><time>2026-04-06T08:32:08.061Z</time></trkpt><trkpt lat="44.3946352" lon="11.2647358"><ele>89.0</ele><time>2026-04-06T08:32:09.061Z</time></trkpt><trkpt lat="44.3946966" lon="11.2646466"><ele>89.0</ele><time>2026-04-06T08:32:10.06Z</time></trkpt><trkpt lat="44.3947428" lon="11.2645544"><ele>89.0</ele><time>2026-04-06T08:32:11.06Z</time></trkpt><trkpt lat="44.3947589" lon="11.2644438"><ele>89.0</ele><time>2026-04-06T08:32:12.06Z</time></trkpt><trkpt lat="44.3947358" lon="11.2643442"><ele>89.0</ele><time>2026-04-06T08:32:13.06Z</time></trkpt><trkpt lat="44.3946918" lon="11.2642492"><ele>89.0</ele><time>2026-04-06T08:32:14.06Z</time></trkpt><trkpt lat="44.3946238" lon="11.2641385"><ele>89.0</ele><time>2026-04-06T08:32:15.06Z</time></trkpt><trkpt lat="44.3945298" lon="11.2640072"><ele>88.75</ele><time>2026-04-06T08:32:16.06Z</time></trkpt><trkpt lat="44.3944343" lon="11.2638924"><ele>88.5</ele><time>2026-04-06T08:32:17.06Z</time></trkpt><trkpt lat="44.3943626" lon="11.2637834"><ele>88.25</ele><time>2026-04-06T08:32:18.06Z</time></trkpt><trkpt lat="44.3942917" lon="11.2636715"><ele>88.0</ele><time>2026-04-06T08:32:19.06Z</time></trkpt><trkpt lat="44.3942146" lon="11.2635576"><ele>88.0</ele><time>2026-04-06T08:32:20.06Z</time></trkpt><trkpt lat="44.3941296" lon="11.2634611"><ele>88.0</ele><time>2026-04-06T08:32:21.06Z</time></trkpt><trkpt lat="44.3940479" lon="11.2633954"><ele>88.0</ele><time>2026-04-06T08:32:22.06Z</time></trkpt><trkpt lat="44.3939776" lon="11.263355"><ele>88.0</ele><time>2026-04-06T08:32:23.06Z</time></trkpt><trkpt lat="44.3939023" lon="11.2634057"><ele>88.0</ele><time>2026-04-06T08:32:25.06Z</time></trkpt><trkpt lat="44.3939261" lon="11.263601"><ele>88.0</ele><time>2026-04-06T08:32:27.06Z</time></trkpt><trkpt lat="44.3939922" lon="11.2637259"><ele>88.0</ele><time>2026-04-06T08:32:28.06Z</time></trkpt><trkpt lat="44.3940849" lon="11.2638449"><ele>88.0</ele><time>2026-04-06T08:32:29.06Z</time></trkpt><trkpt lat="44.3941961" lon="11.2639594"><ele>88.0</ele><time>2026-04-06T08:32:30.061Z</time></trkpt><trkpt lat="44.3943127" lon="11.2640766"><ele>88.2</ele><time>2026-04-06T08:32:31.06Z</time></trkpt><trkpt lat="44.3944196" lon="11.264187"><ele>88.4</ele><time>2026-04-06T08:32:32.06Z</time></trkpt><trkpt lat="44.3944978" lon="11.264288"><ele>88.60000000000001</ele><time>2026-04-06T08:32:33.06Z</time></trkpt><trkpt lat="44.3945496" lon="11.2643886"><ele>88.80000000000001</ele><time>2026-04-06T08:32:34.061Z</time></trkpt><trkpt lat="44.3945727" lon="11.2644878"><ele>89.0</ele><time>2026-04-06T08:32:35.06Z</time></trkpt><trkpt lat="44.3945593" lon="11.2645902"><ele>89.0</ele><time>2026-04-06T08:32:36.06Z</time></trkpt><trkpt lat="44.3945244" lon="11.2646906"><ele>89.0</ele><time>2026-04-06T08:32:37.06Z</time></trkpt><trkpt lat="44.3944698" lon="11.2647765"><ele>89.0</ele><time>2026-04-06T08:32:38.06Z</time></trkpt><trkpt lat="44.3943809" lon="11.2648327"><ele>89.0</ele><time>2026-04-06T08:32:39.06Z</time></trkpt><trkpt lat="44.3942864" lon="11.2648603"><ele>89.0</ele><time>2026-04-06T08:32:40.06Z</time></trkpt><trkpt lat="44.3941923" lon="11.264859"><ele>89.0</ele><time>2026-04-06T08:32:41.06Z</time></trkpt><trkpt lat="44.3941089" lon="11.2648065"><ele>89.0</ele><time>2026-04-06T08:32:42.061Z</time></trkpt><trkpt lat="44.3940605" lon="11.2646924"><ele>89.0</ele><time>2026-04-06T08:32:43.061Z</time></trkpt><trkpt lat="44.3940422" lon="11.2645775"><ele>89.0</ele><time>2026-04-06T08:32:44.06Z</time></trkpt><trkpt lat="44.3940228" lon="11.2644796"><ele>89.0</ele><time>2026-04-06T08:32:45.06Z</time></trkpt><trkpt lat="44.3939679" lon="11.264541"><ele>89.0</ele><time>2026-04-06T08:32:48.06Z</time></trkpt><trkpt lat="44.3939616" lon="11.2646614"><ele>89.0</ele><time>2026-04-06T08:32:49.06Z</time></trkpt><trkpt lat="44.3939526" lon="11.264779"><ele>89.0</ele><time>2026-04-06T08:32:50.06Z</time></trkpt><trkpt lat="44.3938824" lon="11.2648645"><ele>89.0</ele><time>2026-04-06T08:32:52.06Z</time></trkpt><trkpt lat="44.3937967" lon="11.2648033"><ele>89.0</ele><time>2026-04-06T08:32:53.06Z</time></trkpt><trkpt lat="44.3937133" lon="11.2647267"><ele>89.0</ele><time>2026-04-06T08:32:54.06Z</time></trkpt><trkpt lat="44.3936233" lon="11.264635"><ele>91.0</ele><time>2026-04-06T08:32:55.06Z</time></trkpt><trkpt lat="44.393545" lon="11.2645383"><ele>93.0</ele><time>2026-04-06T08:32:56.06Z</time></trkpt><trkpt lat="44.3934733" lon="11.264435"><ele>95.0</ele><time>2026-04-06T08:32:57.06Z</time></trkpt><trkpt lat="44.3934233" lon="11.264325"><ele>97.0</ele><time>2026-04-06T08:32:58.06Z</time></trkpt><trkpt lat="44.3933867" lon="11.2642083"><ele>99.0</ele><time>2026-04-06T08:32:59.06Z</time></trkpt><trkpt lat="44.3933533" lon="11.264045"><ele>99.0</ele><time>2026-04-06T08:33:00.06Z</time></trkpt><trkpt lat="44.3933483" lon="11.2638817"><ele>99.0</ele><time>2026-04-06T08:33:01.06Z</time></trkpt><trkpt lat="44.3933533" lon="11.2637667"><ele>99.0</ele><time>2026-04-06T08:33:02.06Z</time></trkpt><trkpt lat="44.3933983" lon="11.2636783"><ele>99.0</ele><time>2026-04-06T08:33:04.06Z</time></trkpt><trkpt lat="44.3934717" lon="11.2636867"><ele>99.0</ele><time>2026-04-06T08:33:06.06Z</time></trkpt><trkpt lat="44.39352" lon="11.263875"><ele>99.0</ele><time>2026-04-06T08:33:08.06Z</time></trkpt><trkpt lat="44.393545" lon="11.263995"><ele>99.0</ele><time>2026-04-06T08:33:09.06Z</time></trkpt><trkpt lat="44.3935633" lon="11.264115"><ele>99.0</ele><time>2026-04-06T08:33:10.06Z</time></trkpt><trkpt lat="44.39359" lon="11.2642567"><ele>99.0</ele><time>2026-04-06T08:33:11.06Z</time></trkpt><trkpt lat="44.3936117" lon="11.264355"><ele>99.0</ele><time>2026-04-06T08:33:12.06Z</time></trkpt><trkpt lat="44.3936483" lon="11.264455"><ele>99.0</ele><time>2026-04-06T08:33:13.06Z</time></trkpt><trkpt lat="44.3936633" lon="11.2643383"><ele>99.0</ele><time>2026-04-06T08:33:17.06Z</time></trkpt><trkpt lat="44.393695" lon="11.264235"><ele>99.0</ele><time>2026-04-06T08:33:19.06Z</time></trkpt><trkpt lat="44.3937767" lon="11.264185"><ele>99.0</ele><time>2026-04-06T08:33:21.06Z</time></trkpt><trkpt lat="44.3939" lon="11.2641917"><ele>99.0</ele><time>2026-04-06T08:33:23.06Z</time></trkpt><trkpt lat="44.3940083" lon="11.2642333"><ele>99.0</ele><time>2026-04-06T08:33:24.06Z</time></trkpt><trkpt lat="44.3941333" lon="11.264295"><ele>97.0</ele><time>2026-04-06T08:33:25.06Z</time></trkpt><trkpt lat="44.3942433" lon="11.2643267"><ele>95.0</ele><time>2026-04-06T08:33:26.06Z</time></trkpt><trkpt lat="44.39433" lon="11.264335"><ele>93.0</ele><time>2026-04-06T08:33:27.06Z</time></trkpt><trkpt lat="44.394275" lon="11.2642217"><ele>91.0</ele><time>2026-04-06T08:33:30.06Z</time></trkpt><trkpt lat="44.3941767" lon="11.2641833"><ele>89.0</ele><time>2026-04-06T08:33:31.06Z</time></trkpt><trkpt lat="44.3940367" lon="11.2641317"><ele>89.0</ele><time>2026-04-06T08:33:32.06Z</time></trkpt><trkpt lat="44.3938983" lon="11.2640833"><ele>89.0</ele><time>2026-04-06T08:33:33.06Z</time></trkpt><trkpt lat="44.3937867" lon="11.26402"><ele>89.0</ele><time>2026-04-06T08:33:34.06Z</time></trkpt><trkpt lat="44.39369" lon="11.2639183"><ele>89.0</ele><time>2026-04-06T08:33:35.06Z</time></trkpt><trkpt lat="44.3936183" lon="11.2637833"><ele>91.5</ele><time>2026-04-06T08:33:36.061Z</time></trkpt><trkpt lat="44.3935683" lon="11.2636617"><ele>94.0</ele><time>2026-04-06T08:33:37.06Z</time></trkpt><trkpt lat="44.3935233" lon="11.2635483"><ele>96.5</ele><time>2026-04-06T08:33:38.06Z</time></trkpt><trkpt lat="44.3934833" lon="11.26339"><ele>99.0</ele><time>2026-04-06T08:33:39.06Z</time></trkpt><trkpt lat="44.3934383" lon="11.263185"><ele>98.0</ele><time>2026-04-06T08:33:40.06Z</time></trkpt><trkpt lat="44.3933967" lon="11.2629433"><ele>97.0</ele><time>2026-04-06T08:33:41.06Z</time></trkpt><trkpt lat="44.3933833" lon="11.2627367"><ele>96.0</ele><time>2026-04-06T08:33:42.06Z</time></trkpt><trkpt lat="44.39339" lon="11.2625833"><ele>95.0</ele><time>2026-04-06T08:33:43.06Z</time></trkpt><trkpt lat="44.3934083" lon="11.262485"><ele>95.0</ele><time>2026-04-06T08:33:44.06Z</time></trkpt><trkpt lat="44.3934817" lon="11.2624067"><ele>95.0</ele><time>2026-04-06T08:33:46.06Z</time></trkpt><trkpt lat="44.39362" lon="11.2624717"><ele>95.0</ele><time>2026-04-06T08:33:48.06Z</time></trkpt><trkpt lat="44.3937067" lon="11.2625417"><ele>95.0</ele><time>2026-04-06T08:33:49.06Z</time></trkpt><trkpt lat="44.3937833" lon="11.2626083"><ele>95.0</ele><time>2026-04-06T08:33:50.06Z</time></trkpt><trkpt lat="44.393835" lon="11.2626867"><ele>95.0</ele><time>2026-04-06T08:33:51.06Z</time></trkpt><trkpt lat="44.39384" lon="11.2628267"><ele>95.0</ele><time>2026-04-06T08:33:53.061Z</time></trkpt><trkpt lat="44.3937083" lon="11.262725"><ele>95.0</ele><time>2026-04-06T08:33:56.06Z</time></trkpt><trkpt lat="44.393645" lon="11.2626317"><ele>95.0</ele><time>2026-04-06T08:33:57.06Z</time></trkpt><trkpt lat="44.3935933" lon="11.2625733"><ele>95.0</ele><time>2026-04-06T08:33:58.06Z</time></trkpt><trkpt lat="44.3935183" lon="11.2626"><ele>95.0</ele><time>2026-04-06T08:34:00.06Z</time></trkpt><trkpt lat="44.3935109" lon="11.2626977"><ele>95.0</ele><time>2026-04-06T08:34:02.06Z</time></trkpt><trkpt lat="44.3935476" lon="11.2628225"><ele>95.0</ele><time>2026-04-06T08:34:03.06Z</time></trkpt><trkpt lat="44.3935947" lon="11.2630098"><ele>95.0</ele><time>2026-04-06T08:34:04.061Z</time></trkpt><trkpt lat="44.3936462" lon="11.2631929"><ele>95.0</ele><time>2026-04-06T08:34:05.06Z</time></trkpt><trkpt lat="44.3936934" lon="11.2633436"><ele>95.8</ele><time>2026-04-06T08:34:06.061Z</time></trkpt><trkpt lat="44.3937357" lon="11.2635022"><ele>96.6</ele><time>2026-04-06T08:34:07.061Z</time></trkpt><trkpt lat="44.393765" lon="11.2636574"><ele>97.4</ele><time>2026-04-06T08:34:08.061Z</time></trkpt><trkpt lat="44.3937872" lon="11.2637856"><ele>98.2</ele><time>2026-04-06T08:34:09.062Z</time></trkpt><trkpt lat="44.393811" lon="11.2638878"><ele>99.0</ele><time>2026-04-06T08:34:10.061Z</time></trkpt><trkpt lat="44.3938672" lon="11.263976"><ele>99.0</ele><time>2026-04-06T08:34:12.061Z</time></trkpt><trkpt lat="44.3938559" lon="11.2637496"><ele>99.0</ele><time>2026-04-06T08:34:14.061Z</time></trkpt><trkpt lat="44.3938329" lon="11.2635415"><ele>99.0</ele><time>2026-04-06T08:34:15.061Z</time></trkpt><trkpt lat="44.3938292" lon="11.2633489"><ele>97.66666666666667</ele><time>2026-04-06T08:34:16.062Z</time></trkpt><trkpt lat="44.3938541" lon="11.2632035"><ele>96.33333333333333</ele><time>2026-04-06T08:34:17.061Z</time></trkpt><trkpt lat="44.393903" lon="11.2631184"><ele>95.0</ele><time>2026-04-06T08:34:18.061Z</time></trkpt><trkpt lat="44.393961" lon="11.2630773"><ele>93.66666666666666</ele><time>2026-04-06T08:34:19.061Z</time></trkpt><trkpt lat="44.3940312" lon="11.2630986"><ele>92.33333333333333</ele><time>2026-04-06T08:34:20.061Z</time></trkpt><trkpt lat="44.3941016" lon="11.2631733"><ele>91.0</ele><time>2026-04-06T08:34:21.061Z</time></trkpt><trkpt lat="44.3941785" lon="11.2632648"><ele>90.25</ele><time>2026-04-06T08:34:22.061Z</time></trkpt><trkpt lat="44.394264" lon="11.2633578"><ele>89.5</ele><time>2026-04-06T08:34:23.061Z</time></trkpt><trkpt lat="44.3943528" lon="11.2634654"><ele>88.75</ele><time>2026-04-06T08:34:24.062Z</time></trkpt><trkpt lat="44.3944556" lon="11.2635906"><ele>88.0</ele><time>2026-04-06T08:34:25.061Z</time></trkpt><trkpt lat="44.3945597" lon="11.2637121"><ele>88.0</ele><time>2026-04-06T08:34:26.061Z</time></trkpt><trkpt lat="44.3946485" lon="11.2638157"><ele>88.0</ele><time>2026-04-06T08:34:27.061Z</time></trkpt><trkpt lat="44.3947437" lon="11.2639308"><ele>88.0</ele><time>2026-04-06T08:34:28.062Z</time></trkpt><trkpt lat="44.3948534" lon="11.2640641"><ele>88.0</ele><time>2026-04-06T08:34:29.061Z</time></trkpt><trkpt lat="44.3949561" lon="11.2641968"><ele>88.0</ele><time>2026-04-06T08:34:30.061Z</time></trkpt><trkpt lat="44.3950274" lon="11.264324"><ele>88.0</ele><time>2026-04-06T08:34:31.061Z</time></trkpt><trkpt lat="44.3950668" lon="11.2644468"><ele>88.0</ele><time>2026-04-06T08:34:32.061Z</time></trkpt><trkpt lat="44.3950781" lon="11.2645782"><ele>88.0</ele><time>2026-04-06T08:34:33.061Z</time></trkpt><trkpt lat="44.3950744" lon="11.2647017"><ele>88.0</ele><time>2026-04-06T08:34:34.061Z</time></trkpt><trkpt lat="44.3950483" lon="11.264815"><ele>88.2</ele><time>2026-04-06T08:34:35.061Z</time></trkpt><trkpt lat="44.395005" lon="11.2649217"><ele>88.4</ele><time>2026-04-06T08:34:36.061Z</time></trkpt><trkpt lat="44.3949483" lon="11.2650183"><ele>88.60000000000001</ele><time>2026-04-06T08:34:37.061Z</time></trkpt><trkpt lat="44.3948317" lon="11.2650817"><ele>88.80000000000001</ele><time>2026-04-06T08:34:38.061Z</time></trkpt><trkpt lat="44.3947233" lon="11.265145"><ele>89.0</ele><time>2026-04-06T08:34:39.061Z</time></trkpt><trkpt lat="44.3945517" lon="11.2651717"><ele>89.0</ele><time>2026-04-06T08:34:40.061Z</time></trkpt><trkpt lat="44.3944083" lon="11.2651883"><ele>89.0</ele><time>2026-04-06T08:34:41.061Z</time></trkpt><trkpt lat="44.3943017" lon="11.2652117"><ele>89.0</ele><time>2026-04-06T08:34:42.061Z</time></trkpt><trkpt lat="44.39421" lon="11.2652517"><ele>89.0</ele><time>2026-04-06T08:34:43.061Z</time></trkpt><trkpt lat="44.3941417" lon="11.2653167"><ele>89.0</ele><time>2026-04-06T08:34:44.061Z</time></trkpt><trkpt lat="44.3940867" lon="11.2654"><ele>89.0</ele><time>2026-04-06T08:34:45.062Z</time></trkpt><trkpt lat="44.394045" lon="11.2654833"><ele>89.0</ele><time>2026-04-06T08:34:46.061Z</time></trkpt><trkpt lat="44.3939883" lon="11.2655417"><ele>89.0</ele><time>2026-04-06T08:34:47.061Z</time></trkpt><trkpt lat="44.3939267" lon="11.26556"><ele>89.0</ele><time>2026-04-06T08:34:48.061Z</time></trkpt><trkpt lat="44.393845" lon="11.2655233"><ele>89.0</ele><time>2026-04-06T08:34:49.061Z</time></trkpt><trkpt lat="44.39376" lon="11.2654583"><ele>89.0</ele><time>2026-04-06T08:34:50.061Z</time></trkpt><trkpt lat="44.3936767" lon="11.265385"><ele>90.83333333333334</ele><time>2026-04-06T08:34:51.062Z</time></trkpt><trkpt lat="44.3936117" lon="11.265285"><ele>92.66666666666667</ele><time>2026-04-06T08:34:52.061Z</time></trkpt><trkpt lat="44.39358" lon="11.2651767"><ele>94.5</ele><time>2026-04-06T08:34:53.061Z</time></trkpt><trkpt lat="44.3935733" lon="11.2650617"><ele>96.33333333333334</ele><time>2026-04-06T08:34:54.061Z</time></trkpt><trkpt lat="44.3935817" lon="11.2649683"><ele>98.16666666666667</ele><time>2026-04-06T08:34:55.061Z</time></trkpt><trkpt lat="44.393635" lon="11.26485"><ele>100.0</ele><time>2026-04-06T08:34:57.061Z</time></trkpt><trkpt lat="44.3937117" lon="11.26488"><ele>100.0</ele><time>2026-04-06T08:34:59.061Z</time></trkpt><trkpt lat="44.39375" lon="11.2650117"><ele>100.0</ele><time>2026-04-06T08:35:01.061Z</time></trkpt><trkpt lat="44.393805" lon="11.265135"><ele>100.0</ele><time>2026-04-06T08:35:03.061Z</time></trkpt><trkpt lat="44.3938967" lon="11.2651467"><ele>100.0</ele><time>2026-04-06T08:35:05.061Z</time></trkpt><trkpt lat="44.3939983" lon="11.2650483"><ele>100.0</ele><time>2026-04-06T08:35:07.061Z</time></trkpt><trkpt lat="44.39408" lon="11.265"><ele>98.16666666666667</ele><time>2026-04-06T08:35:08.061Z</time></trkpt><trkpt lat="44.394175" lon="11.2649583"><ele>96.33333333333334</ele><time>2026-04-06T08:35:09.061Z</time></trkpt><trkpt lat="44.3942533" lon="11.2649283"><ele>94.5</ele><time>2026-04-06T08:35:10.061Z</time></trkpt><trkpt lat="44.3943367" lon="11.2649033"><ele>92.66666666666667</ele><time>2026-04-06T08:35:11.061Z</time></trkpt><trkpt lat="44.3944117" lon="11.26487"><ele>90.83333333333334</ele><time>2026-04-06T08:35:12.061Z</time></trkpt><trkpt lat="44.3944967" lon="11.2648317"><ele>89.0</ele><time>2026-04-06T08:35:13.061Z</time></trkpt><trkpt lat="44.39457" lon="11.2647717"><ele>89.0</ele><time>2026-04-06T08:35:14.061Z</time></trkpt><trkpt lat="44.394635" lon="11.26471"><ele>89.0</ele><time>2026-04-06T08:35:15.061Z</time></trkpt><trkpt lat="44.3946917" lon="11.2646383"><ele>89.0</ele><time>2026-04-06T08:35:16.061Z</time></trkpt><trkpt lat="44.394725" lon="11.2645633"><ele>89.0</ele><time>2026-04-06T08:35:17.061Z</time></trkpt><trkpt lat="44.3947083" lon="11.264385"><ele>89.0</ele><time>2026-04-06T08:35:19.061Z</time></trkpt><trkpt lat="44.3946583" lon="11.2643033"><ele>89.0</ele><time>2026-04-06T08:35:20.061Z</time></trkpt><trkpt lat="44.3946133" lon="11.2642217"><ele>89.0</ele><time>2026-04-06T08:35:21.061Z</time></trkpt><trkpt lat="44.39455" lon="11.2641083"><ele>89.0</ele><time>2026-04-06T08:35:22.061Z</time></trkpt><trkpt lat="44.39447" lon="11.263975"><ele>89.0</ele><time>2026-04-06T08:35:23.062Z</time></trkpt><trkpt lat="44.3944017" lon="11.2638633"><ele>89.0</ele><time>2026-04-06T08:35:24.061Z</time></trkpt><trkpt lat="44.3943417" lon="11.263785"><ele>89.0</ele><time>2026-04-06T08:35:25.061Z</time></trkpt><trkpt lat="44.3942883" lon="11.2636917"><ele>88.83333333333334</ele><time>2026-04-06T08:35:26.061Z</time></trkpt><trkpt lat="44.3942233" lon="11.263595"><ele>88.66666666666667</ele><time>2026-04-06T08:35:27.061Z</time></trkpt><trkpt lat="44.394145" lon="11.2635083"><ele>88.5</ele><time>2026-04-06T08:35:28.061Z</time></trkpt><trkpt lat="44.3940683" lon="11.263435"><ele>88.33333333333333</ele><time>2026-04-06T08:35:29.061Z</time></trkpt><trkpt lat="44.3940117" lon="11.2633933"><ele>88.16666666666666</ele><time>2026-04-06T08:35:30.061Z</time></trkpt><trkpt lat="44.393925" lon="11.2634117"><ele>88.0</ele><time>2026-04-06T08:35:32.062Z</time></trkpt><trkpt lat="44.393895" lon="11.2635717"><ele>88.0</ele><time>2026-04-06T08:35:34.061Z</time></trkpt><trkpt lat="44.393935" lon="11.2636783"><ele>88.0</ele><time>2026-04-06T08:35:35.061Z</time></trkpt><trkpt lat="44.3940117" lon="11.2637833"><ele>88.0</ele><time>2026-04-06T08:35:36.061Z</time></trkpt><trkpt lat="44.3940933" lon="11.2638717"><ele>88.0</ele><time>2026-04-06T08:35:37.061Z</time></trkpt><trkpt lat="44.3941883" lon="11.2639733"><ele>88.0</ele><time>2026-04-06T08:35:38.061Z</time></trkpt><trkpt lat="44.3942867" lon="11.264075"><ele>88.2</ele><time>2026-04-06T08:35:39.061Z</time></trkpt><trkpt lat="44.39439" lon="11.26418"><ele>88.4</ele><time>2026-04-06T08:35:40.061Z</time></trkpt><trkpt lat="44.3944717" lon="11.2642783"><ele>88.60000000000001</ele><time>2026-04-06T08:35:41.062Z</time></trkpt><trkpt lat="44.3945267" lon="11.264375"><ele>88.80000000000001</ele><time>2026-04-06T08:35:42.061Z</time></trkpt><trkpt lat="44.3945567" lon="11.2644767"><ele>89.0</ele><time>2026-04-06T08:35:43.061Z</time></trkpt><trkpt lat="44.3945517" lon="11.264575"><ele>89.0</ele><time>2026-04-06T08:35:44.061Z</time></trkpt><trkpt lat="44.394525" lon="11.26466"><ele>89.0</ele><time>2026-04-06T08:35:45.061Z</time></trkpt><trkpt lat="44.3944767" lon="11.2647283"><ele>89.0</ele><time>2026-04-06T08:35:46.061Z</time></trkpt><trkpt lat="44.3943933" lon="11.2647933"><ele>89.0</ele><time>2026-04-06T08:35:47.061Z</time></trkpt><trkpt lat="44.3943033" lon="11.2648317"><ele>89.0</ele><time>2026-04-06T08:35:48.061Z</time></trkpt><trkpt lat="44.3942133" lon="11.2648383"><ele>89.0</ele><time>2026-04-06T08:35:49.061Z</time></trkpt><trkpt lat="44.3941433" lon="11.26481"><ele>89.0</ele><time>2026-04-06T08:35:50.061Z</time></trkpt><trkpt lat="44.3940983" lon="11.2647283"><ele>89.0</ele><time>2026-04-06T08:35:51.061Z</time></trkpt><trkpt lat="44.3940767" lon="11.26461"><ele>89.0</ele><time>2026-04-06T08:35:52.061Z</time></trkpt><trkpt lat="44.3940617" lon="11.2645033"><ele>89.0</ele><time>2026-04-06T08:35:53.061Z</time></trkpt><trkpt lat="44.394015" lon="11.2644233"><ele>89.0</ele><time>2026-04-06T08:35:55.061Z</time></trkpt><trkpt lat="44.393985" lon="11.2645917"><ele>89.0</ele><time>2026-04-06T08:35:57.061Z</time></trkpt><trkpt lat="44.393975" lon="11.2647317"><ele>89.0</ele><time>2026-04-06T08:35:58.062Z</time></trkpt><trkpt lat="44.3939617" lon="11.26484"><ele>89.0</ele><time>2026-04-06T08:35:59.061Z</time></trkpt><trkpt lat="44.3938667" lon="11.2648333"><ele>89.0</ele><time>2026-04-06T08:36:01.062Z</time></trkpt><trkpt lat="44.3937917" lon="11.2647767"><ele>89.0</ele><time>2026-04-06T08:36:02.062Z</time></trkpt><trkpt lat="44.3937083" lon="11.2647017"><ele>89.0</ele><time>2026-04-06T08:36:03.061Z</time></trkpt><trkpt lat="44.3936283" lon="11.26462"><ele>91.0</ele><time>2026-04-06T08:36:04.061Z</time></trkpt><trkpt lat="44.39356" lon="11.26454"><ele>93.0</ele><time>2026-04-06T08:36:05.061Z</time></trkpt><trkpt lat="44.39349" lon="11.26445"><ele>95.0</ele><time>2026-04-06T08:36:06.061Z</time></trkpt><trkpt lat="44.3934417" lon="11.26433"><ele>97.0</ele><time>2026-04-06T08:36:07.061Z</time></trkpt><trkpt lat="44.3934083" lon="11.2642083"><ele>99.0</ele><time>2026-04-06T08:36:08.061Z</time></trkpt><trkpt lat="44.39337" lon="11.26408"><ele>99.0</ele><time>2026-04-06T08:36:09.062Z</time></trkpt><trkpt lat="44.3933533" lon="11.2639417"><ele>99.0</ele><time>2026-04-06T08:36:10.062Z</time></trkpt><trkpt lat="44.39336" lon="11.2638167"><ele>99.0</ele><time>2026-04-06T08:36:11.061Z</time></trkpt><trkpt lat="44.3933867" lon="11.263675"><ele>99.0</ele><time>2026-04-06T08:36:13.061Z</time></trkpt><trkpt lat="44.3934533" lon="11.2636333"><ele>99.0</ele><time>2026-04-06T08:36:15.061Z</time></trkpt><trkpt lat="44.3934917" lon="11.2638183"><ele>99.0</ele><time>2026-04-06T08:36:18.061Z</time></trkpt><trkpt lat="44.393505" lon="11.2639583"><ele>99.0</ele><time>2026-04-06T08:36:19.061Z</time></trkpt><trkpt lat="44.3935233" lon="11.2641067"><ele>99.0</ele><time>2026-04-06T08:36:20.061Z</time></trkpt><trkpt lat="44.393555" lon="11.26424"><ele>99.0</ele><time>2026-04-06T08:36:21.061Z</time></trkpt><trkpt lat="44.3936267" lon="11.2644833"><ele>99.0</ele><time>2026-04-06T08:36:22.061Z</time></trkpt><trkpt lat="44.3936917" lon="11.2644967"><ele>99.0</ele><time>2026-04-06T08:36:24.062Z</time></trkpt><trkpt lat="44.3936833" lon="11.2643833"><ele>99.0</ele><time>2026-04-06T08:36:26.061Z</time></trkpt><trkpt lat="44.3936783" lon="11.2642733"><ele>99.0</ele><time>2026-04-06T08:36:28.061Z</time></trkpt><trkpt lat="44.3937483" lon="11.2642"><ele>99.0</ele><time>2026-04-06T08:36:30.062Z</time></trkpt><trkpt lat="44.3938583" lon="11.26422"><ele>99.0</ele><time>2026-04-06T08:36:32.061Z</time></trkpt><trkpt lat="44.3939383" lon="11.26424"><ele>97.0</ele><time>2026-04-06T08:36:33.061Z</time></trkpt><trkpt lat="44.3940533" lon="11.264295"><ele>95.0</ele><time>2026-04-06T08:36:34.061Z</time></trkpt><trkpt lat="44.3941733" lon="11.264345"><ele>93.0</ele><time>2026-04-06T08:36:35.061Z</time></trkpt><trkpt lat="44.3942683" lon="11.2643667"><ele>91.0</ele><time>2026-04-06T08:36:36.061Z</time></trkpt><trkpt lat="44.3943383" lon="11.2643583"><ele>89.0</ele><time>2026-04-06T08:36:37.061Z</time></trkpt><trkpt lat="44.3942667" lon="11.2642233"><ele>89.0</ele><time>2026-04-06T08:36:40.061Z</time></trkpt><trkpt lat="44.39417" lon="11.2641767"><ele>89.0</ele><time>2026-04-06T08:36:41.061Z</time></trkpt><trkpt lat="44.39403" lon="11.2641233"><ele>89.0</ele><time>2026-04-06T08:36:42.061Z</time></trkpt><trkpt lat="44.3939017" lon="11.2640733"><ele>89.0</ele><time>2026-04-06T08:36:43.061Z</time></trkpt><trkpt lat="44.3937933" lon="11.2640133"><ele>91.0</ele><time>2026-04-06T08:36:44.061Z</time></trkpt><trkpt lat="44.3937067" lon="11.2639283"><ele>93.0</ele><time>2026-04-06T08:36:45.061Z</time></trkpt><trkpt lat="44.3936383" lon="11.2638117"><ele>95.0</ele><time>2026-04-06T08:36:46.061Z</time></trkpt><trkpt lat="44.3936017" lon="11.263675"><ele>97.0</ele><time>2026-04-06T08:36:47.061Z</time></trkpt><trkpt lat="44.3935717" lon="11.2635633"><ele>99.0</ele><time>2026-04-06T08:36:48.061Z</time></trkpt><trkpt lat="44.3935383" lon="11.263445"><ele>99.0</ele><time>2026-04-06T08:36:49.061Z</time></trkpt><trkpt lat="44.3934983" lon="11.263285"><ele>99.0</ele><time>2026-04-06T08:36:50.061Z</time></trkpt><trkpt lat="44.3934472" lon="11.2631154"><ele>99.0</ele><time>2026-04-06T08:36:51.061Z</time></trkpt><trkpt lat="44.3934071" lon="11.2629357"><ele>99.0</ele><time>2026-04-06T08:36:52.061Z</time></trkpt><trkpt lat="44.3933911" lon="11.2627709"><ele>98.2</ele><time>2026-04-06T08:36:53.061Z</time></trkpt><trkpt lat="44.3933923" lon="11.2626303"><ele>97.4</ele><time>2026-04-06T08:36:54.061Z</time></trkpt><trkpt lat="44.3934122" lon="11.2625182"><ele>96.6</ele><time>2026-04-06T08:36:55.062Z</time></trkpt><trkpt lat="44.3934427" lon="11.2624386"><ele>95.8</ele><time>2026-04-06T08:36:56.061Z</time></trkpt><trkpt lat="44.3935586" lon="11.2624119"><ele>95.0</ele><time>2026-04-06T08:36:58.062Z</time></trkpt><trkpt lat="44.3936487" lon="11.2624575"><ele>95.0</ele><time>2026-04-06T08:36:59.061Z</time></trkpt><trkpt lat="44.3937342" lon="11.2625101"><ele>95.0</ele><time>2026-04-06T08:37:00.061Z</time></trkpt><trkpt lat="44.3938029" lon="11.2625741"><ele>95.0</ele><time>2026-04-06T08:37:01.061Z</time></trkpt><trkpt lat="44.3938569" lon="11.2626474"><ele>95.0</ele><time>2026-04-06T08:37:02.061Z</time></trkpt><trkpt lat="44.3938922" lon="11.2627809"><ele>95.0</ele><time>2026-04-06T08:37:04.061Z</time></trkpt><trkpt lat="44.3938205" lon="11.2628553"><ele>95.0</ele><time>2026-04-06T08:37:07.061Z</time></trkpt><trkpt lat="44.3937174" lon="11.2627807"><ele>95.0</ele><time>2026-04-06T08:37:09.061Z</time></trkpt><trkpt lat="44.3936653" lon="11.2626988"><ele>95.0</ele><time>2026-04-06T08:37:10.062Z</time></trkpt><trkpt lat="44.3936188" lon="11.2626256"><ele>95.0</ele><time>2026-04-06T08:37:11.061Z</time></trkpt><trkpt lat="44.3935435" lon="11.2625641"><ele>95.0</ele><time>2026-04-06T08:37:13.061Z</time></trkpt><trkpt lat="44.3935011" lon="11.2626579"><ele>95.0</ele><time>2026-04-06T08:37:17.061Z</time></trkpt><trkpt lat="44.3935451" lon="11.2627902"><ele>95.0</ele><time>2026-04-06T08:37:18.062Z</time></trkpt><trkpt lat="44.3936071" lon="11.2629855"><ele>96.0</ele><time>2026-04-06T08:37:19.061Z</time></trkpt><trkpt lat="44.3936692" lon="11.2631758"><ele>97.0</ele><time>2026-04-06T08:37:20.061Z</time></trkpt><trkpt lat="44.3937269" lon="11.2633418"><ele>98.0</ele><time>2026-04-06T08:37:21.061Z</time></trkpt><trkpt lat="44.3937649" lon="11.2634983"><ele>99.0</ele><time>2026-04-06T08:37:22.061Z</time></trkpt><trkpt lat="44.3937889" lon="11.2636455"><ele>99.0</ele><time>2026-04-06T08:37:23.061Z</time></trkpt><trkpt lat="44.3938083" lon="11.2637667"><ele>99.0</ele><time>2026-04-06T08:37:24.061Z</time></trkpt><trkpt lat="44.3938483" lon="11.2638883"><ele>99.0</ele><time>2026-04-06T08:37:26.061Z</time></trkpt><trkpt lat="44.393845" lon="11.2636567"><ele>99.0</ele><time>2026-04-06T08:37:30.061Z</time></trkpt><trkpt lat="44.3938233" lon="11.2634883"><ele>99.0</ele><time>2026-04-06T08:37:31.061Z</time></trkpt><trkpt lat="44.3938317" lon="11.2633233"><ele>99.0</ele><time>2026-04-06T08:37:32.061Z</time></trkpt><trkpt lat="44.3938667" lon="11.2631933"><ele>99.0</ele><time>2026-04-06T08:37:33.061Z</time></trkpt><trkpt lat="44.3939067" lon="11.2631233"><ele>99.0</ele><time>2026-04-06T08:37:34.061Z</time></trkpt><trkpt lat="44.3940167" lon="11.2631233"><ele>99.0</ele><time>2026-04-06T08:37:36.061Z</time></trkpt><trkpt lat="44.394095" lon="11.2631933"><ele>96.80000000000001</ele><time>2026-04-06T08:37:37.061Z</time></trkpt><trkpt lat="44.39418" lon="11.26328"><ele>94.60000000000001</ele><time>2026-04-06T08:37:38.061Z</time></trkpt><trkpt lat="44.3942617" lon="11.2633483"><ele>92.4</ele><time>2026-04-06T08:37:39.061Z</time></trkpt><trkpt lat="44.39433" lon="11.2634183"><ele>90.2</ele><time>2026-04-06T08:37:40.061Z</time></trkpt><trkpt lat="44.3944083" lon="11.263515"><ele>88.0</ele><time>2026-04-06T08:37:41.062Z</time></trkpt><trkpt lat="44.3944983" lon="11.2636283"><ele>88.0</ele><time>2026-04-06T08:37:42.061Z</time></trkpt><trkpt lat="44.394585" lon="11.2637433"><ele>88.0</ele><time>2026-04-06T08:37:43.061Z</time></trkpt><trkpt lat="44.3946767" lon="11.2638617"><ele>88.0</ele><time>2026-04-06T08:37:44.061Z</time></trkpt><trkpt lat="44.394775" lon="11.26398"><ele>88.0</ele><time>2026-04-06T08:37:45.061Z</time></trkpt><trkpt lat="44.3948683" lon="11.2640983"><ele>88.0</ele><time>2026-04-06T08:37:46.061Z</time></trkpt><trkpt lat="44.394945" lon="11.2642117"><ele>88.0</ele><time>2026-04-06T08:37:47.061Z</time></trkpt><trkpt lat="44.3949933" lon="11.26432"><ele>88.0</ele><time>2026-04-06T08:37:48.061Z</time></trkpt><trkpt lat="44.395035" lon="11.2644333"><ele>88.0</ele><time>2026-04-06T08:37:49.061Z</time></trkpt><trkpt lat="44.39506" lon="11.2645533"><ele>88.0</ele><time>2026-04-06T08:37:50.061Z</time></trkpt><trkpt lat="44.3950783" lon="11.2646717"><ele>88.25</ele><time>2026-04-06T08:37:51.062Z</time></trkpt><trkpt lat="44.3950767" lon="11.2647883"><ele>88.5</ele><time>2026-04-06T08:37:52.061Z</time></trkpt><trkpt lat="44.3950233" lon="11.264895"><ele>88.75</ele><time>2026-04-06T08:37:53.061Z</time></trkpt><trkpt lat="44.39494" lon="11.2649817"><ele>89.0</ele><time>2026-04-06T08:37:54.061Z</time></trkpt><trkpt lat="44.3947667" lon="11.2650433"><ele>89.0</ele><time>2026-04-06T08:37:55.061Z</time></trkpt><trkpt lat="44.3946" lon="11.2650933"><ele>89.0</ele><time>2026-04-06T08:37:56.061Z</time></trkpt><trkpt lat="44.3944433" lon="11.26514"><ele>89.0</ele><time>2026-04-06T08:37:57.061Z</time></trkpt><trkpt lat="44.3943067" lon="11.26518"><ele>89.0</ele><time>2026-04-06T08:37:58.061Z</time></trkpt><trkpt lat="44.3942033" lon="11.2652333"><ele>89.0</ele><time>2026-04-06T08:37:59.061Z</time></trkpt><trkpt lat="44.3941317" lon="11.2653083"><ele>89.0</ele><time>2026-04-06T08:38:00.061Z</time></trkpt><trkpt lat="44.3940833" lon="11.2654067"><ele>89.0</ele><time>2026-04-06T08:38:01.061Z</time></trkpt><trkpt lat="44.3940417" lon="11.2654933"><ele>89.0</ele><time>2026-04-06T08:38:02.061Z</time></trkpt><trkpt lat="44.3939317" lon="11.2655733"><ele>89.0</ele><time>2026-04-06T08:38:04.061Z</time></trkpt><trkpt lat="44.39386" lon="11.2655533"><ele>89.0</ele><time>2026-04-06T08:38:05.061Z</time></trkpt><trkpt lat="44.3937717" lon="11.2655067"><ele>89.0</ele><time>2026-04-06T08:38:06.061Z</time></trkpt><trkpt lat="44.393685" lon="11.2654233"><ele>89.0</ele><time>2026-04-06T08:38:07.061Z</time></trkpt><trkpt lat="44.3936167" lon="11.2653317"><ele>89.0</ele><time>2026-04-06T08:38:08.061Z</time></trkpt><trkpt lat="44.393575" lon="11.2652183"><ele>90.83333333333334</ele><time>2026-04-06T08:38:09.061Z</time></trkpt><trkpt lat="44.3935533" lon="11.2651017"><ele>92.66666666666667</ele><time>2026-04-06T08:38:10.061Z</time></trkpt><trkpt lat="44.3935567" lon="11.26501"><ele>94.5</ele><time>2026-04-06T08:38:11.061Z</time></trkpt><trkpt lat="44.3936133" lon="11.26488"><ele>96.33333333333334</ele><time>2026-04-06T08:38:13.061Z</time></trkpt><trkpt lat="44.3937217" lon="11.264895"><ele>98.16666666666667</ele><time>2026-04-06T08:38:15.061Z</time></trkpt><trkpt lat="44.3937567" lon="11.2649683"><ele>100.0</ele><time>2026-04-06T08:38:16.061Z</time></trkpt><trkpt lat="44.3937883" lon="11.265055"><ele>100.0</ele><time>2026-04-06T08:38:17.061Z</time></trkpt><trkpt lat="44.3938233" lon="11.26513"><ele>100.0</ele><time>2026-04-06T08:38:18.061Z</time></trkpt><trkpt lat="44.3939233" lon="11.2651783"><ele>100.0</ele><time>2026-04-06T08:38:20.061Z</time></trkpt><trkpt lat="44.3940417" lon="11.2650833"><ele>100.0</ele><time>2026-04-06T08:38:22.061Z</time></trkpt><trkpt lat="44.394115" lon="11.2650267"><ele>100.0</ele><time>2026-04-06T08:38:23.061Z</time></trkpt><trkpt lat="44.394205" lon="11.2649783"><ele>97.8</ele><time>2026-04-06T08:38:24.061Z</time></trkpt><trkpt lat="44.3943033" lon="11.2649333"><ele>95.6</ele><time>2026-04-06T08:38:25.061Z</time></trkpt><trkpt lat="44.3944017" lon="11.2648967"><ele>93.4</ele><time>2026-04-06T08:38:26.061Z</time></trkpt><trkpt lat="44.3945083" lon="11.2648467"><ele>91.2</ele><time>2026-04-06T08:38:27.061Z</time></trkpt><trkpt lat="44.3945983" lon="11.26477"><ele>89.0</ele><time>2026-04-06T08:38:28.061Z</time></trkpt><trkpt lat="44.3946667" lon="11.264685"><ele>88.99999999999999</ele><time>2026-04-06T08:38:29.061Z</time></trkpt><trkpt lat="44.394705" lon="11.2645883"><ele>89.0</ele><time>2026-04-06T08:38:30.061Z</time></trkpt><trkpt lat="44.3947217" lon="11.2645033"><ele>89.0</ele><time>2026-04-06T08:38:31.061Z</time></trkpt><trkpt lat="44.3947217" lon="11.26441"><ele>89.0</ele><time>2026-04-06T08:38:32.061Z</time></trkpt><trkpt lat="44.3946967" lon="11.26432"><ele>89.0</ele><time>2026-04-06T08:38:33.061Z</time></trkpt><trkpt lat="44.3946533" lon="11.2642367"><ele>88.99999999999999</ele><time>2026-04-06T08:38:34.061Z</time></trkpt><trkpt lat="44.394595" lon="11.2641383"><ele>89.0</ele><time>2026-04-06T08:38:35.061Z</time></trkpt><trkpt lat="44.3945133" lon="11.2640017"><ele>88.80000000000001</ele><time>2026-04-06T08:38:36.061Z</time></trkpt><trkpt lat="44.3944283" lon="11.263875"><ele>88.60000000000001</ele><time>2026-04-06T08:38:37.061Z</time></trkpt><trkpt lat="44.3943583" lon="11.263775"><ele>88.4</ele><time>2026-04-06T08:38:38.061Z</time></trkpt><trkpt lat="44.39429" lon="11.2636717"><ele>88.2</ele><time>2026-04-06T08:38:39.061Z</time></trkpt><trkpt lat="44.394215" lon="11.2635617"><ele>88.0</ele><time>2026-04-06T08:38:40.062Z</time></trkpt><trkpt lat="44.3941383" lon="11.2634667"><ele>88.0</ele><time>2026-04-06T08:38:41.061Z</time></trkpt><trkpt lat="44.3940583" lon="11.2634133"><ele>88.0</ele><time>2026-04-06T08:38:42.061Z</time></trkpt><trkpt lat="44.3939917" lon="11.26338"><ele>88.0</ele><time>2026-04-06T08:38:43.061Z</time></trkpt><trkpt lat="44.3939183" lon="11.263435"><ele>88.0</ele><time>2026-04-06T08:38:45.061Z</time></trkpt><trkpt lat="44.3939283" lon="11.2636317"><ele>88.0</ele><time>2026-04-06T08:38:47.061Z</time></trkpt><trkpt lat="44.393995" lon="11.2637567"><ele>88.0</ele><time>2026-04-06T08:38:48.061Z</time></trkpt><trkpt lat="44.3941033" lon="11.2638733"><ele>88.0</ele><time>2026-04-06T08:38:49.061Z</time></trkpt><trkpt lat="44.3942017" lon="11.2639717"><ele>88.0</ele><time>2026-04-06T08:38:50.062Z</time></trkpt><trkpt lat="44.3943083" lon="11.2640533"><ele>88.0</ele><time>2026-04-06T08:38:51.061Z</time></trkpt><trkpt lat="44.3944083" lon="11.2641383"><ele>88.2</ele><time>2026-04-06T08:38:52.062Z</time></trkpt><trkpt lat="44.3944917" lon="11.26423"><ele>88.4</ele><time>2026-04-06T08:38:53.061Z</time></trkpt><trkpt lat="44.3945483" lon="11.2643267"><ele>88.60000000000001</ele><time>2026-04-06T08:38:54.062Z</time></trkpt><trkpt lat="44.3945733" lon="11.2644267"><ele>88.80000000000001</ele><time>2026-04-06T08:38:55.061Z</time></trkpt><trkpt lat="44.3945333" lon="11.2645383"><ele>89.0</ele><time>2026-04-06T08:38:56.061Z</time></trkpt><trkpt lat="44.39448" lon="11.2646433"><ele>89.0</ele><time>2026-04-06T08:38:57.061Z</time></trkpt><trkpt lat="44.39442" lon="11.2647233"><ele>89.0</ele><time>2026-04-06T08:38:58.061Z</time></trkpt><trkpt lat="44.3943383" lon="11.2647883"><ele>89.0</ele><time>2026-04-06T08:38:59.061Z</time></trkpt><trkpt lat="44.394255" lon="11.2648283"><ele>89.0</ele><time>2026-04-06T08:39:00.061Z</time></trkpt><trkpt lat="44.3941867" lon="11.2648367"><ele>89.0</ele><time>2026-04-06T08:39:01.061Z</time></trkpt><trkpt lat="44.3940683" lon="11.264735"><ele>89.0</ele><time>2026-04-06T08:39:03.061Z</time></trkpt><trkpt lat="44.39405" lon="11.2646167"><ele>89.0</ele><time>2026-04-06T08:39:04.061Z</time></trkpt><trkpt lat="44.3940433" lon="11.2645067"><ele>89.0</ele><time>2026-04-06T08:39:05.061Z</time></trkpt><trkpt lat="44.3940083" lon="11.2644283"><ele>89.0</ele><time>2026-04-06T08:39:07.061Z</time></trkpt><trkpt lat="44.393995" lon="11.264535"><ele>89.0</ele><time>2026-04-06T08:39:08.061Z</time></trkpt><trkpt lat="44.39399" lon="11.2646633"><ele>89.0</ele><time>2026-04-06T08:39:09.061Z</time></trkpt><trkpt lat="44.3939867" lon="11.26478"><ele>89.0</ele><time>2026-04-06T08:39:10.061Z</time></trkpt><trkpt lat="44.393955" lon="11.2648617"><ele>89.0</ele><time>2026-04-06T08:39:11.061Z</time></trkpt><trkpt lat="44.3938467" lon="11.2648367"><ele>89.0</ele><time>2026-04-06T08:39:13.061Z</time></trkpt><trkpt lat="44.393765" lon="11.2647633"><ele>89.0</ele><time>2026-04-06T08:39:14.061Z</time></trkpt><trkpt lat="44.39368" lon="11.2646767"><ele>89.0</ele><time>2026-04-06T08:39:15.062Z</time></trkpt><trkpt lat="44.3935917" lon="11.264595"><ele>91.0</ele><time>2026-04-06T08:39:16.061Z</time></trkpt><trkpt lat="44.3935167" lon="11.264495"><ele>93.0</ele><time>2026-04-06T08:39:17.061Z</time></trkpt><trkpt lat="44.393465" lon="11.2643767"><ele>95.0</ele><time>2026-04-06T08:39:18.061Z</time></trkpt><trkpt lat="44.3934317" lon="11.2642417"><ele>97.0</ele><time>2026-04-06T08:39:19.061Z</time></trkpt><trkpt lat="44.39341" lon="11.2641083"><ele>99.0</ele><time>2026-04-06T08:39:20.061Z</time></trkpt><trkpt lat="44.39339" lon="11.2639667"><ele>99.0</ele><time>2026-04-06T08:39:21.061Z</time></trkpt><trkpt lat="44.393385" lon="11.2638367"><ele>99.0</ele><time>2026-04-06T08:39:22.061Z</time></trkpt><trkpt lat="44.3933933" lon="11.2637367"><ele>99.0</ele><time>2026-04-06T08:39:23.061Z</time></trkpt><trkpt lat="44.3934317" lon="11.26362"><ele>99.0</ele><time>2026-04-06T08:39:25.061Z</time></trkpt><trkpt lat="44.3935067" lon="11.263645"><ele>99.0</ele><time>2026-04-06T08:39:27.061Z</time></trkpt><trkpt lat="44.3935367" lon="11.2638317"><ele>99.0</ele><time>2026-04-06T08:39:29.061Z</time></trkpt><trkpt lat="44.393545" lon="11.2639967"><ele>99.0</ele><time>2026-04-06T08:39:30.062Z</time></trkpt><trkpt lat="44.393565" lon="11.264145"><ele>99.0</ele><time>2026-04-06T08:39:31.061Z</time></trkpt><trkpt lat="44.393585" lon="11.2642517"><ele>99.0</ele><time>2026-04-06T08:39:32.061Z</time></trkpt><trkpt lat="44.3936333" lon="11.264435"><ele>99.0</ele><time>2026-04-06T08:39:34.062Z</time></trkpt><trkpt lat="44.3936883" lon="11.2645133"><ele>99.0</ele><time>2026-04-06T08:39:35.061Z</time></trkpt><trkpt lat="44.3936717" lon="11.2643817"><ele>99.0</ele><time>2026-04-06T08:39:38.061Z</time></trkpt><trkpt lat="44.3936633" lon="11.2642833"><ele>99.0</ele><time>2026-04-06T08:39:40.062Z</time></trkpt><trkpt lat="44.3937325" lon="11.2642166"><ele>99.0</ele><time>2026-04-06T08:39:42.061Z</time></trkpt><trkpt lat="44.3939531" lon="11.2642561"><ele>96.5</ele><time>2026-04-06T08:39:45.062Z</time></trkpt><trkpt lat="44.3941158" lon="11.2643156"><ele>94.0</ele><time>2026-04-06T08:39:46.062Z</time></trkpt><trkpt lat="44.3942461" lon="11.2643589"><ele>91.5</ele><time>2026-04-06T08:39:47.061Z</time></trkpt><trkpt lat="44.3943372" lon="11.2643672"><ele>89.0</ele><time>2026-04-06T08:39:48.061Z</time></trkpt><trkpt lat="44.3944246" lon="11.2643241"><ele>89.0</ele><time>2026-04-06T08:39:50.061Z</time></trkpt><trkpt lat="44.3943253" lon="11.2642329"><ele>89.0</ele><time>2026-04-06T08:39:52.061Z</time></trkpt><trkpt lat="44.3941986" lon="11.2641845"><ele>89.0</ele><time>2026-04-06T08:39:53.061Z</time></trkpt><trkpt lat="44.3940496" lon="11.2641328"><ele>89.0</ele><time>2026-04-06T08:39:54.062Z</time></trkpt><trkpt lat="44.3939106" lon="11.2640787"><ele>91.5</ele><time>2026-04-06T08:39:55.061Z</time></trkpt><trkpt lat="44.3937906" lon="11.2640163"><ele>94.0</ele><time>2026-04-06T08:39:56.061Z</time></trkpt><trkpt lat="44.393706" lon="11.2639351"><ele>96.5</ele><time>2026-04-06T08:39:57.061Z</time></trkpt><trkpt lat="44.3936397" lon="11.2638112"><ele>99.0</ele><time>2026-04-06T08:39:58.061Z</time></trkpt><trkpt lat="44.3935904" lon="11.2636681"><ele>99.0</ele><time>2026-04-06T08:39:59.061Z</time></trkpt><trkpt lat="44.3935542" lon="11.2635402"><ele>99.0</ele><time>2026-04-06T08:40:00.061Z</time></trkpt><trkpt lat="44.3935315" lon="11.2634011"><ele>99.0</ele><time>2026-04-06T08:40:01.061Z</time></trkpt><trkpt lat="44.3935051" lon="11.2632339"><ele>99.0</ele><time>2026-04-06T08:40:02.061Z</time></trkpt><trkpt lat="44.3934575" lon="11.2630448"><ele>98.2</ele><time>2026-04-06T08:40:03.061Z</time></trkpt><trkpt lat="44.3934188" lon="11.2628482"><ele>97.4</ele><time>2026-04-06T08:40:04.061Z</time></trkpt><trkpt lat="44.3933983" lon="11.262678"><ele>96.6</ele><time>2026-04-06T08:40:05.061Z</time></trkpt><trkpt lat="44.3934014" lon="11.2625468"><ele>95.8</ele><time>2026-04-06T08:40:06.061Z</time></trkpt><trkpt lat="44.3934209" lon="11.2624554"><ele>95.0</ele><time>2026-04-06T08:40:07.062Z</time></trkpt><trkpt lat="44.3934999" lon="11.2623826"><ele>95.0</ele><time>2026-04-06T08:40:09.061Z</time></trkpt><trkpt lat="44.3935741" lon="11.2623915"><ele>95.0</ele><time>2026-04-06T08:40:10.061Z</time></trkpt><trkpt lat="44.3936542" lon="11.2624228"><ele>95.0</ele><time>2026-04-06T08:40:11.061Z</time></trkpt><trkpt lat="44.3937312" lon="11.2624736"><ele>95.0</ele><time>2026-04-06T08:40:12.061Z</time></trkpt><trkpt lat="44.3937974" lon="11.2625439"><ele>95.0</ele><time>2026-04-06T08:40:13.061Z</time></trkpt><trkpt lat="44.3938423" lon="11.2626244"><ele>95.0</ele><time>2026-04-06T08:40:14.061Z</time></trkpt><trkpt lat="44.3938721" lon="11.2627129"><ele>95.0</ele><time>2026-04-06T08:40:15.061Z</time></trkpt><trkpt lat="44.3938659" lon="11.2628411"><ele>95.0</ele><time>2026-04-06T08:40:17.061Z</time></trkpt><trkpt lat="44.3937666" lon="11.2627944"><ele>95.0</ele><time>2026-04-06T08:40:19.061Z</time></trkpt><trkpt lat="44.3936896" lon="11.2626957"><ele>95.0</ele><time>2026-04-06T08:40:20.061Z</time></trkpt><trkpt lat="44.3936243" lon="11.2626017"><ele>95.0</ele><time>2026-04-06T08:40:21.061Z</time></trkpt><trkpt lat="44.3935474" lon="11.2625454"><ele>95.0</ele><time>2026-04-06T08:40:23.061Z</time></trkpt><trkpt lat="44.3935061" lon="11.2626596"><ele>95.0</ele><time>2026-04-06T08:40:26.061Z</time></trkpt><trkpt lat="44.3935286" lon="11.262746"><ele>95.0</ele><time>2026-04-06T08:40:27.061Z</time></trkpt><trkpt lat="44.3935758" lon="11.2628803"><ele>95.0</ele><time>2026-04-06T08:40:28.061Z</time></trkpt><trkpt lat="44.3936229" lon="11.2630399"><ele>95.0</ele><time>2026-04-06T08:40:29.061Z</time></trkpt><trkpt lat="44.3936708" lon="11.2631911"><ele>95.8</ele><time>2026-04-06T08:40:30.061Z</time></trkpt><trkpt lat="44.393712" lon="11.2633403"><ele>96.6</ele><time>2026-04-06T08:40:31.062Z</time></trkpt><trkpt lat="44.3937441" lon="11.2634982"><ele>97.4</ele><time>2026-04-06T08:40:32.061Z</time></trkpt><trkpt lat="44.3937737" lon="11.2636518"><ele>98.2</ele><time>2026-04-06T08:40:33.061Z</time></trkpt><trkpt lat="44.3937967" lon="11.2637828"><ele>99.0</ele><time>2026-04-06T08:40:34.061Z</time></trkpt><trkpt lat="44.3938198" lon="11.2638813"><ele>99.0</ele><time>2026-04-06T08:40:35.061Z</time></trkpt><trkpt lat="44.3938697" lon="11.2639619"><ele>99.0</ele><time>2026-04-06T08:40:37.062Z</time></trkpt><trkpt lat="44.3938538" lon="11.263764"><ele>99.0</ele><time>2026-04-06T08:40:39.061Z</time></trkpt><trkpt lat="44.393834" lon="11.2635804"><ele>99.0</ele><time>2026-04-06T08:40:40.061Z</time></trkpt><trkpt lat="44.3938329" lon="11.2634052"><ele>97.66666666666667</ele><time>2026-04-06T08:40:41.061Z</time></trkpt><trkpt lat="44.3938524" lon="11.2632503"><ele>96.33333333333333</ele><time>2026-04-06T08:40:42.061Z</time></trkpt><trkpt lat="44.3938863" lon="11.2631417"><ele>95.0</ele><time>2026-04-06T08:40:43.061Z</time></trkpt><trkpt lat="44.393932" lon="11.2630696"><ele>93.66666666666666</ele><time>2026-04-06T08:40:44.061Z</time></trkpt><trkpt lat="44.393998" lon="11.2630558"><ele>92.33333333333333</ele><time>2026-04-06T08:40:45.061Z</time></trkpt><trkpt lat="44.3940748" lon="11.2630949"><ele>91.0</ele><time>2026-04-06T08:40:46.061Z</time></trkpt><trkpt lat="44.3941499" lon="11.2631534"><ele>90.4</ele><time>2026-04-06T08:40:47.061Z</time></trkpt><trkpt lat="44.3942237" lon="11.2632262"><ele>89.8</ele><time>2026-04-06T08:40:48.061Z</time></trkpt><trkpt lat="44.3943011" lon="11.263319"><ele>89.2</ele><time>2026-04-06T08:40:49.061Z</time></trkpt><trkpt lat="44.3943832" lon="11.2634362"><ele>88.60000000000001</ele><time>2026-04-06T08:40:50.061Z</time></trkpt><trkpt lat="44.3944769" lon="11.2635699"><ele>88.0</ele><time>2026-04-06T08:40:51.061Z</time></trkpt><trkpt lat="44.3945671" lon="11.2636875"><ele>88.0</ele><time>2026-04-06T08:40:52.061Z</time></trkpt><trkpt lat="44.3946619" lon="11.2638027"><ele>88.0</ele><time>2026-04-06T08:40:53.061Z</time></trkpt><trkpt lat="44.3947589" lon="11.2639267"><ele>88.0</ele><time>2026-04-06T08:40:54.061Z</time></trkpt><trkpt lat="44.3948533" lon="11.2640547"><ele>88.0</ele><time>2026-04-06T08:40:55.061Z</time></trkpt><trkpt lat="44.3949355" lon="11.2641805"><ele>88.0</ele><time>2026-04-06T08:40:56.061Z</time></trkpt><trkpt lat="44.3949964" lon="11.2643049"><ele>88.0</ele><time>2026-04-06T08:40:57.061Z</time></trkpt><trkpt lat="44.3950373" lon="11.2644362"><ele>88.0</ele><time>2026-04-06T08:40:58.061Z</time></trkpt><trkpt lat="44.3950624" lon="11.2645685"><ele>88.0</ele><time>2026-04-06T08:40:59.061Z</time></trkpt><trkpt lat="44.3950684" lon="11.2646861"><ele>88.0</ele><time>2026-04-06T08:41:00.061Z</time></trkpt><trkpt lat="44.3950588" lon="11.264792"><ele>88.25</ele><time>2026-04-06T08:41:01.061Z</time></trkpt><trkpt lat="44.3950201" lon="11.2648967"><ele>88.5</ele><time>2026-04-06T08:41:02.061Z</time></trkpt><trkpt lat="44.3949412" lon="11.2649935"><ele>88.75</ele><time>2026-04-06T08:41:03.061Z</time></trkpt><trkpt lat="44.394787" lon="11.265057"><ele>89.0</ele><time>2026-04-06T08:41:04.061Z</time></trkpt><trkpt lat="44.3946341" lon="11.2650996"><ele>89.0</ele><time>2026-04-06T08:41:05.061Z</time></trkpt><trkpt lat="44.3945042" lon="11.2651374"><ele>89.0</ele><time>2026-04-06T08:41:06.062Z</time></trkpt><trkpt lat="44.3943939" lon="11.2651695"><ele>89.0</ele><time>2026-04-06T08:41:07.061Z</time></trkpt><trkpt lat="44.3942994" lon="11.265198"><ele>89.0</ele><time>2026-04-06T08:41:08.061Z</time></trkpt><trkpt lat="44.3942249" lon="11.2652311"><ele>89.0</ele><time>2026-04-06T08:41:09.061Z</time></trkpt><trkpt lat="44.3941275" lon="11.2653241"><ele>89.0</ele><time>2026-04-06T08:41:11.061Z</time></trkpt><trkpt lat="44.3940893" lon="11.265445"><ele>89.0</ele><time>2026-04-06T08:41:13.062Z</time></trkpt><trkpt lat="44.3941348" lon="11.2655655"><ele>89.0</ele><time>2026-04-06T08:41:15.061Z</time></trkpt><trkpt lat="44.394214" lon="11.265626"><ele>89.0</ele><time>2026-04-06T08:41:17.061Z</time></trkpt><trkpt lat="44.3942846" lon="11.2656648"><ele>89.0</ele><time>2026-04-06T08:41:19.061Z</time></trkpt><trkpt lat="44.3943435" lon="11.2657703"><ele>88.83333333333334</ele><time>2026-04-06T08:41:21.061Z</time></trkpt><trkpt lat="44.3943999" lon="11.2658721"><ele>88.66666666666667</ele><time>2026-04-06T08:41:23.061Z</time></trkpt><trkpt lat="44.394449" lon="11.2659595"><ele>88.5</ele><time>2026-04-06T08:41:25.061Z</time></trkpt><trkpt lat="44.3944987" lon="11.2660318"><ele>88.33333333333333</ele><time>2026-04-06T08:41:27.061Z</time></trkpt><trkpt lat="44.3945662" lon="11.2660614"><ele>88.16666666666666</ele><time>2026-04-06T08:41:30.061Z</time></trkpt><trkpt lat="44.3945517" lon="11.2661767"><ele>88.0</ele><time>2026-04-06T08:44:20.061Z</time></trkpt><trkpt lat="44.394517" lon="11.2663295"><ele>88.0</ele><time>2026-04-06T08:44:37.097Z</time></trkpt><trkpt lat="44.3944646" lon="11.2664783"><ele>90.0</ele><time>2026-04-06T08:45:11.168Z</time></trkpt></trkseg><trkseg><trkpt lat="44.39458" lon="11.266015"><ele>88.0</ele><time>2026-04-06T09:53:28.232Z</time></trkpt><trkpt lat="44.3945117" lon="11.26595"><ele>88.0</ele><time>2026-04-06T09:56:16.055Z</time></trkpt><trkpt lat="44.394405" lon="11.2658367"><ele>88.0</ele><time>2026-04-06T09:56:18.055Z</time></trkpt><trkpt lat="44.39435" lon="11.2657733"><ele>88.0</ele><time>2026-04-06T09:56:19.055Z</time></trkpt><trkpt lat="44.3942967" lon="11.265705"><ele>88.0</ele><time>2026-04-06T09:56:20.055Z</time></trkpt><trkpt lat="44.3942367" lon="11.2656567"><ele>88.0</ele><time>2026-04-06T09:56:21.055Z</time></trkpt><trkpt lat="44.394175" lon="11.26563"><ele>88.16666666666666</ele><time>2026-04-06T09:56:22.055Z</time></trkpt><trkpt lat="44.3941" lon="11.265575"><ele>88.33333333333333</ele><time>2026-04-06T09:56:24.055Z</time></trkpt><trkpt lat="44.394005" lon="11.2655233"><ele>88.5</ele><time>2026-04-06T09:56:32.055Z</time></trkpt><trkpt lat="44.3939417" lon="11.26551"><ele>88.66666666666667</ele><time>2026-04-06T09:56:33.055Z</time></trkpt><trkpt lat="44.3938733" lon="11.26549"><ele>88.83333333333334</ele><time>2026-04-06T09:56:34.055Z</time></trkpt><trkpt lat="44.39379" lon="11.26545"><ele>89.0</ele><time>2026-04-06T09:56:35.055Z</time></trkpt><trkpt lat="44.3937133" lon="11.26539"><ele>91.2</ele><time>2026-04-06T09:56:36.056Z</time></trkpt><trkpt lat="44.393655" lon="11.265285"><ele>93.4</ele><time>2026-04-06T09:56:37.055Z</time></trkpt><trkpt lat="44.3936183" lon="11.26516"><ele>95.6</ele><time>2026-04-06T09:56:38.056Z</time></trkpt><trkpt lat="44.3936067" lon="11.2650333"><ele>97.8</ele><time>2026-04-06T09:56:39.056Z</time></trkpt><trkpt lat="44.3936167" lon="11.2649333"><ele>100.0</ele><time>2026-04-06T09:56:40.055Z</time></trkpt><trkpt lat="44.3936883" lon="11.264835"><ele>100.0</ele><time>2026-04-06T09:56:42.055Z</time></trkpt><trkpt lat="44.393755" lon="11.264935"><ele>100.0</ele><time>2026-04-06T09:56:44.055Z</time></trkpt><trkpt lat="44.393775" lon="11.2650267"><ele>100.0</ele><time>2026-04-06T09:56:45.055Z</time></trkpt><trkpt lat="44.3938283" lon="11.2651567"><ele>100.0</ele><time>2026-04-06T09:56:47.056Z</time></trkpt><trkpt lat="44.3939133" lon="11.2651617"><ele>100.0</ele><time>2026-04-06T09:56:49.056Z</time></trkpt><trkpt lat="44.3940217" lon="11.26507"><ele>97.8</ele><time>2026-04-06T09:56:51.055Z</time></trkpt><trkpt lat="44.3940983" lon="11.265015"><ele>95.6</ele><time>2026-04-06T09:56:52.056Z</time></trkpt><trkpt lat="44.3941967" lon="11.264965"><ele>93.4</ele><time>2026-04-06T09:56:53.056Z</time></trkpt><trkpt lat="44.3942867" lon="11.26493"><ele>91.2</ele><time>2026-04-06T09:56:54.055Z</time></trkpt><trkpt lat="44.39437" lon="11.26491"><ele>89.0</ele><time>2026-04-06T09:56:55.055Z</time></trkpt><trkpt lat="44.3944533" lon="11.264885"><ele>89.0</ele><time>2026-04-06T09:56:56.055Z</time></trkpt><trkpt lat="44.3945467" lon="11.2648383"><ele>89.0</ele><time>2026-04-06T09:56:57.055Z</time></trkpt><trkpt lat="44.3946317" lon="11.264775"><ele>89.0</ele><time>2026-04-06T09:56:58.055Z</time></trkpt><trkpt lat="44.3946917" lon="11.2647067"><ele>89.0</ele><time>2026-04-06T09:56:59.055Z</time></trkpt><trkpt lat="44.3947367" lon="11.26463"><ele>89.0</ele><time>2026-04-06T09:57:00.055Z</time></trkpt><trkpt lat="44.3947633" lon="11.2645433"><ele>89.0</ele><time>2026-04-06T09:57:01.055Z</time></trkpt><trkpt lat="44.394765" lon="11.264445"><ele>89.0</ele><time>2026-04-06T09:57:02.055Z</time></trkpt><trkpt lat="44.3947367" lon="11.2643517"><ele>89.0</ele><time>2026-04-06T09:57:03.055Z</time></trkpt><trkpt lat="44.3947033" lon="11.2642567"><ele>89.0</ele><time>2026-04-06T09:57:04.055Z</time></trkpt><trkpt lat="44.394665" lon="11.264175"><ele>89.0</ele><time>2026-04-06T09:57:05.055Z</time></trkpt><trkpt lat="44.3946" lon="11.2640883"><ele>89.0</ele><time>2026-04-06T09:57:06.055Z</time></trkpt><trkpt lat="44.394515" lon="11.263965"><ele>89.0</ele><time>2026-04-06T09:57:07.055Z</time></trkpt><trkpt lat="44.394445" lon="11.2638533"><ele>88.80000000000001</ele><time>2026-04-06T09:57:08.056Z</time></trkpt><trkpt lat="44.3943883" lon="11.2637667"><ele>88.60000000000001</ele><time>2026-04-06T09:57:09.055Z</time></trkpt><trkpt lat="44.3943333" lon="11.26368"><ele>88.4</ele><time>2026-04-06T09:57:10.055Z</time></trkpt><trkpt lat="44.3942617" lon="11.2635767"><ele>88.2</ele><time>2026-04-06T09:57:11.056Z</time></trkpt><trkpt lat="44.39418" lon="11.263485"><ele>88.0</ele><time>2026-04-06T09:57:12.055Z</time></trkpt><trkpt lat="44.3941033" lon="11.263425"><ele>88.0</ele><time>2026-04-06T09:57:13.055Z</time></trkpt><trkpt lat="44.3940433" lon="11.2633917"><ele>88.0</ele><time>2026-04-06T09:57:14.056Z</time></trkpt><trkpt lat="44.3939417" lon="11.2634183"><ele>88.0</ele><time>2026-04-06T09:57:16.056Z</time></trkpt><trkpt lat="44.393925" lon="11.2635083"><ele>88.0</ele><time>2026-04-06T09:57:17.055Z</time></trkpt><trkpt lat="44.3939367" lon="11.26361"><ele>88.0</ele><time>2026-04-06T09:57:18.055Z</time></trkpt><trkpt lat="44.3940167" lon="11.26374"><ele>88.0</ele><time>2026-04-06T09:57:19.055Z</time></trkpt><trkpt lat="44.39411" lon="11.2638517"><ele>88.0</ele><time>2026-04-06T09:57:20.055Z</time></trkpt><trkpt lat="44.3941833" lon="11.2639333"><ele>88.0</ele><time>2026-04-06T09:57:21.055Z</time></trkpt><trkpt lat="44.39427" lon="11.2640183"><ele>88.0</ele><time>2026-04-06T09:57:22.055Z</time></trkpt><trkpt lat="44.3943817" lon="11.264115"><ele>88.0</ele><time>2026-04-06T09:57:23.055Z</time></trkpt><trkpt lat="44.3944833" lon="11.2642183"><ele>88.2</ele><time>2026-04-06T09:57:24.055Z</time></trkpt><trkpt lat="44.3945583" lon="11.2643083"><ele>88.4</ele><time>2026-04-06T09:57:25.056Z</time></trkpt><trkpt lat="44.3945967" lon="11.2643917"><ele>88.60000000000001</ele><time>2026-04-06T09:57:26.055Z</time></trkpt><trkpt lat="44.3945767" lon="11.2645583"><ele>88.80000000000001</ele><time>2026-04-06T09:57:28.055Z</time></trkpt><trkpt lat="44.3945017" lon="11.2646467"><ele>89.0</ele><time>2026-04-06T09:57:29.055Z</time></trkpt><trkpt lat="44.3944217" lon="11.2647083"><ele>89.0</ele><time>2026-04-06T09:57:30.055Z</time></trkpt><trkpt lat="44.3943317" lon="11.2647717"><ele>89.0</ele><time>2026-04-06T09:57:31.055Z</time></trkpt><trkpt lat="44.3942467" lon="11.264815"><ele>89.0</ele><time>2026-04-06T09:57:32.055Z</time></trkpt><trkpt lat="44.39418" lon="11.2648117"><ele>89.0</ele><time>2026-04-06T09:57:33.055Z</time></trkpt><trkpt lat="44.3940833" lon="11.264685"><ele>89.0</ele><time>2026-04-06T09:57:35.055Z</time></trkpt><trkpt lat="44.39407" lon="11.2645717"><ele>89.0</ele><time>2026-04-06T09:57:36.056Z</time></trkpt><trkpt lat="44.39406" lon="11.264475"><ele>89.0</ele><time>2026-04-06T09:57:37.055Z</time></trkpt><trkpt lat="44.393985" lon="11.264535"><ele>89.0</ele><time>2026-04-06T09:57:40.055Z</time></trkpt><trkpt lat="44.393975" lon="11.2646667"><ele>89.0</ele><time>2026-04-06T09:57:41.055Z</time></trkpt><trkpt lat="44.3939683" lon="11.2647933"><ele>89.0</ele><time>2026-04-06T09:57:42.055Z</time></trkpt><trkpt lat="44.39391" lon="11.2648767"><ele>89.0</ele><time>2026-04-06T09:57:44.055Z</time></trkpt><trkpt lat="44.3938267" lon="11.2648083"><ele>91.0</ele><time>2026-04-06T09:57:45.055Z</time></trkpt><trkpt lat="44.3937383" lon="11.2647283"><ele>93.0</ele><time>2026-04-06T09:57:46.055Z</time></trkpt><trkpt lat="44.39365" lon="11.2646483"><ele>95.0</ele><time>2026-04-06T09:57:47.055Z</time></trkpt><trkpt lat="44.3935717" lon="11.2645567"><ele>97.0</ele><time>2026-04-06T09:57:48.055Z</time></trkpt><trkpt lat="44.393515" lon="11.2644517"><ele>99.0</ele><time>2026-04-06T09:57:49.055Z</time></trkpt><trkpt lat="44.39346" lon="11.264335"><ele>99.0</ele><time>2026-04-06T09:57:50.055Z</time></trkpt><trkpt lat="44.393425" lon="11.2642183"><ele>99.0</ele><time>2026-04-06T09:57:51.055Z</time></trkpt><trkpt lat="44.393405" lon="11.2640783"><ele>99.0</ele><time>2026-04-06T09:57:52.055Z</time></trkpt><trkpt lat="44.3933967" lon="11.26393"><ele>99.0</ele><time>2026-04-06T09:57:53.055Z</time></trkpt><trkpt lat="44.3933933" lon="11.2638017"><ele>99.0</ele><time>2026-04-06T09:57:54.055Z</time></trkpt><trkpt lat="44.3934017" lon="11.2637"><ele>99.0</ele><time>2026-04-06T09:57:55.055Z</time></trkpt><trkpt lat="44.3934483" lon="11.2636017"><ele>99.0</ele><time>2026-04-06T09:57:57.055Z</time></trkpt><trkpt lat="44.3934917" lon="11.263695"><ele>99.0</ele><time>2026-04-06T09:58:00.056Z</time></trkpt><trkpt lat="44.39345" lon="11.2638067"><ele>99.0</ele><time>2026-04-06T09:58:01.055Z</time></trkpt><trkpt lat="44.393445" lon="11.26396"><ele>99.0</ele><time>2026-04-06T09:58:02.055Z</time></trkpt><trkpt lat="44.3934783" lon="11.2641417"><ele>99.0</ele><time>2026-04-06T09:58:03.055Z</time></trkpt><trkpt lat="44.39353" lon="11.264295"><ele>99.0</ele><time>2026-04-06T09:58:04.055Z</time></trkpt><trkpt lat="44.3935783" lon="11.2644117"><ele>99.0</ele><time>2026-04-06T09:58:05.055Z</time></trkpt><trkpt lat="44.393645" lon="11.2644917"><ele>99.0</ele><time>2026-04-06T09:58:06.055Z</time></trkpt><trkpt lat="44.3936943" lon="11.2643705"><ele>99.0</ele><time>2026-04-06T09:58:11.055Z</time></trkpt><trkpt lat="44.3937537" lon="11.2642536"><ele>95.66666666666667</ele><time>2026-04-06T09:58:13.055Z</time></trkpt><trkpt lat="44.3938518" lon="11.264216"><ele>92.33333333333334</ele><time>2026-04-06T09:58:15.055Z</time></trkpt><trkpt lat="44.3940665" lon="11.2643085"><ele>89.0</ele><time>2026-04-06T09:58:17.055Z</time></trkpt><trkpt lat="44.3942162" lon="11.2643589"><ele>89.0</ele><time>2026-04-06T09:58:18.055Z</time></trkpt><trkpt lat="44.394315" lon="11.2643824"><ele>89.0</ele><time>2026-04-06T09:58:19.055Z</time></trkpt><trkpt lat="44.3943849" lon="11.2643778"><ele>89.0</ele><time>2026-04-06T09:58:20.055Z</time></trkpt><trkpt lat="44.3943967" lon="11.26429"><ele>89.0</ele><time>2026-04-06T09:58:22.055Z</time></trkpt><trkpt lat="44.39429" lon="11.2642383"><ele>89.0</ele><time>2026-04-06T09:58:23.055Z</time></trkpt><trkpt lat="44.39418" lon="11.2641867"><ele>89.0</ele><time>2026-04-06T09:58:24.055Z</time></trkpt><trkpt lat="44.394035" lon="11.26414"><ele>89.0</ele><time>2026-04-06T09:58:25.055Z</time></trkpt><trkpt lat="44.3939" lon="11.2640817"><ele>89.0</ele><time>2026-04-06T09:58:26.055Z</time></trkpt><trkpt lat="44.393795" lon="11.2640033"><ele>89.0</ele><time>2026-04-06T09:58:27.055Z</time></trkpt><trkpt lat="44.3937067" lon="11.2638983"><ele>91.0</ele><time>2026-04-06T09:58:28.055Z</time></trkpt><trkpt lat="44.3936417" lon="11.2637683"><ele>93.0</ele><time>2026-04-06T09:58:29.055Z</time></trkpt><trkpt lat="44.393595" lon="11.263625"><ele>95.0</ele><time>2026-04-06T09:58:30.055Z</time></trkpt><trkpt lat="44.39357" lon="11.2635"><ele>97.0</ele><time>2026-04-06T09:58:31.055Z</time></trkpt><trkpt lat="44.3935417" lon="11.2633467"><ele>99.0</ele><time>2026-04-06T09:58:32.055Z</time></trkpt><trkpt lat="44.39349" lon="11.263155"><ele>98.0</ele><time>2026-04-06T09:58:33.055Z</time></trkpt><trkpt lat="44.3934433" lon="11.2629667"><ele>97.0</ele><time>2026-04-06T09:58:34.055Z</time></trkpt><trkpt lat="44.3934083" lon="11.2627883"><ele>96.0</ele><time>2026-04-06T09:58:35.055Z</time></trkpt><trkpt lat="44.393395" lon="11.26264"><ele>95.0</ele><time>2026-04-06T09:58:36.055Z</time></trkpt><trkpt lat="44.3934" lon="11.262525"><ele>95.0</ele><time>2026-04-06T09:58:37.055Z</time></trkpt><trkpt lat="44.3934833" lon="11.2624067"><ele>95.0</ele><time>2026-04-06T09:58:39.055Z</time></trkpt><trkpt lat="44.3935667" lon="11.2624167"><ele>95.0</ele><time>2026-04-06T09:58:40.056Z</time></trkpt><trkpt lat="44.3936633" lon="11.2624533"><ele>95.0</ele><time>2026-04-06T09:58:41.055Z</time></trkpt><trkpt lat="44.3937533" lon="11.262515"><ele>95.0</ele><time>2026-04-06T09:58:42.055Z</time></trkpt><trkpt lat="44.39383" lon="11.2625967"><ele>95.0</ele><time>2026-04-06T09:58:43.055Z</time></trkpt><trkpt lat="44.3938733" lon="11.2626717"><ele>95.0</ele><time>2026-04-06T09:58:44.055Z</time></trkpt><trkpt lat="44.39388" lon="11.2628133"><ele>95.0</ele><time>2026-04-06T09:58:46.055Z</time></trkpt><trkpt lat="44.3938167" lon="11.2628583"><ele>95.0</ele><time>2026-04-06T09:58:48.055Z</time></trkpt><trkpt lat="44.393745" lon="11.26278"><ele>95.0</ele><time>2026-04-06T09:58:49.055Z</time></trkpt><trkpt lat="44.39368" lon="11.2626883"><ele>95.0</ele><time>2026-04-06T09:58:50.055Z</time></trkpt><trkpt lat="44.393625" lon="11.2626117"><ele>95.0</ele><time>2026-04-06T09:58:51.055Z</time></trkpt><trkpt lat="44.3935367" lon="11.26258"><ele>95.0</ele><time>2026-04-06T09:58:53.055Z</time></trkpt><trkpt lat="44.3935183" lon="11.2627367"><ele>95.0</ele><time>2026-04-06T09:58:55.056Z</time></trkpt><trkpt lat="44.3935483" lon="11.26285"><ele>95.0</ele><time>2026-04-06T09:58:56.055Z</time></trkpt><trkpt lat="44.3935917" lon="11.2629967"><ele>95.0</ele><time>2026-04-06T09:58:57.056Z</time></trkpt><trkpt lat="44.393635" lon="11.2631533"><ele>95.8</ele><time>2026-04-06T09:58:58.055Z</time></trkpt><trkpt lat="44.39368" lon="11.2633033"><ele>96.6</ele><time>2026-04-06T09:58:59.055Z</time></trkpt><trkpt lat="44.39372" lon="11.2634367"><ele>97.4</ele><time>2026-04-06T09:59:00.055Z</time></trkpt><trkpt lat="44.3937483" lon="11.2635767"><ele>98.2</ele><time>2026-04-06T09:59:01.055Z</time></trkpt><trkpt lat="44.3937717" lon="11.2637383"><ele>99.0</ele><time>2026-04-06T09:59:02.055Z</time></trkpt><trkpt lat="44.393795" lon="11.2638417"><ele>96.25</ele><time>2026-04-06T09:59:03.055Z</time></trkpt><trkpt lat="44.3938717" lon="11.2639033"><ele>93.5</ele><time>2026-04-06T09:59:05.055Z</time></trkpt><trkpt lat="44.3938833" lon="11.2637267"><ele>90.75</ele><time>2026-04-06T09:59:07.055Z</time></trkpt><trkpt lat="44.3938667" lon="11.2635667"><ele>88.0</ele><time>2026-04-06T09:59:08.055Z</time></trkpt><trkpt lat="44.393855" lon="11.2634"><ele>88.0</ele><time>2026-04-06T09:59:09.055Z</time></trkpt><trkpt lat="44.3938667" lon="11.26325"><ele>88.0</ele><time>2026-04-06T09:59:10.055Z</time></trkpt><trkpt lat="44.3938983" lon="11.2631467"><ele>88.0</ele><time>2026-04-06T09:59:11.055Z</time></trkpt><trkpt lat="44.393955" lon="11.2630767"><ele>88.0</ele><time>2026-04-06T09:59:12.055Z</time></trkpt><trkpt lat="44.3940217" lon="11.2630783"><ele>88.0</ele><time>2026-04-06T09:59:13.056Z</time></trkpt><trkpt lat="44.3941" lon="11.26313"><ele>88.0</ele><time>2026-04-06T09:59:14.055Z</time></trkpt><trkpt lat="44.3941867" lon="11.2632317"><ele>88.0</ele><time>2026-04-06T09:59:15.056Z</time></trkpt><trkpt lat="44.3942617" lon="11.263325"><ele>88.0</ele><time>2026-04-06T09:59:16.055Z</time></trkpt><trkpt lat="44.39433" lon="11.2634183"><ele>88.0</ele><time>2026-04-06T09:59:17.056Z</time></trkpt><trkpt lat="44.39442" lon="11.26354"><ele>88.0</ele><time>2026-04-06T09:59:18.055Z</time></trkpt><trkpt lat="44.3945167" lon="11.2636667"><ele>88.0</ele><time>2026-04-06T09:59:19.055Z</time></trkpt><trkpt lat="44.394605" lon="11.2637817"><ele>88.0</ele><time>2026-04-06T09:59:20.055Z</time></trkpt><trkpt lat="44.3946917" lon="11.2638833"><ele>88.0</ele><time>2026-04-06T09:59:21.055Z</time></trkpt><trkpt lat="44.3947833" lon="11.263995"><ele>88.0</ele><time>2026-04-06T09:59:22.055Z</time></trkpt><trkpt lat="44.3948833" lon="11.2641167"><ele>88.0</ele><time>2026-04-06T09:59:23.055Z</time></trkpt><trkpt lat="44.3949733" lon="11.2642383"><ele>88.0</ele><time>2026-04-06T09:59:24.055Z</time></trkpt><trkpt lat="44.3950267" lon="11.264355"><ele>88.0</ele><time>2026-04-06T09:59:25.055Z</time></trkpt><trkpt lat="44.3950517" lon="11.264485"><ele>88.0</ele><time>2026-04-06T09:59:26.055Z</time></trkpt><trkpt lat="44.39506" lon="11.2645967"><ele>88.0</ele><time>2026-04-06T09:59:27.055Z</time></trkpt><trkpt lat="44.3950367" lon="11.26471"><ele>88.2</ele><time>2026-04-06T09:59:28.055Z</time></trkpt><trkpt lat="44.3949917" lon="11.2648067"><ele>88.4</ele><time>2026-04-06T09:59:29.055Z</time></trkpt><trkpt lat="44.3949083" lon="11.264895"><ele>88.60000000000001</ele><time>2026-04-06T09:59:30.055Z</time></trkpt><trkpt lat="44.3947817" lon="11.26496"><ele>88.80000000000001</ele><time>2026-04-06T09:59:31.055Z</time></trkpt><trkpt lat="44.3946717" lon="11.265015"><ele>89.0</ele><time>2026-04-06T09:59:32.056Z</time></trkpt><trkpt lat="44.394575" lon="11.2650683"><ele>89.0</ele><time>2026-04-06T09:59:33.055Z</time></trkpt><trkpt lat="44.39447" lon="11.2651133"><ele>89.0</ele><time>2026-04-06T09:59:34.055Z</time></trkpt><trkpt lat="44.3943567" lon="11.2651467"><ele>89.0</ele><time>2026-04-06T09:59:35.055Z</time></trkpt><trkpt lat="44.3942583" lon="11.2651867"><ele>89.0</ele><time>2026-04-06T09:59:36.055Z</time></trkpt><trkpt lat="44.3941817" lon="11.265245"><ele>89.0</ele><time>2026-04-06T09:59:37.055Z</time></trkpt><trkpt lat="44.3941267" lon="11.2653317"><ele>89.0</ele><time>2026-04-06T09:59:38.055Z</time></trkpt><trkpt lat="44.394085" lon="11.2654267"><ele>89.0</ele><time>2026-04-06T09:59:39.055Z</time></trkpt><trkpt lat="44.3940417" lon="11.2655083"><ele>89.0</ele><time>2026-04-06T09:59:40.055Z</time></trkpt><trkpt lat="44.3939817" lon="11.265565"><ele>89.0</ele><time>2026-04-06T09:59:41.055Z</time></trkpt><trkpt lat="44.3939067" lon="11.2655633"><ele>89.0</ele><time>2026-04-06T09:59:42.055Z</time></trkpt><trkpt lat="44.3938233" lon="11.2655183"><ele>89.0</ele><time>2026-04-06T09:59:43.056Z</time></trkpt><trkpt lat="44.3937367" lon="11.26545"><ele>90.83333333333334</ele><time>2026-04-06T09:59:44.055Z</time></trkpt><trkpt lat="44.39367" lon="11.2653683"><ele>92.66666666666667</ele><time>2026-04-06T09:59:45.055Z</time></trkpt><trkpt lat="44.393615" lon="11.265275"><ele>94.5</ele><time>2026-04-06T09:59:46.055Z</time></trkpt><trkpt lat="44.3935783" lon="11.265175"><ele>96.33333333333334</ele><time>2026-04-06T09:59:47.055Z</time></trkpt><trkpt lat="44.393565" lon="11.2650817"><ele>98.16666666666667</ele><time>2026-04-06T09:59:48.055Z</time></trkpt><trkpt lat="44.3935733" lon="11.2649933"><ele>100.0</ele><time>2026-04-06T09:59:49.055Z</time></trkpt><trkpt lat="44.3936267" lon="11.26488"><ele>100.00000000000001</ele><time>2026-04-06T09:59:51.055Z</time></trkpt><trkpt lat="44.3936933" lon="11.2649267"><ele>100.0</ele><time>2026-04-06T09:59:54.055Z</time></trkpt><trkpt lat="44.3937567" lon="11.2650567"><ele>100.0</ele><time>2026-04-06T09:59:56.055Z</time></trkpt><trkpt lat="44.3938217" lon="11.26512"><ele>100.0</ele><time>2026-04-06T09:59:57.055Z</time></trkpt><trkpt lat="44.3939083" lon="11.2651133"><ele>100.00000000000001</ele><time>2026-04-06T09:59:58.055Z</time></trkpt><trkpt lat="44.3939883" lon="11.2650633"><ele>100.0</ele><time>2026-04-06T09:59:59.055Z</time></trkpt><trkpt lat="44.3940883" lon="11.2649967"><ele>97.25</ele><time>2026-04-06T10:00:00.055Z</time></trkpt><trkpt lat="44.3942067" lon="11.2649433"><ele>94.5</ele><time>2026-04-06T10:00:01.055Z</time></trkpt><trkpt lat="44.3943167" lon="11.2649033"><ele>91.75</ele><time>2026-04-06T10:00:02.055Z</time></trkpt><trkpt lat="44.3944167" lon="11.2648683"><ele>89.0</ele><time>2026-04-06T10:00:03.055Z</time></trkpt><trkpt lat="44.394525" lon="11.2648267"><ele>89.0</ele><time>2026-04-06T10:00:04.055Z</time></trkpt><trkpt lat="44.3946217" lon="11.264775"><ele>89.0</ele><time>2026-04-06T10:00:05.055Z</time></trkpt><trkpt lat="44.394685" lon="11.264705"><ele>89.0</ele><time>2026-04-06T10:00:06.056Z</time></trkpt><trkpt lat="44.39473" lon="11.2646167"><ele>89.0</ele><time>2026-04-06T10:00:07.056Z</time></trkpt><trkpt lat="44.3947667" lon="11.2645233"><ele>89.0</ele><time>2026-04-06T10:00:08.055Z</time></trkpt><trkpt lat="44.3947733" lon="11.2644183"><ele>89.0</ele><time>2026-04-06T10:00:09.055Z</time></trkpt><trkpt lat="44.3947567" lon="11.2643083"><ele>89.0</ele><time>2026-04-06T10:00:10.055Z</time></trkpt><trkpt lat="44.39472" lon="11.2642117"><ele>89.0</ele><time>2026-04-06T10:00:11.055Z</time></trkpt><trkpt lat="44.3946667" lon="11.2641267"><ele>89.0</ele><time>2026-04-06T10:00:12.055Z</time></trkpt><trkpt lat="44.3945833" lon="11.264005"><ele>89.0</ele><time>2026-04-06T10:00:13.055Z</time></trkpt><trkpt lat="44.3945033" lon="11.263885"><ele>89.0</ele><time>2026-04-06T10:00:14.055Z</time></trkpt><trkpt lat="44.394435" lon="11.263785"><ele>88.80000000000001</ele><time>2026-04-06T10:00:15.055Z</time></trkpt><trkpt lat="44.3943783" lon="11.2636883"><ele>88.60000000000001</ele><time>2026-04-06T10:00:16.055Z</time></trkpt><trkpt lat="44.39429" lon="11.26358"><ele>88.4</ele><time>2026-04-06T10:00:17.055Z</time></trkpt><trkpt lat="44.3941967" lon="11.2634783"><ele>88.2</ele><time>2026-04-06T10:00:18.055Z</time></trkpt><trkpt lat="44.394115" lon="11.2634117"><ele>88.0</ele><time>2026-04-06T10:00:19.055Z</time></trkpt><trkpt lat="44.3940417" lon="11.26337"><ele>88.0</ele><time>2026-04-06T10:00:20.055Z</time></trkpt><trkpt lat="44.3939783" lon="11.2633467"><ele>88.0</ele><time>2026-04-06T10:00:21.055Z</time></trkpt><trkpt lat="44.3939183" lon="11.26348"><ele>88.0</ele><time>2026-04-06T10:00:23.055Z</time></trkpt><trkpt lat="44.3939417" lon="11.2636"><ele>88.0</ele><time>2026-04-06T10:00:24.055Z</time></trkpt><trkpt lat="44.3940367" lon="11.26376"><ele>88.0</ele><time>2026-04-06T10:00:25.055Z</time></trkpt><trkpt lat="44.394135" lon="11.2638783"><ele>88.25</ele><time>2026-04-06T10:00:26.055Z</time></trkpt><trkpt lat="44.3942133" lon="11.26396"><ele>88.5</ele><time>2026-04-06T10:00:27.055Z</time></trkpt><trkpt lat="44.3943" lon="11.2640533"><ele>88.75</ele><time>2026-04-06T10:00:28.055Z</time></trkpt><trkpt lat="44.3944117" lon="11.2641467"><ele>89.0</ele><time>2026-04-06T10:00:29.055Z</time></trkpt><trkpt lat="44.3945033" lon="11.2642433"><ele>89.0</ele><time>2026-04-06T10:00:30.055Z</time></trkpt><trkpt lat="44.3945717" lon="11.2643283"><ele>89.0</ele><time>2026-04-06T10:00:31.055Z</time></trkpt><trkpt lat="44.394605" lon="11.2644933"><ele>89.0</ele><time>2026-04-06T10:00:33.056Z</time></trkpt><trkpt lat="44.3945283" lon="11.26461"><ele>89.0</ele><time>2026-04-06T10:00:34.055Z</time></trkpt><trkpt lat="44.3944567" lon="11.264705"><ele>89.0</ele><time>2026-04-06T10:00:35.055Z</time></trkpt><trkpt lat="44.394375" lon="11.26479"><ele>89.0</ele><time>2026-04-06T10:00:36.055Z</time></trkpt><trkpt lat="44.394285" lon="11.26484"><ele>89.0</ele><time>2026-04-06T10:00:37.055Z</time></trkpt><trkpt lat="44.394205" lon="11.2648483"><ele>89.0</ele><time>2026-04-06T10:00:38.055Z</time></trkpt><trkpt lat="44.394135" lon="11.2648183"><ele>89.0</ele><time>2026-04-06T10:00:39.055Z</time></trkpt><trkpt lat="44.3940983" lon="11.2647017"><ele>89.0</ele><time>2026-04-06T10:00:40.055Z</time></trkpt><trkpt lat="44.3940817" lon="11.2645817"><ele>89.0</ele><time>2026-04-06T10:00:41.055Z</time></trkpt><trkpt lat="44.394075" lon="11.264485"><ele>89.0</ele><time>2026-04-06T10:00:42.055Z</time></trkpt><trkpt lat="44.3939933" lon="11.2645617"><ele>89.0</ele><time>2026-04-06T10:00:45.055Z</time></trkpt><trkpt lat="44.393995" lon="11.2647083"><ele>89.0</ele><time>2026-04-06T10:00:46.055Z</time></trkpt><trkpt lat="44.3939917" lon="11.264835"><ele>89.0</ele><time>2026-04-06T10:00:47.055Z</time></trkpt><trkpt lat="44.3939317" lon="11.2649"><ele>89.0</ele><time>2026-04-06T10:00:49.055Z</time></trkpt><trkpt lat="44.39387" lon="11.2648567"><ele>89.0</ele><time>2026-04-06T10:00:50.055Z</time></trkpt><trkpt lat="44.3937917" lon="11.2647817"><ele>91.5</ele><time>2026-04-06T10:00:51.056Z</time></trkpt><trkpt lat="44.3936983" lon="11.264685"><ele>94.0</ele><time>2026-04-06T10:00:52.055Z</time></trkpt><trkpt lat="44.393605" lon="11.2645783"><ele>96.5</ele><time>2026-04-06T10:00:53.055Z</time></trkpt><trkpt lat="44.3935267" lon="11.2644467"><ele>99.0</ele><time>2026-04-06T10:00:54.056Z</time></trkpt><trkpt lat="44.3934783" lon="11.2643117"><ele>99.0</ele><time>2026-04-06T10:00:55.056Z</time></trkpt><trkpt lat="44.393435" lon="11.2641933"><ele>99.0</ele><time>2026-04-06T10:00:56.056Z</time></trkpt><trkpt lat="44.3934133" lon="11.264045"><ele>99.0</ele><time>2026-04-06T10:00:57.055Z</time></trkpt><trkpt lat="44.393395" lon="11.2638967"><ele>99.0</ele><time>2026-04-06T10:00:58.055Z</time></trkpt><trkpt lat="44.393395" lon="11.2637783"><ele>99.0</ele><time>2026-04-06T10:00:59.055Z</time></trkpt><trkpt lat="44.3934067" lon="11.2636883"><ele>99.0</ele><time>2026-04-06T10:01:00.055Z</time></trkpt><trkpt lat="44.3934717" lon="11.2636317"><ele>99.0</ele><time>2026-04-06T10:01:02.055Z</time></trkpt><trkpt lat="44.3935183" lon="11.2637033"><ele>99.0</ele><time>2026-04-06T10:01:04.055Z</time></trkpt><trkpt lat="44.3935167" lon="11.263805"><ele>99.0</ele><time>2026-04-06T10:01:05.055Z</time></trkpt><trkpt lat="44.3935083" lon="11.263955"><ele>99.0</ele><time>2026-04-06T10:01:06.055Z</time></trkpt><trkpt lat="44.3935067" lon="11.2641333"><ele>99.0</ele><time>2026-04-06T10:01:07.055Z</time></trkpt><trkpt lat="44.393535" lon="11.264285"><ele>99.0</ele><time>2026-04-06T10:01:08.055Z</time></trkpt><trkpt lat="44.3935667" lon="11.2643983"><ele>99.0</ele><time>2026-04-06T10:01:09.055Z</time></trkpt><trkpt lat="44.393595" lon="11.2644783"><ele>99.0</ele><time>2026-04-06T10:01:10.055Z</time></trkpt><trkpt lat="44.3936683" lon="11.2645367"><ele>99.0</ele><time>2026-04-06T10:01:12.056Z</time></trkpt><trkpt lat="44.3937" lon="11.2644583"><ele>99.0</ele><time>2026-04-06T10:01:14.056Z</time></trkpt><trkpt lat="44.3937167" lon="11.2643283"><ele>99.0</ele><time>2026-04-06T10:01:16.055Z</time></trkpt><trkpt lat="44.3937817" lon="11.26425"><ele>99.0</ele><time>2026-04-06T10:01:18.055Z</time></trkpt><trkpt lat="44.3938483" lon="11.2642317"><ele>99.0</ele><time>2026-04-06T10:01:19.055Z</time></trkpt><trkpt lat="44.3939633" lon="11.2642567"><ele>99.0</ele><time>2026-04-06T10:01:20.055Z</time></trkpt><trkpt lat="44.394085" lon="11.2643033"><ele>99.0</ele><time>2026-04-06T10:01:21.055Z</time></trkpt><trkpt lat="44.394205" lon="11.2643533"><ele>97.0</ele><time>2026-04-06T10:01:22.055Z</time></trkpt><trkpt lat="44.3943" lon="11.2643767"><ele>95.0</ele><time>2026-04-06T10:01:23.055Z</time></trkpt><trkpt lat="44.3943783" lon="11.26438"><ele>93.0</ele><time>2026-04-06T10:01:24.055Z</time></trkpt><trkpt lat="44.3944267" lon="11.2643017"><ele>91.0</ele><time>2026-04-06T10:01:26.055Z</time></trkpt><trkpt lat="44.3943183" lon="11.2642317"><ele>89.0</ele><time>2026-04-06T10:01:27.055Z</time></trkpt><trkpt lat="44.3941933" lon="11.26418"><ele>89.0</ele><time>2026-04-06T10:01:28.056Z</time></trkpt><trkpt lat="44.3940533" lon="11.2641367"><ele>89.0</ele><time>2026-04-06T10:01:29.055Z</time></trkpt><trkpt lat="44.393925" lon="11.2640917"><ele>89.0</ele><time>2026-04-06T10:01:30.055Z</time></trkpt><trkpt lat="44.3938117" lon="11.26402"><ele>89.0</ele><time>2026-04-06T10:01:31.055Z</time></trkpt><trkpt lat="44.3937183" lon="11.2639067"><ele>91.0</ele><time>2026-04-06T10:01:32.055Z</time></trkpt><trkpt lat="44.3936567" lon="11.2637767"><ele>93.0</ele><time>2026-04-06T10:01:33.055Z</time></trkpt><trkpt lat="44.3936067" lon="11.2636383"><ele>95.0</ele><time>2026-04-06T10:01:34.055Z</time></trkpt><trkpt lat="44.39357" lon="11.263515"><ele>97.0</ele><time>2026-04-06T10:01:35.055Z</time></trkpt><trkpt lat="44.39354" lon="11.2633683"><ele>99.0</ele><time>2026-04-06T10:01:36.055Z</time></trkpt><trkpt lat="44.3934883" lon="11.2631817"><ele>98.0</ele><time>2026-04-06T10:01:37.055Z</time></trkpt><trkpt lat="44.39344" lon="11.2629917"><ele>97.0</ele><time>2026-04-06T10:01:38.056Z</time></trkpt><trkpt lat="44.39341" lon="11.2628117"><ele>96.0</ele><time>2026-04-06T10:01:39.056Z</time></trkpt><trkpt lat="44.3933967" lon="11.2626617"><ele>95.0</ele><time>2026-04-06T10:01:40.056Z</time></trkpt><trkpt lat="44.3934083" lon="11.2625467"><ele>95.0</ele><time>2026-04-06T10:01:41.055Z</time></trkpt><trkpt lat="44.3934417" lon="11.2624717"><ele>95.0</ele><time>2026-04-06T10:01:42.055Z</time></trkpt><trkpt lat="44.3935617" lon="11.26242"><ele>95.0</ele><time>2026-04-06T10:01:44.055Z</time></trkpt><trkpt lat="44.3936783" lon="11.262475"><ele>95.0</ele><time>2026-04-06T10:01:45.056Z</time></trkpt><trkpt lat="44.3937733" lon="11.2625467"><ele>95.0</ele><time>2026-04-06T10:01:46.055Z</time></trkpt><trkpt lat="44.393845" lon="11.2626233"><ele>95.0</ele><time>2026-04-06T10:01:47.055Z</time></trkpt><trkpt lat="44.393895" lon="11.2627"><ele>95.0</ele><time>2026-04-06T10:01:48.055Z</time></trkpt><trkpt lat="44.3938533" lon="11.2628167"><ele>95.0</ele><time>2026-04-06T10:01:50.055Z</time></trkpt><trkpt lat="44.3937633" lon="11.2628233"><ele>95.0</ele><time>2026-04-06T10:01:52.055Z</time></trkpt><trkpt lat="44.3936867" lon="11.26273"><ele>95.0</ele><time>2026-04-06T10:01:53.055Z</time></trkpt><trkpt lat="44.393625" lon="11.2626483"><ele>95.0</ele><time>2026-04-06T10:01:54.055Z</time></trkpt><trkpt lat="44.39357" lon="11.262585"><ele>95.0</ele><time>2026-04-06T10:01:55.055Z</time></trkpt><trkpt lat="44.3934883" lon="11.2625867"><ele>95.0</ele><time>2026-04-06T10:01:57.055Z</time></trkpt><trkpt lat="44.3934833" lon="11.2627383"><ele>95.0</ele><time>2026-04-06T10:01:59.055Z</time></trkpt><trkpt lat="44.3935433" lon="11.262905"><ele>95.0</ele><time>2026-04-06T10:02:00.056Z</time></trkpt><trkpt lat="44.3936133" lon="11.2630967"><ele>96.0</ele><time>2026-04-06T10:02:01.055Z</time></trkpt><trkpt lat="44.3936683" lon="11.2632717"><ele>97.0</ele><time>2026-04-06T10:02:02.055Z</time></trkpt><trkpt lat="44.3937083" lon="11.2634083"><ele>98.0</ele><time>2026-04-06T10:02:03.055Z</time></trkpt><trkpt lat="44.39375" lon="11.2635467"><ele>99.0</ele><time>2026-04-06T10:02:04.055Z</time></trkpt><trkpt lat="44.393775" lon="11.263685"><ele>99.0</ele><time>2026-04-06T10:02:05.055Z</time></trkpt><trkpt lat="44.3938" lon="11.2638067"><ele>99.0</ele><time>2026-04-06T10:02:06.055Z</time></trkpt><trkpt lat="44.39383" lon="11.2638933"><ele>99.0</ele><time>2026-04-06T10:02:07.055Z</time></trkpt><trkpt lat="44.3939" lon="11.2638733"><ele>99.0</ele><time>2026-04-06T10:02:09.055Z</time></trkpt><trkpt lat="44.3939083" lon="11.2637817"><ele>99.0</ele><time>2026-04-06T10:02:10.056Z</time></trkpt><trkpt lat="44.393895" lon="11.2636333"><ele>99.0</ele><time>2026-04-06T10:02:11.055Z</time></trkpt><trkpt lat="44.3938733" lon="11.2634667"><ele>97.4</ele><time>2026-04-06T10:02:12.055Z</time></trkpt><trkpt lat="44.3938683" lon="11.2632883"><ele>95.80000000000001</ele><time>2026-04-06T10:02:13.055Z</time></trkpt><trkpt lat="44.3938933" lon="11.2631583"><ele>94.19999999999999</ele><time>2026-04-06T10:02:14.056Z</time></trkpt><trkpt lat="44.39395" lon="11.2630833"><ele>92.6</ele><time>2026-04-06T10:02:15.055Z</time></trkpt><trkpt lat="44.394015" lon="11.2630817"><ele>91.0</ele><time>2026-04-06T10:02:16.055Z</time></trkpt><trkpt lat="44.3940983" lon="11.263145"><ele>90.4</ele><time>2026-04-06T10:02:17.055Z</time></trkpt><trkpt lat="44.39419" lon="11.2632583"><ele>89.8</ele><time>2026-04-06T10:02:18.055Z</time></trkpt><trkpt lat="44.3942679" lon="11.2633607"><ele>89.2</ele><time>2026-04-06T10:02:19.055Z</time></trkpt><trkpt lat="44.3943385" lon="11.2634495"><ele>88.60000000000001</ele><time>2026-04-06T10:02:20.055Z</time></trkpt><trkpt lat="44.3944209" lon="11.2635524"><ele>88.0</ele><time>2026-04-06T10:02:21.055Z</time></trkpt><trkpt lat="44.3945188" lon="11.2636748"><ele>88.0</ele><time>2026-04-06T10:02:22.055Z</time></trkpt><trkpt lat="44.3946136" lon="11.2637974"><ele>88.0</ele><time>2026-04-06T10:02:23.055Z</time></trkpt><trkpt lat="44.3946988" lon="11.2639032"><ele>88.0</ele><time>2026-04-06T10:02:24.055Z</time></trkpt><trkpt lat="44.3947979" lon="11.2640211"><ele>88.0</ele><time>2026-04-06T10:02:25.055Z</time></trkpt><trkpt lat="44.3949082" lon="11.2641569"><ele>88.0</ele><time>2026-04-06T10:02:26.055Z</time></trkpt><trkpt lat="44.3949978" lon="11.2642933"><ele>88.0</ele><time>2026-04-06T10:02:27.056Z</time></trkpt><trkpt lat="44.3950507" lon="11.2644165"><ele>88.0</ele><time>2026-04-06T10:02:28.055Z</time></trkpt><trkpt lat="44.395075" lon="11.264543"><ele>88.0</ele><time>2026-04-06T10:02:29.055Z</time></trkpt><trkpt lat="44.395065" lon="11.2646697"><ele>88.0</ele><time>2026-04-06T10:02:30.055Z</time></trkpt><trkpt lat="44.3950401" lon="11.2647836"><ele>88.25</ele><time>2026-04-06T10:02:31.055Z</time></trkpt><trkpt lat="44.3949908" lon="11.2648832"><ele>88.5</ele><time>2026-04-06T10:02:32.056Z</time></trkpt><trkpt lat="44.3948747" lon="11.2649588"><ele>88.75</ele><time>2026-04-06T10:02:33.055Z</time></trkpt><trkpt lat="44.394741" lon="11.2650147"><ele>89.0</ele><time>2026-04-06T10:02:34.055Z</time></trkpt><trkpt lat="44.3946213" lon="11.2650614"><ele>89.0</ele><time>2026-04-06T10:02:35.055Z</time></trkpt><trkpt lat="44.3945106" lon="11.2651074"><ele>89.0</ele><time>2026-04-06T10:02:36.056Z</time></trkpt><trkpt lat="44.3943934" lon="11.2651509"><ele>89.0</ele><time>2026-04-06T10:02:37.055Z</time></trkpt><trkpt lat="44.3942748" lon="11.2651898"><ele>89.0</ele><time>2026-04-06T10:02:38.055Z</time></trkpt><trkpt lat="44.3941844" lon="11.2652374"><ele>89.0</ele><time>2026-04-06T10:02:39.055Z</time></trkpt><trkpt lat="44.3941199" lon="11.2653076"><ele>89.0</ele><time>2026-04-06T10:02:40.055Z</time></trkpt><trkpt lat="44.3940781" lon="11.2654"><ele>89.0</ele><time>2026-04-06T10:02:41.055Z</time></trkpt><trkpt lat="44.3940439" lon="11.2654936"><ele>89.0</ele><time>2026-04-06T10:02:42.055Z</time></trkpt><trkpt lat="44.3939918" lon="11.2655609"><ele>89.0</ele><time>2026-04-06T10:02:43.056Z</time></trkpt><trkpt lat="44.393921" lon="11.2655754"><ele>89.0</ele><time>2026-04-06T10:02:44.056Z</time></trkpt><trkpt lat="44.3938382" lon="11.2655411"><ele>90.83333333333334</ele><time>2026-04-06T10:02:45.055Z</time></trkpt><trkpt lat="44.3937643" lon="11.2654799"><ele>92.66666666666667</ele><time>2026-04-06T10:02:46.055Z</time></trkpt><trkpt lat="44.3936987" lon="11.2653941"><ele>94.5</ele><time>2026-04-06T10:02:47.055Z</time></trkpt><trkpt lat="44.3936362" lon="11.2653078"><ele>96.33333333333334</ele><time>2026-04-06T10:02:48.055Z</time></trkpt><trkpt lat="44.3935934" lon="11.2652042"><ele>98.16666666666667</ele><time>2026-04-06T10:02:49.055Z</time></trkpt><trkpt lat="44.3935732" lon="11.2650968"><ele>100.0</ele><time>2026-04-06T10:02:50.055Z</time></trkpt><trkpt lat="44.3935751" lon="11.2649938"><ele>100.0</ele><time>2026-04-06T10:02:51.055Z</time></trkpt><trkpt lat="44.3936351" lon="11.2648658"><ele>100.0</ele><time>2026-04-06T10:02:53.055Z</time></trkpt><trkpt lat="44.3937037" lon="11.2648861"><ele>100.0</ele><time>2026-04-06T10:02:55.055Z</time></trkpt><trkpt lat="44.3937456" lon="11.2650217"><ele>100.0</ele><time>2026-04-06T10:02:57.055Z</time></trkpt><trkpt lat="44.3938426" lon="11.2651106"><ele>100.0</ele><time>2026-04-06T10:02:59.055Z</time></trkpt><trkpt lat="44.3939073" lon="11.265114"><ele>97.8</ele><time>2026-04-06T10:03:00.055Z</time></trkpt><trkpt lat="44.3939869" lon="11.2650721"><ele>95.6</ele><time>2026-04-06T10:03:01.055Z</time></trkpt><trkpt lat="44.3940952" lon="11.2650098"><ele>93.4</ele><time>2026-04-06T10:03:02.055Z</time></trkpt><trkpt lat="44.3942144" lon="11.2649539"><ele>91.2</ele><time>2026-04-06T10:03:03.056Z</time></trkpt><trkpt lat="44.3943246" lon="11.2649115"><ele>89.0</ele><time>2026-04-06T10:03:04.055Z</time></trkpt><trkpt lat="44.3944425" lon="11.2648751"><ele>89.0</ele><time>2026-04-06T10:03:05.055Z</time></trkpt><trkpt lat="44.3945583" lon="11.2648253"><ele>89.0</ele><time>2026-04-06T10:03:06.055Z</time></trkpt><trkpt lat="44.3946524" lon="11.2647533"><ele>89.0</ele><time>2026-04-06T10:03:07.055Z</time></trkpt><trkpt lat="44.3947168" lon="11.264679"><ele>89.0</ele><time>2026-04-06T10:03:08.055Z</time></trkpt><trkpt lat="44.3947695" lon="11.264594"><ele>89.0</ele><time>2026-04-06T10:03:09.055Z</time></trkpt><trkpt lat="44.3947768" lon="11.2644961"><ele>89.0</ele><time>2026-04-06T10:03:10.055Z</time></trkpt><trkpt lat="44.3947593" lon="11.264382"><ele>89.0</ele><time>2026-04-06T10:03:11.055Z</time></trkpt><trkpt lat="44.3947173" lon="11.2642729"><ele>89.0</ele><time>2026-04-06T10:03:12.055Z</time></trkpt><trkpt lat="44.3946611" lon="11.2641704"><ele>89.0</ele><time>2026-04-06T10:03:13.055Z</time></trkpt><trkpt lat="44.3945914" lon="11.2640575"><ele>89.0</ele><time>2026-04-06T10:03:14.056Z</time></trkpt><trkpt lat="44.3945175" lon="11.263921"><ele>88.80000000000001</ele><time>2026-04-06T10:03:15.055Z</time></trkpt><trkpt lat="44.3944447" lon="11.2637903"><ele>88.60000000000001</ele><time>2026-04-06T10:03:16.055Z</time></trkpt><trkpt lat="44.3943792" lon="11.2636783"><ele>88.4</ele><time>2026-04-06T10:03:17.056Z</time></trkpt><trkpt lat="44.3943022" lon="11.2635715"><ele>88.2</ele><time>2026-04-06T10:03:18.055Z</time></trkpt><trkpt lat="44.3942119" lon="11.2634731"><ele>88.0</ele><time>2026-04-06T10:03:19.055Z</time></trkpt><trkpt lat="44.3941206" lon="11.2634043"><ele>88.0</ele><time>2026-04-06T10:03:20.055Z</time></trkpt><trkpt lat="44.3940403" lon="11.2633652"><ele>88.0</ele><time>2026-04-06T10:03:21.055Z</time></trkpt><trkpt lat="44.3939756" lon="11.2633665"><ele>88.0</ele><time>2026-04-06T10:03:22.055Z</time></trkpt><trkpt lat="44.3939355" lon="11.2635353"><ele>88.0</ele><time>2026-04-06T10:03:24.055Z</time></trkpt><trkpt lat="44.3939755" lon="11.2636737"><ele>88.0</ele><time>2026-04-06T10:03:25.055Z</time></trkpt><trkpt lat="44.3940472" lon="11.2638086"><ele>88.0</ele><time>2026-04-06T10:03:26.055Z</time></trkpt><trkpt lat="44.3941477" lon="11.2639145"><ele>88.0</ele><time>2026-04-06T10:03:27.056Z</time></trkpt><trkpt lat="44.3942508" lon="11.2640062"><ele>88.0</ele><time>2026-04-06T10:03:28.055Z</time></trkpt><trkpt lat="44.3943586" lon="11.2641044"><ele>88.0</ele><time>2026-04-06T10:03:29.055Z</time></trkpt><trkpt lat="44.394465" lon="11.2642034"><ele>88.2</ele><time>2026-04-06T10:03:30.055Z</time></trkpt><trkpt lat="44.3945488" lon="11.2643004"><ele>88.4</ele><time>2026-04-06T10:03:31.055Z</time></trkpt><trkpt lat="44.3946001" lon="11.2643892"><ele>88.60000000000001</ele><time>2026-04-06T10:03:32.055Z</time></trkpt><trkpt lat="44.3945936" lon="11.2645374"><ele>88.80000000000001</ele><time>2026-04-06T10:03:34.055Z</time></trkpt><trkpt lat="44.3945507" lon="11.2646238"><ele>89.0</ele><time>2026-04-06T10:03:35.055Z</time></trkpt><trkpt lat="44.3944791" lon="11.2647071"><ele>89.0</ele><time>2026-04-06T10:03:36.055Z</time></trkpt><trkpt lat="44.3943782" lon="11.2647751"><ele>89.0</ele><time>2026-04-06T10:03:37.055Z</time></trkpt><trkpt lat="44.3942796" lon="11.2648285"><ele>89.0</ele><time>2026-04-06T10:03:38.055Z</time></trkpt><trkpt lat="44.3942003" lon="11.264833"><ele>89.0</ele><time>2026-04-06T10:03:39.055Z</time></trkpt><trkpt lat="44.3941358" lon="11.2647948"><ele>89.0</ele><time>2026-04-06T10:03:40.055Z</time></trkpt><trkpt lat="44.394089" lon="11.26471"><ele>89.0</ele><time>2026-04-06T10:03:41.055Z</time></trkpt><trkpt lat="44.3940635" lon="11.2645958"><ele>89.0</ele><time>2026-04-06T10:03:42.055Z</time></trkpt><trkpt lat="44.3940505" lon="11.2644936"><ele>89.0</ele><time>2026-04-06T10:03:43.055Z</time></trkpt><trkpt lat="44.3940029" lon="11.2644358"><ele>89.0</ele><time>2026-04-06T10:03:45.055Z</time></trkpt><trkpt lat="44.3939912" lon="11.2645442"><ele>89.0</ele><time>2026-04-06T10:03:46.055Z</time></trkpt><trkpt lat="44.3939898" lon="11.2646845"><ele>89.0</ele><time>2026-04-06T10:03:47.055Z</time></trkpt><trkpt lat="44.393986" lon="11.2648017"><ele>89.0</ele><time>2026-04-06T10:03:48.055Z</time></trkpt><trkpt lat="44.3939187" lon="11.2648906"><ele>89.0</ele><time>2026-04-06T10:03:50.055Z</time></trkpt><trkpt lat="44.3938583" lon="11.264852"><ele>89.0</ele><time>2026-04-06T10:03:51.055Z</time></trkpt><trkpt lat="44.3937831" lon="11.2647749"><ele>89.0</ele><time>2026-04-06T10:03:52.055Z</time></trkpt><trkpt lat="44.393699" lon="11.2646753"><ele>89.0</ele><time>2026-04-06T10:03:53.056Z</time></trkpt><trkpt lat="44.3936141" lon="11.2645643"><ele>89.0</ele><time>2026-04-06T10:03:54.055Z</time></trkpt><trkpt lat="44.3935354" lon="11.2644257"><ele>91.0</ele><time>2026-04-06T10:03:55.055Z</time></trkpt><trkpt lat="44.3934752" lon="11.2642857"><ele>93.0</ele><time>2026-04-06T10:03:56.055Z</time></trkpt><trkpt lat="44.3934323" lon="11.2641552"><ele>95.0</ele><time>2026-04-06T10:03:57.055Z</time></trkpt><trkpt lat="44.3934074" lon="11.2640127"><ele>97.0</ele><time>2026-04-06T10:03:58.055Z</time></trkpt><trkpt lat="44.3933981" lon="11.2638743"><ele>99.0</ele><time>2026-04-06T10:03:59.056Z</time></trkpt><trkpt lat="44.3934009" lon="11.2637506"><ele>99.0</ele><time>2026-04-06T10:04:00.055Z</time></trkpt><trkpt lat="44.393415" lon="11.2636563"><ele>99.0</ele><time>2026-04-06T10:04:01.055Z</time></trkpt><trkpt lat="44.39347" lon="11.2636042"><ele>99.0</ele><time>2026-04-06T10:04:03.055Z</time></trkpt><trkpt lat="44.3935203" lon="11.2637037"><ele>99.0</ele><time>2026-04-06T10:04:05.055Z</time></trkpt><trkpt lat="44.3935185" lon="11.2638189"><ele>99.0</ele><time>2026-04-06T10:04:06.055Z</time></trkpt><trkpt lat="44.3935181" lon="11.2639862"><ele>99.0</ele><time>2026-04-06T10:04:07.056Z</time></trkpt><trkpt lat="44.3935271" lon="11.2641577"><ele>99.0</ele><time>2026-04-06T10:04:08.055Z</time></trkpt><trkpt lat="44.3935471" lon="11.2643018"><ele>99.0</ele><time>2026-04-06T10:04:09.055Z</time></trkpt><trkpt lat="44.3935756" lon="11.26441"><ele>99.0</ele><time>2026-04-06T10:04:10.055Z</time></trkpt><trkpt lat="44.3936122" lon="11.2644869"><ele>99.0</ele><time>2026-04-06T10:04:11.055Z</time></trkpt><trkpt lat="44.3936941" lon="11.2645363"><ele>99.0</ele><time>2026-04-06T10:04:13.055Z</time></trkpt><trkpt lat="44.3937263" lon="11.2644292"><ele>99.0</ele><time>2026-04-06T10:04:16.055Z</time></trkpt><trkpt lat="44.3937125" lon="11.2643068"><ele>99.0</ele><time>2026-04-06T10:04:18.055Z</time></trkpt><trkpt lat="44.3937618" lon="11.2642169"><ele>99.0</ele><time>2026-04-06T10:04:20.055Z</time></trkpt><trkpt lat="44.3938972" lon="11.2642474"><ele>99.0</ele><time>2026-04-06T10:04:22.056Z</time></trkpt><trkpt lat="44.394019" lon="11.2642942"><ele>99.0</ele><time>2026-04-06T10:04:23.055Z</time></trkpt><trkpt lat="44.3941512" lon="11.2643518"><ele>97.0</ele><time>2026-04-06T10:04:24.055Z</time></trkpt><trkpt lat="44.3942632" lon="11.2643869"><ele>95.0</ele><time>2026-04-06T10:04:25.055Z</time></trkpt><trkpt lat="44.3943463" lon="11.2643917"><ele>93.0</ele><time>2026-04-06T10:04:26.055Z</time></trkpt><trkpt lat="44.394436" lon="11.2643359"><ele>91.0</ele><time>2026-04-06T10:04:28.056Z</time></trkpt><trkpt lat="44.3943743" lon="11.2642793"><ele>89.0</ele><time>2026-04-06T10:04:29.055Z</time></trkpt><trkpt lat="44.3942758" lon="11.2642185"><ele>89.0</ele><time>2026-04-06T10:04:30.055Z</time></trkpt><trkpt lat="44.3941316" lon="11.2641617"><ele>89.0</ele><time>2026-04-06T10:04:31.055Z</time></trkpt><trkpt lat="44.3939886" lon="11.2641111"><ele>89.0</ele><time>2026-04-06T10:04:32.055Z</time></trkpt><trkpt lat="44.3938637" lon="11.2640501"><ele>89.0</ele><time>2026-04-06T10:04:33.056Z</time></trkpt><trkpt lat="44.3937598" lon="11.2639651"><ele>91.5</ele><time>2026-04-06T10:04:34.055Z</time></trkpt><trkpt lat="44.393679" lon="11.2638425"><ele>94.0</ele><time>2026-04-06T10:04:35.055Z</time></trkpt><trkpt lat="44.3936192" lon="11.2636979"><ele>96.5</ele><time>2026-04-06T10:04:36.055Z</time></trkpt><trkpt lat="44.3935819" lon="11.2635579"><ele>99.0</ele><time>2026-04-06T10:04:37.055Z</time></trkpt><trkpt lat="44.3935581" lon="11.2634149"><ele>99.0</ele><time>2026-04-06T10:04:38.055Z</time></trkpt><trkpt lat="44.3935217" lon="11.2632471"><ele>99.0</ele><time>2026-04-06T10:04:39.055Z</time></trkpt><trkpt lat="44.3934705" lon="11.2630499"><ele>99.0</ele><time>2026-04-06T10:04:40.055Z</time></trkpt><trkpt lat="44.3934319" lon="11.262854"><ele>99.0</ele><time>2026-04-06T10:04:41.055Z</time></trkpt><trkpt lat="44.3934115" lon="11.2626824"><ele>98.2</ele><time>2026-04-06T10:04:42.055Z</time></trkpt><trkpt lat="44.3934085" lon="11.262549"><ele>97.4</ele><time>2026-04-06T10:04:43.055Z</time></trkpt><trkpt lat="44.3934258" lon="11.2624508"><ele>96.6</ele><time>2026-04-06T10:04:44.055Z</time></trkpt><trkpt lat="44.3935437" lon="11.2624119"><ele>95.8</ele><time>2026-04-06T10:04:46.055Z</time></trkpt><trkpt lat="44.3936447" lon="11.2624542"><ele>95.0</ele><time>2026-04-06T10:04:47.055Z</time></trkpt><trkpt lat="44.3937445" lon="11.2625125"><ele>95.0</ele><time>2026-04-06T10:04:48.056Z</time></trkpt><trkpt lat="44.3938204" lon="11.2625854"><ele>95.0</ele><time>2026-04-06T10:04:49.055Z</time></trkpt><trkpt lat="44.3938711" lon="11.2626652"><ele>95.0</ele><time>2026-04-06T10:04:50.055Z</time></trkpt><trkpt lat="44.3938914" lon="11.2628114"><ele>95.0</ele><time>2026-04-06T10:04:52.055Z</time></trkpt><trkpt lat="44.393813" lon="11.2628575"><ele>95.0</ele><time>2026-04-06T10:04:54.055Z</time></trkpt><trkpt lat="44.3937434" lon="11.2628003"><ele>95.0</ele><time>2026-04-06T10:04:55.055Z</time></trkpt><trkpt lat="44.3936797" lon="11.2627137"><ele>95.0</ele><time>2026-04-06T10:04:56.055Z</time></trkpt><trkpt lat="44.3936189" lon="11.2626247"><ele>95.0</ele><time>2026-04-06T10:04:57.055Z</time></trkpt><trkpt lat="44.3935228" lon="11.2625819"><ele>95.0</ele><time>2026-04-06T10:04:59.055Z</time></trkpt><trkpt lat="44.3934634" lon="11.2626533"><ele>95.0</ele><time>2026-04-06T10:05:01.055Z</time></trkpt><trkpt lat="44.3934916" lon="11.2628098"><ele>95.0</ele><time>2026-04-06T10:05:03.055Z</time></trkpt><trkpt lat="44.3935455" lon="11.2629616"><ele>96.0</ele><time>2026-04-06T10:05:04.055Z</time></trkpt><trkpt lat="44.393609" lon="11.263148"><ele>97.0</ele><time>2026-04-06T10:05:05.055Z</time></trkpt><trkpt lat="44.3936784" lon="11.2633217"><ele>98.0</ele><time>2026-04-06T10:05:06.055Z</time></trkpt><trkpt lat="44.3937292" lon="11.263473"><ele>99.0</ele><time>2026-04-06T10:05:07.055Z</time></trkpt><trkpt lat="44.3937625" lon="11.2636239"><ele>99.0</ele><time>2026-04-06T10:05:08.055Z</time></trkpt><trkpt lat="44.3937913" lon="11.2637518"><ele>99.0</ele><time>2026-04-06T10:05:09.055Z</time></trkpt><trkpt lat="44.3938194" lon="11.2638583"><ele>99.0</ele><time>2026-04-06T10:05:10.055Z</time></trkpt><trkpt lat="44.3938954" lon="11.263889"><ele>99.0</ele><time>2026-04-06T10:05:12.055Z</time></trkpt><trkpt lat="44.393893" lon="11.2636707"><ele>99.0</ele><time>2026-04-06T10:05:14.055Z</time></trkpt><trkpt lat="44.3938744" lon="11.2635147"><ele>97.66666666666667</ele><time>2026-04-06T10:05:15.055Z</time></trkpt><trkpt lat="44.3938661" lon="11.2633604"><ele>96.33333333333333</ele><time>2026-04-06T10:05:16.055Z</time></trkpt><trkpt lat="44.3938771" lon="11.2632319"><ele>95.0</ele><time>2026-04-06T10:05:17.055Z</time></trkpt><trkpt lat="44.3939022" lon="11.2631279"><ele>93.66666666666666</ele><time>2026-04-06T10:05:18.055Z</time></trkpt><trkpt lat="44.3939436" lon="11.2630565"><ele>92.33333333333333</ele><time>2026-04-06T10:05:19.055Z</time></trkpt><trkpt lat="44.3940122" lon="11.2630769"><ele>91.0</ele><time>2026-04-06T10:05:20.055Z</time></trkpt><trkpt lat="44.394093" lon="11.2631472"><ele>90.4</ele><time>2026-04-06T10:05:21.056Z</time></trkpt><trkpt lat="44.3941815" lon="11.2632357"><ele>89.8</ele><time>2026-04-06T10:05:22.055Z</time></trkpt><trkpt lat="44.3942643" lon="11.2633257"><ele>89.2</ele><time>2026-04-06T10:05:23.055Z</time></trkpt><trkpt lat="44.3943417" lon="11.2634271"><ele>88.60000000000001</ele><time>2026-04-06T10:05:24.055Z</time></trkpt><trkpt lat="44.3944339" lon="11.2635463"><ele>88.0</ele><time>2026-04-06T10:05:25.055Z</time></trkpt><trkpt lat="44.3945283" lon="11.2636743"><ele>88.0</ele><time>2026-04-06T10:05:26.055Z</time></trkpt><trkpt lat="44.3946146" lon="11.2637925"><ele>88.0</ele><time>2026-04-06T10:05:27.055Z</time></trkpt><trkpt lat="44.3946944" lon="11.2638975"><ele>88.0</ele><time>2026-04-06T10:05:28.056Z</time></trkpt><trkpt lat="44.3947904" lon="11.264016"><ele>88.0</ele><time>2026-04-06T10:05:29.056Z</time></trkpt><trkpt lat="44.394883" lon="11.2641439"><ele>88.0</ele><time>2026-04-06T10:05:30.055Z</time></trkpt><trkpt lat="44.3949621" lon="11.2642781"><ele>88.0</ele><time>2026-04-06T10:05:31.055Z</time></trkpt><trkpt lat="44.395021" lon="11.2643971"><ele>88.0</ele><time>2026-04-06T10:05:32.055Z</time></trkpt><trkpt lat="44.3950532" lon="11.2645122"><ele>88.0</ele><time>2026-04-06T10:05:33.056Z</time></trkpt><trkpt lat="44.3950673" lon="11.2646295"><ele>88.0</ele><time>2026-04-06T10:05:34.055Z</time></trkpt><trkpt lat="44.395057" lon="11.2647386"><ele>88.2</ele><time>2026-04-06T10:05:35.055Z</time></trkpt><trkpt lat="44.3950143" lon="11.2648354"><ele>88.4</ele><time>2026-04-06T10:05:36.055Z</time></trkpt><trkpt lat="44.3949386" lon="11.2649165"><ele>88.60000000000001</ele><time>2026-04-06T10:05:37.055Z</time></trkpt><trkpt lat="44.3948473" lon="11.2649845"><ele>88.80000000000001</ele><time>2026-04-06T10:05:38.055Z</time></trkpt><trkpt lat="44.3947499" lon="11.2650458"><ele>89.0</ele><time>2026-04-06T10:05:39.055Z</time></trkpt><trkpt lat="44.3946473" lon="11.2650935"><ele>89.0</ele><time>2026-04-06T10:05:40.055Z</time></trkpt><trkpt lat="44.3945372" lon="11.2651275"><ele>89.0</ele><time>2026-04-06T10:05:41.055Z</time></trkpt><trkpt lat="44.3944466" lon="11.2651521"><ele>89.0</ele><time>2026-04-06T10:05:42.055Z</time></trkpt><trkpt lat="44.3943675" lon="11.2651704"><ele>89.0</ele><time>2026-04-06T10:05:43.055Z</time></trkpt><trkpt lat="44.3942984" lon="11.2651916"><ele>89.0</ele><time>2026-04-06T10:05:44.055Z</time></trkpt><trkpt lat="44.3942355" lon="11.2652178"><ele>89.0</ele><time>2026-04-06T10:05:45.055Z</time></trkpt><trkpt lat="44.394145" lon="11.2652967"><ele>88.99999999999999</ele><time>2026-04-06T10:05:47.055Z</time></trkpt><trkpt lat="44.3941167" lon="11.26539"><ele>89.0</ele><time>2026-04-06T10:05:49.055Z</time></trkpt><trkpt lat="44.394115" lon="11.265495"><ele>89.0</ele><time>2026-04-06T10:05:51.055Z</time></trkpt><trkpt lat="44.3941517" lon="11.2655683"><ele>89.0</ele><time>2026-04-06T10:05:53.055Z</time></trkpt><trkpt lat="44.39421" lon="11.2656167"><ele>89.0</ele><time>2026-04-06T10:05:55.055Z</time></trkpt><trkpt lat="44.3942667" lon="11.26566"><ele>88.99999999999999</ele><time>2026-04-06T10:05:57.055Z</time></trkpt><trkpt lat="44.394335" lon="11.2656533"><ele>89.0</ele><time>2026-04-06T10:10:12.055Z</time></trkpt><trkpt lat="44.3942683" lon="11.2656133"><ele>89.0</ele><time>2026-04-06T10:10:17.056Z</time></trkpt><trkpt lat="44.3941817" lon="11.2656133"><ele>89.0</ele><time>2026-04-06T10:10:20.055Z</time></trkpt><trkpt lat="44.3941133" lon="11.2655667"><ele>89.0</ele><time>2026-04-06T10:10:38.055Z</time></trkpt><trkpt lat="44.3939833" lon="11.26552"><ele>89.0</ele><time>2026-04-06T10:10:40.055Z</time></trkpt><trkpt lat="44.3938833" lon="11.265485"><ele>89.0</ele><time>2026-04-06T10:10:41.055Z</time></trkpt><trkpt lat="44.3937917" lon="11.265445"><ele>91.2</ele><time>2026-04-06T10:10:42.055Z</time></trkpt><trkpt lat="44.3937017" lon="11.2653883"><ele>93.4</ele><time>2026-04-06T10:10:43.055Z</time></trkpt><trkpt lat="44.3936333" lon="11.265305"><ele>95.6</ele><time>2026-04-06T10:10:44.055Z</time></trkpt><trkpt lat="44.3935967" lon="11.2651867"><ele>97.8</ele><time>2026-04-06T10:10:45.055Z</time></trkpt><trkpt lat="44.3935983" lon="11.2650567"><ele>100.0</ele><time>2026-04-06T10:10:46.055Z</time></trkpt><trkpt lat="44.39362" lon="11.2649233"><ele>100.00000000000001</ele><time>2026-04-06T10:10:47.055Z</time></trkpt><trkpt lat="44.39366" lon="11.2648483"><ele>100.0</ele><time>2026-04-06T10:10:48.055Z</time></trkpt><trkpt lat="44.3937445" lon="11.2649028"><ele>100.0</ele><time>2026-04-06T10:10:51.055Z</time></trkpt><trkpt lat="44.3937716" lon="11.2650005"><ele>100.0</ele><time>2026-04-06T10:10:52.055Z</time></trkpt><trkpt lat="44.3938035" lon="11.2650986"><ele>100.00000000000001</ele><time>2026-04-06T10:10:53.055Z</time></trkpt><trkpt lat="44.393839" lon="11.2651727"><ele>100.0</ele><time>2026-04-06T10:10:54.055Z</time></trkpt><trkpt lat="44.3939431" lon="11.2652127"><ele>97.8</ele><time>2026-04-06T10:10:56.055Z</time></trkpt><trkpt lat="44.3940161" lon="11.265168"><ele>95.6</ele><time>2026-04-06T10:10:57.055Z</time></trkpt><trkpt lat="44.3941054" lon="11.2650848"><ele>93.4</ele><time>2026-04-06T10:10:58.056Z</time></trkpt><trkpt lat="44.3942169" lon="11.2650076"><ele>91.2</ele><time>2026-04-06T10:10:59.055Z</time></trkpt><trkpt lat="44.3943286" lon="11.2649523"><ele>89.0</ele><time>2026-04-06T10:11:00.055Z</time></trkpt><trkpt lat="44.3944235" lon="11.2649086"><ele>89.0</ele><time>2026-04-06T10:11:01.056Z</time></trkpt><trkpt lat="44.3945215" lon="11.2648581"><ele>89.0</ele><time>2026-04-06T10:11:02.055Z</time></trkpt><trkpt lat="44.3946301" lon="11.2647923"><ele>89.0</ele><time>2026-04-06T10:11:03.055Z</time></trkpt><trkpt lat="44.3947026" lon="11.2647199"><ele>89.0</ele><time>2026-04-06T10:11:04.055Z</time></trkpt><trkpt lat="44.3947508" lon="11.2646479"><ele>89.0</ele><time>2026-04-06T10:11:05.055Z</time></trkpt><trkpt lat="44.3947831" lon="11.2645605"><ele>89.0</ele><time>2026-04-06T10:11:06.055Z</time></trkpt><trkpt lat="44.3947764" lon="11.2644428"><ele>89.0</ele><time>2026-04-06T10:11:07.055Z</time></trkpt><trkpt lat="44.3947442" lon="11.2643212"><ele>89.0</ele><time>2026-04-06T10:11:08.055Z</time></trkpt><trkpt lat="44.3946927" lon="11.2642163"><ele>89.0</ele><time>2026-04-06T10:11:09.055Z</time></trkpt><trkpt lat="44.3946341" lon="11.2641131"><ele>89.0</ele><time>2026-04-06T10:11:10.056Z</time></trkpt><trkpt lat="44.3945586" lon="11.2639919"><ele>88.80000000000001</ele><time>2026-04-06T10:11:11.056Z</time></trkpt><trkpt lat="44.3944756" lon="11.2638696"><ele>88.60000000000001</ele><time>2026-04-06T10:11:12.055Z</time></trkpt><trkpt lat="44.3944047" lon="11.2637669"><ele>88.4</ele><time>2026-04-06T10:11:13.055Z</time></trkpt><trkpt lat="44.3943442" lon="11.2636638"><ele>88.2</ele><time>2026-04-06T10:11:14.055Z</time></trkpt><trkpt lat="44.394264" lon="11.2635574"><ele>88.0</ele><time>2026-04-06T10:11:15.056Z</time></trkpt><trkpt lat="44.3941705" lon="11.2634606"><ele>88.0</ele><time>2026-04-06T10:11:16.055Z</time></trkpt><trkpt lat="44.3940842" lon="11.2633984"><ele>88.0</ele><time>2026-04-06T10:11:17.056Z</time></trkpt><trkpt lat="44.3940146" lon="11.2633775"><ele>88.0</ele><time>2026-04-06T10:11:18.055Z</time></trkpt><trkpt lat="44.3939356" lon="11.2634638"><ele>88.0</ele><time>2026-04-06T10:11:20.056Z</time></trkpt><trkpt lat="44.393952" lon="11.2635851"><ele>88.0</ele><time>2026-04-06T10:11:21.055Z</time></trkpt><trkpt lat="44.3940103" lon="11.2637287"><ele>88.0</ele><time>2026-04-06T10:11:22.055Z</time></trkpt><trkpt lat="44.3940938" lon="11.2638518"><ele>88.0</ele><time>2026-04-06T10:11:23.055Z</time></trkpt><trkpt lat="44.3941842" lon="11.2639536"><ele>88.0</ele><time>2026-04-06T10:11:24.055Z</time></trkpt><trkpt lat="44.3942828" lon="11.264049"><ele>88.0</ele><time>2026-04-06T10:11:25.055Z</time></trkpt><trkpt lat="44.3944014" lon="11.2641496"><ele>88.2</ele><time>2026-04-06T10:11:26.055Z</time></trkpt><trkpt lat="44.3945082" lon="11.2642541"><ele>88.4</ele><time>2026-04-06T10:11:27.055Z</time></trkpt><trkpt lat="44.3945834" lon="11.2643508"><ele>88.60000000000001</ele><time>2026-04-06T10:11:28.055Z</time></trkpt><trkpt lat="44.394622" lon="11.2644306"><ele>88.80000000000001</ele><time>2026-04-06T10:11:29.056Z</time></trkpt><trkpt lat="44.3946034" lon="11.2645192"><ele>89.0</ele><time>2026-04-06T10:11:30.055Z</time></trkpt><trkpt lat="44.3945529" lon="11.2646176"><ele>89.0</ele><time>2026-04-06T10:11:31.055Z</time></trkpt><trkpt lat="44.3944802" lon="11.2647117"><ele>89.0</ele><time>2026-04-06T10:11:32.055Z</time></trkpt><trkpt lat="44.394391" lon="11.2647934"><ele>89.0</ele><time>2026-04-06T10:11:33.055Z</time></trkpt><trkpt lat="44.3942926" lon="11.2648374"><ele>89.0</ele><time>2026-04-06T10:11:34.055Z</time></trkpt><trkpt lat="44.3941976" lon="11.2648441"><ele>89.0</ele><time>2026-04-06T10:11:35.055Z</time></trkpt><trkpt lat="44.3941287" lon="11.264816"><ele>89.0</ele><time>2026-04-06T10:11:36.055Z</time></trkpt><trkpt lat="44.394078" lon="11.2647451"><ele>89.0</ele><time>2026-04-06T10:11:37.055Z</time></trkpt><trkpt lat="44.3940533" lon="11.264637"><ele>89.0</ele><time>2026-04-06T10:11:38.055Z</time></trkpt><trkpt lat="44.3940464" lon="11.264526"><ele>89.0</ele><time>2026-04-06T10:11:39.055Z</time></trkpt><trkpt lat="44.3940123" lon="11.264444"><ele>89.0</ele><time>2026-04-06T10:11:41.055Z</time></trkpt><trkpt lat="44.3939975" lon="11.264534"><ele>89.0</ele><time>2026-04-06T10:11:42.056Z</time></trkpt><trkpt lat="44.3939932" lon="11.2646743"><ele>89.0</ele><time>2026-04-06T10:11:43.055Z</time></trkpt><trkpt lat="44.3939929" lon="11.2648077"><ele>89.0</ele><time>2026-04-06T10:11:44.055Z</time></trkpt><trkpt lat="44.3939378" lon="11.2649194"><ele>89.0</ele><time>2026-04-06T10:11:46.055Z</time></trkpt><trkpt lat="44.393861" lon="11.2648479"><ele>89.0</ele><time>2026-04-06T10:11:47.055Z</time></trkpt><trkpt lat="44.3937796" lon="11.2647547"><ele>89.0</ele><time>2026-04-06T10:11:48.055Z</time></trkpt><trkpt lat="44.3936936" lon="11.26466"><ele>91.0</ele><time>2026-04-06T10:11:49.056Z</time></trkpt><trkpt lat="44.3936109" lon="11.2645607"><ele>93.0</ele><time>2026-04-06T10:11:50.056Z</time></trkpt><trkpt lat="44.3935381" lon="11.2644505"><ele>95.0</ele><time>2026-04-06T10:11:51.055Z</time></trkpt><trkpt lat="44.3934747" lon="11.2643236"><ele>97.0</ele><time>2026-04-06T10:11:52.055Z</time></trkpt><trkpt lat="44.3934342" lon="11.2641918"><ele>99.0</ele><time>2026-04-06T10:11:53.055Z</time></trkpt><trkpt lat="44.3934074" lon="11.2640478"><ele>99.0</ele><time>2026-04-06T10:11:54.055Z</time></trkpt><trkpt lat="44.3933976" lon="11.2638834"><ele>99.0</ele><time>2026-04-06T10:11:55.055Z</time></trkpt><trkpt lat="44.3933992" lon="11.2637344"><ele>99.0</ele><time>2026-04-06T10:11:56.055Z</time></trkpt><trkpt lat="44.3934107" lon="11.2636233"><ele>99.0</ele><time>2026-04-06T10:11:57.056Z</time></trkpt><trkpt lat="44.3934576" lon="11.2635411"><ele>99.0</ele><time>2026-04-06T10:11:59.055Z</time></trkpt><trkpt lat="44.3934946" lon="11.2637099"><ele>99.0</ele><time>2026-04-06T10:12:02.055Z</time></trkpt><trkpt lat="44.393499" lon="11.2639074"><ele>99.0</ele><time>2026-04-06T10:12:03.056Z</time></trkpt><trkpt lat="44.3935165" lon="11.2641064"><ele>99.0</ele><time>2026-04-06T10:12:04.056Z</time></trkpt><trkpt lat="44.3935455" lon="11.2642715"><ele>99.0</ele><time>2026-04-06T10:12:05.055Z</time></trkpt><trkpt lat="44.3935826" lon="11.2643906"><ele>99.0</ele><time>2026-04-06T10:12:06.055Z</time></trkpt><trkpt lat="44.3936292" lon="11.2644852"><ele>99.0</ele><time>2026-04-06T10:12:07.055Z</time></trkpt><trkpt lat="44.3936798" lon="11.2645446"><ele>99.0</ele><time>2026-04-06T10:12:08.055Z</time></trkpt><trkpt lat="44.3937604" lon="11.2645738"><ele>99.0</ele><time>2026-04-06T10:12:10.055Z</time></trkpt><trkpt lat="44.3937591" lon="11.2644759"><ele>99.0</ele><time>2026-04-06T10:12:22.055Z</time></trkpt><trkpt lat="44.3937121" lon="11.2643508"><ele>99.0</ele><time>2026-04-06T10:12:24.055Z</time></trkpt><trkpt lat="44.3936946" lon="11.2642406"><ele>99.0</ele><time>2026-04-06T10:12:26.055Z</time></trkpt><trkpt lat="44.3937429" lon="11.2641649"><ele>99.0</ele><time>2026-04-06T10:12:28.055Z</time></trkpt><trkpt lat="44.3938788" lon="11.2641998"><ele>99.0</ele><time>2026-04-06T10:12:30.055Z</time></trkpt><trkpt lat="44.3940142" lon="11.2642549"><ele>99.0</ele><time>2026-04-06T10:12:31.055Z</time></trkpt><trkpt lat="44.3941714" lon="11.2643299"><ele>97.0</ele><time>2026-04-06T10:12:32.055Z</time></trkpt><trkpt lat="44.3943004" lon="11.2643805"><ele>95.0</ele><time>2026-04-06T10:12:33.055Z</time></trkpt><trkpt lat="44.3943941" lon="11.264391"><ele>93.0</ele><time>2026-04-06T10:12:34.055Z</time></trkpt><trkpt lat="44.3944581" lon="11.2643251"><ele>91.0</ele><time>2026-04-06T10:12:36.055Z</time></trkpt><trkpt lat="44.3943837" lon="11.2642617"><ele>89.0</ele><time>2026-04-06T10:12:37.055Z</time></trkpt><trkpt lat="44.3942591" lon="11.2642076"><ele>89.0</ele><time>2026-04-06T10:12:38.055Z</time></trkpt><trkpt lat="44.3941043" lon="11.2641554"><ele>89.0</ele><time>2026-04-06T10:12:39.055Z</time></trkpt><trkpt lat="44.3939576" lon="11.264091"><ele>89.0</ele><time>2026-04-06T10:12:40.055Z</time></trkpt><trkpt lat="44.3938264" lon="11.264017"><ele>91.5</ele><time>2026-04-06T10:12:41.055Z</time></trkpt><trkpt lat="44.3937189" lon="11.2639199"><ele>94.0</ele><time>2026-04-06T10:12:42.055Z</time></trkpt><trkpt lat="44.3936429" lon="11.2637876"><ele>96.5</ele><time>2026-04-06T10:12:43.056Z</time></trkpt><trkpt lat="44.3935915" lon="11.2636362"><ele>99.0</ele><time>2026-04-06T10:12:44.055Z</time></trkpt><trkpt lat="44.3935623" lon="11.2635008"><ele>99.0</ele><time>2026-04-06T10:12:45.055Z</time></trkpt><trkpt lat="44.3935415" lon="11.2633497"><ele>99.0</ele><time>2026-04-06T10:12:46.055Z</time></trkpt><trkpt lat="44.393503" lon="11.2631516"><ele>99.0</ele><time>2026-04-06T10:12:47.055Z</time></trkpt><trkpt lat="44.3934585" lon="11.2629307"><ele>99.0</ele><time>2026-04-06T10:12:48.055Z</time></trkpt><trkpt lat="44.393425" lon="11.2627249"><ele>98.2</ele><time>2026-04-06T10:12:49.055Z</time></trkpt><trkpt lat="44.3934111" lon="11.2625624"><ele>97.4</ele><time>2026-04-06T10:12:50.055Z</time></trkpt><trkpt lat="44.3934267" lon="11.2624502"><ele>96.6</ele><time>2026-04-06T10:12:51.055Z</time></trkpt><trkpt lat="44.3934653" lon="11.2623801"><ele>95.8</ele><time>2026-04-06T10:12:52.055Z</time></trkpt><trkpt lat="44.3936132" lon="11.2623979"><ele>95.0</ele><time>2026-04-06T10:12:54.055Z</time></trkpt><trkpt lat="44.3937069" lon="11.2624497"><ele>95.0</ele><time>2026-04-06T10:12:55.055Z</time></trkpt><trkpt lat="44.3937971" lon="11.2625469"><ele>95.0</ele><time>2026-04-06T10:12:56.055Z</time></trkpt><trkpt lat="44.3938701" lon="11.2626572"><ele>95.0</ele><time>2026-04-06T10:12:57.056Z</time></trkpt><trkpt lat="44.3939157" lon="11.2627471"><ele>95.0</ele><time>2026-04-06T10:12:58.056Z</time></trkpt><trkpt lat="44.3938794" lon="11.2628774"><ele>95.0</ele><time>2026-04-06T10:13:00.055Z</time></trkpt><trkpt lat="44.3937893" lon="11.2628643"><ele>95.0</ele><time>2026-04-06T10:13:02.055Z</time></trkpt><trkpt lat="44.3937296" lon="11.2627951"><ele>95.0</ele><time>2026-04-06T10:13:03.055Z</time></trkpt><trkpt lat="44.3936662" lon="11.2626919"><ele>95.0</ele><time>2026-04-06T10:13:04.055Z</time></trkpt><trkpt lat="44.3936061" lon="11.2626072"><ele>95.0</ele><time>2026-04-06T10:13:05.055Z</time></trkpt><trkpt lat="44.3935109" lon="11.2625672"><ele>95.0</ele><time>2026-04-06T10:13:07.055Z</time></trkpt><trkpt lat="44.3934917" lon="11.2626601"><ele>95.0</ele><time>2026-04-06T10:13:09.055Z</time></trkpt><trkpt lat="44.393568" lon="11.2629092"><ele>95.0</ele><time>2026-04-06T10:13:11.055Z</time></trkpt><trkpt lat="44.3936304" lon="11.2630932"><ele>95.0</ele><time>2026-04-06T10:13:12.055Z</time></trkpt><trkpt lat="44.3936818" lon="11.2632507"><ele>95.0</ele><time>2026-04-06T10:13:13.055Z</time></trkpt><trkpt lat="44.3937191" lon="11.2633878"><ele>95.0</ele><time>2026-04-06T10:13:14.055Z</time></trkpt><trkpt lat="44.3937469" lon="11.2635407"><ele>95.8</ele><time>2026-04-06T10:13:15.056Z</time></trkpt><trkpt lat="44.3937728" lon="11.2637002"><ele>96.6</ele><time>2026-04-06T10:13:16.055Z</time></trkpt><trkpt lat="44.3938027" lon="11.2638323"><ele>97.4</ele><time>2026-04-06T10:13:17.055Z</time></trkpt><trkpt lat="44.3938392" lon="11.2639244"><ele>98.2</ele><time>2026-04-06T10:13:18.055Z</time></trkpt><trkpt lat="44.3938698" lon="11.2637284"><ele>99.0</ele><time>2026-04-06T10:13:21.055Z</time></trkpt><trkpt lat="44.3938543" lon="11.2635526"><ele>97.4</ele><time>2026-04-06T10:13:22.055Z</time></trkpt><trkpt lat="44.3938543" lon="11.2633647"><ele>95.80000000000001</ele><time>2026-04-06T10:13:23.055Z</time></trkpt><trkpt lat="44.3938776" lon="11.2631962"><ele>94.19999999999999</ele><time>2026-04-06T10:13:24.055Z</time></trkpt><trkpt lat="44.3939203" lon="11.2630829"><ele>92.6</ele><time>2026-04-06T10:13:25.055Z</time></trkpt><trkpt lat="44.3939717" lon="11.2630232"><ele>91.0</ele><time>2026-04-06T10:13:26.055Z</time></trkpt><trkpt lat="44.3940877" lon="11.2630928"><ele>90.4</ele><time>2026-04-06T10:13:28.055Z</time></trkpt><trkpt lat="44.3941502" lon="11.2631952"><ele>89.8</ele><time>2026-04-06T10:13:29.055Z</time></trkpt><trkpt lat="44.3942194" lon="11.2633082"><ele>89.2</ele><time>2026-04-06T10:13:30.055Z</time></trkpt><trkpt lat="44.3942917" lon="11.2634101"><ele>88.60000000000001</ele><time>2026-04-06T10:13:31.055Z</time></trkpt><trkpt lat="44.3943755" lon="11.2635126"><ele>88.0</ele><time>2026-04-06T10:13:32.056Z</time></trkpt><trkpt lat="44.3944818" lon="11.2636346"><ele>88.0</ele><time>2026-04-06T10:13:33.055Z</time></trkpt><trkpt lat="44.3945843" lon="11.2637471"><ele>88.0</ele><time>2026-04-06T10:13:34.055Z</time></trkpt><trkpt lat="44.3946744" lon="11.2638445"><ele>88.0</ele><time>2026-04-06T10:13:35.055Z</time></trkpt><trkpt lat="44.3947651" lon="11.2639485"><ele>88.0</ele><time>2026-04-06T10:13:36.055Z</time></trkpt><trkpt lat="44.3948686" lon="11.2640739"><ele>88.0</ele><time>2026-04-06T10:13:37.055Z</time></trkpt><trkpt lat="44.3949698" lon="11.2642191"><ele>88.0</ele><time>2026-04-06T10:13:38.055Z</time></trkpt><trkpt lat="44.3950391" lon="11.2643478"><ele>88.0</ele><time>2026-04-06T10:13:39.055Z</time></trkpt><trkpt lat="44.3950711" lon="11.2644714"><ele>88.0</ele><time>2026-04-06T10:13:40.055Z</time></trkpt><trkpt lat="44.3950679" lon="11.2645931"><ele>88.0</ele><time>2026-04-06T10:13:41.055Z</time></trkpt><trkpt lat="44.39504" lon="11.264699"><ele>88.2</ele><time>2026-04-06T10:13:42.055Z</time></trkpt><trkpt lat="44.3949972" lon="11.2647922"><ele>88.4</ele><time>2026-04-06T10:13:43.055Z</time></trkpt><trkpt lat="44.3949291" lon="11.2648753"><ele>88.60000000000001</ele><time>2026-04-06T10:13:44.055Z</time></trkpt><trkpt lat="44.3948232" lon="11.2649514"><ele>88.80000000000001</ele><time>2026-04-06T10:13:45.055Z</time></trkpt><trkpt lat="44.3947033" lon="11.265017"><ele>89.0</ele><time>2026-04-06T10:13:46.055Z</time></trkpt><trkpt lat="44.3945946" lon="11.2650717"><ele>89.0</ele><time>2026-04-06T10:13:47.055Z</time></trkpt><trkpt lat="44.3944822" lon="11.2651208"><ele>89.0</ele><time>2026-04-06T10:13:48.055Z</time></trkpt><trkpt lat="44.394361" lon="11.2651645"><ele>89.0</ele><time>2026-04-06T10:13:49.055Z</time></trkpt><trkpt lat="44.3942526" lon="11.2652008"><ele>89.0</ele><time>2026-04-06T10:13:50.056Z</time></trkpt><trkpt lat="44.3941775" lon="11.2652396"><ele>89.0</ele><time>2026-04-06T10:13:51.055Z</time></trkpt><trkpt lat="44.3941104" lon="11.2653418"><ele>89.0</ele><time>2026-04-06T10:13:53.055Z</time></trkpt><trkpt lat="44.3941077" lon="11.2654513"><ele>89.0</ele><time>2026-04-06T10:13:55.055Z</time></trkpt><trkpt lat="44.3941442" lon="11.2655369"><ele>89.0</ele><time>2026-04-06T10:13:57.055Z</time></trkpt><trkpt lat="44.394235" lon="11.26562"><ele>89.0</ele><time>2026-04-06T10:14:08.056Z</time></trkpt><trkpt lat="44.3942817" lon="11.26568"><ele>89.0</ele><time>2026-04-06T10:14:09.055Z</time></trkpt><trkpt lat="44.3943367" lon="11.2657783"><ele>89.0</ele><time>2026-04-06T10:14:10.055Z</time></trkpt><trkpt lat="44.394385" lon="11.2658717"><ele>88.0</ele><time>2026-04-06T10:14:11.055Z</time></trkpt><trkpt lat="44.39443" lon="11.2659433"><ele>88.0</ele><time>2026-04-06T10:14:12.055Z</time></trkpt><trkpt lat="44.394485" lon="11.2660383"><ele>88.0</ele><time>2026-04-06T10:14:14.055Z</time></trkpt><trkpt lat="44.3945667" lon="11.26606"><ele>88.0</ele><time>2026-04-06T10:14:17.055Z</time></trkpt></trkseg><trkseg><trkpt lat="44.3938917" lon="11.265205"><ele>89.0</ele><time>2026-04-06T12:01:41.055Z</time></trkpt><trkpt lat="44.3939617" lon="11.2651367"><ele>89.0</ele><time>2026-04-06T12:01:43.055Z</time></trkpt><trkpt lat="44.39407" lon="11.26504"><ele>89.0</ele><time>2026-04-06T12:01:45.055Z</time></trkpt><trkpt lat="44.3941633" lon="11.2649833"><ele>89.0</ele><time>2026-04-06T12:01:46.056Z</time></trkpt><trkpt lat="44.3942583" lon="11.26495"><ele>89.0</ele><time>2026-04-06T12:01:47.055Z</time></trkpt><trkpt lat="44.394345" lon="11.2649267"><ele>89.0</ele><time>2026-04-06T12:01:48.055Z</time></trkpt><trkpt lat="44.39443" lon="11.2649"><ele>89.0</ele><time>2026-04-06T12:01:49.055Z</time></trkpt><trkpt lat="44.3945233" lon="11.264855"><ele>89.0</ele><time>2026-04-06T12:01:50.055Z</time></trkpt><trkpt lat="44.3946083" lon="11.2648"><ele>89.0</ele><time>2026-04-06T12:01:51.056Z</time></trkpt><trkpt lat="44.3946633" lon="11.264735"><ele>89.0</ele><time>2026-04-06T12:01:52.055Z</time></trkpt><trkpt lat="44.394705" lon="11.2646617"><ele>89.0</ele><time>2026-04-06T12:01:53.055Z</time></trkpt><trkpt lat="44.3947233" lon="11.26457"><ele>89.0</ele><time>2026-04-06T12:01:54.055Z</time></trkpt><trkpt lat="44.394725" lon="11.2644667"><ele>89.0</ele><time>2026-04-06T12:01:55.055Z</time></trkpt><trkpt lat="44.3947133" lon="11.264365"><ele>89.0</ele><time>2026-04-06T12:01:56.056Z</time></trkpt><trkpt lat="44.39467" lon="11.26428"><ele>89.0</ele><time>2026-04-06T12:01:57.055Z</time></trkpt><trkpt lat="44.3946133" lon="11.26419"><ele>89.0</ele><time>2026-04-06T12:01:58.055Z</time></trkpt><trkpt lat="44.39454" lon="11.2640767"><ele>89.0</ele><time>2026-04-06T12:01:59.055Z</time></trkpt><trkpt lat="44.3944717" lon="11.2639483"><ele>88.80000000000001</ele><time>2026-04-06T12:02:00.055Z</time></trkpt><trkpt lat="44.3944083" lon="11.2638517"><ele>88.60000000000001</ele><time>2026-04-06T12:02:01.055Z</time></trkpt><trkpt lat="44.3943533" lon="11.2637533"><ele>88.4</ele><time>2026-04-06T12:02:02.055Z</time></trkpt><trkpt lat="44.3942817" lon="11.2636483"><ele>88.2</ele><time>2026-04-06T12:02:03.055Z</time></trkpt><trkpt lat="44.3941933" lon="11.2635517"><ele>88.0</ele><time>2026-04-06T12:02:04.055Z</time></trkpt><trkpt lat="44.3941083" lon="11.2634817"><ele>88.0</ele><time>2026-04-06T12:02:05.056Z</time></trkpt><trkpt lat="44.3940383" lon="11.2634467"><ele>88.0</ele><time>2026-04-06T12:02:06.055Z</time></trkpt><trkpt lat="44.3939433" lon="11.263485"><ele>88.0</ele><time>2026-04-06T12:02:08.055Z</time></trkpt><trkpt lat="44.3939683" lon="11.26367"><ele>88.0</ele><time>2026-04-06T12:02:10.055Z</time></trkpt><trkpt lat="44.3940333" lon="11.26377"><ele>88.0</ele><time>2026-04-06T12:02:11.055Z</time></trkpt><trkpt lat="44.3941083" lon="11.263865"><ele>88.2</ele><time>2026-04-06T12:02:12.055Z</time></trkpt><trkpt lat="44.3941867" lon="11.2639517"><ele>88.4</ele><time>2026-04-06T12:02:13.055Z</time></trkpt><trkpt lat="44.3942717" lon="11.2640367"><ele>88.60000000000001</ele><time>2026-04-06T12:02:14.055Z</time></trkpt><trkpt lat="44.394365" lon="11.2641317"><ele>88.80000000000001</ele><time>2026-04-06T12:02:15.055Z</time></trkpt><trkpt lat="44.39446" lon="11.26422"><ele>89.0</ele><time>2026-04-06T12:02:16.055Z</time></trkpt><trkpt lat="44.394525" lon="11.2643183"><ele>89.0</ele><time>2026-04-06T12:02:17.055Z</time></trkpt><trkpt lat="44.39457" lon="11.2644133"><ele>89.0</ele><time>2026-04-06T12:02:18.056Z</time></trkpt><trkpt lat="44.394585" lon="11.2645067"><ele>89.0</ele><time>2026-04-06T12:02:19.055Z</time></trkpt><trkpt lat="44.394535" lon="11.2646033"><ele>89.0</ele><time>2026-04-06T12:02:20.055Z</time></trkpt><trkpt lat="44.3944783" lon="11.2646767"><ele>89.0</ele><time>2026-04-06T12:02:21.055Z</time></trkpt><trkpt lat="44.394405" lon="11.2647433"><ele>89.0</ele><time>2026-04-06T12:02:22.055Z</time></trkpt><trkpt lat="44.3943167" lon="11.2647983"><ele>89.0</ele><time>2026-04-06T12:02:23.055Z</time></trkpt><trkpt lat="44.39423" lon="11.2648333"><ele>89.0</ele><time>2026-04-06T12:02:24.055Z</time></trkpt><trkpt lat="44.3941567" lon="11.26484"><ele>89.0</ele><time>2026-04-06T12:02:25.055Z</time></trkpt><trkpt lat="44.3940767" lon="11.264695"><ele>89.0</ele><time>2026-04-06T12:02:27.055Z</time></trkpt><trkpt lat="44.3940583" lon="11.264585"><ele>89.0</ele><time>2026-04-06T12:02:28.055Z</time></trkpt><trkpt lat="44.3940433" lon="11.2644983"><ele>89.0</ele><time>2026-04-06T12:02:29.055Z</time></trkpt><trkpt lat="44.393965" lon="11.2645833"><ele>89.0</ele><time>2026-04-06T12:02:32.055Z</time></trkpt><trkpt lat="44.3939517" lon="11.264705"><ele>89.0</ele><time>2026-04-06T12:02:33.055Z</time></trkpt><trkpt lat="44.3939417" lon="11.2648183"><ele>89.0</ele><time>2026-04-06T12:02:34.055Z</time></trkpt><trkpt lat="44.39385" lon="11.2648483"><ele>89.0</ele><time>2026-04-06T12:02:36.055Z</time></trkpt><trkpt lat="44.3937817" lon="11.2648017"><ele>89.0</ele><time>2026-04-06T12:02:37.055Z</time></trkpt><trkpt lat="44.3937183" lon="11.2647417"><ele>89.0</ele><time>2026-04-06T12:02:38.055Z</time></trkpt><trkpt lat="44.39365" lon="11.2646633"><ele>91.0</ele><time>2026-04-06T12:02:39.056Z</time></trkpt><trkpt lat="44.393575" lon="11.2645833"><ele>93.0</ele><time>2026-04-06T12:02:40.056Z</time></trkpt><trkpt lat="44.3935067" lon="11.264505"><ele>95.0</ele><time>2026-04-06T12:02:41.055Z</time></trkpt><trkpt lat="44.3934583" lon="11.2644017"><ele>97.0</ele><time>2026-04-06T12:02:42.055Z</time></trkpt><trkpt lat="44.3934267" lon="11.2642967"><ele>99.0</ele><time>2026-04-06T12:02:43.055Z</time></trkpt><trkpt lat="44.3934017" lon="11.2641633"><ele>99.0</ele><time>2026-04-06T12:02:44.055Z</time></trkpt><trkpt lat="44.3933867" lon="11.2640083"><ele>99.0</ele><time>2026-04-06T12:02:45.055Z</time></trkpt><trkpt lat="44.3933817" lon="11.2638717"><ele>99.0</ele><time>2026-04-06T12:02:46.055Z</time></trkpt><trkpt lat="44.3933867" lon="11.2637583"><ele>99.0</ele><time>2026-04-06T12:02:47.055Z</time></trkpt><trkpt lat="44.3934183" lon="11.26363"><ele>99.0</ele><time>2026-04-06T12:02:48.055Z</time></trkpt><trkpt lat="44.3934717" lon="11.2635667"><ele>99.0</ele><time>2026-04-06T12:02:49.055Z</time></trkpt><trkpt lat="44.39355" lon="11.263605"><ele>99.0</ele><time>2026-04-06T12:02:51.055Z</time></trkpt><trkpt lat="44.3935667" lon="11.2636967"><ele>99.0</ele><time>2026-04-06T12:02:52.055Z</time></trkpt><trkpt lat="44.3935633" lon="11.2639183"><ele>99.0</ele><time>2026-04-06T12:02:53.055Z</time></trkpt><trkpt lat="44.3935683" lon="11.2641483"><ele>99.0</ele><time>2026-04-06T12:02:54.055Z</time></trkpt><trkpt lat="44.393585" lon="11.2643183"><ele>99.0</ele><time>2026-04-06T12:02:55.055Z</time></trkpt><trkpt lat="44.393615" lon="11.2644333"><ele>99.0</ele><time>2026-04-06T12:02:56.055Z</time></trkpt><trkpt lat="44.393695" lon="11.2644733"><ele>99.0</ele><time>2026-04-06T12:02:58.055Z</time></trkpt><trkpt lat="44.3937083" lon="11.2643867"><ele>99.0</ele><time>2026-04-06T12:03:01.055Z</time></trkpt><trkpt lat="44.39369" lon="11.2642767"><ele>99.0</ele><time>2026-04-06T12:03:03.055Z</time></trkpt><trkpt lat="44.3937417" lon="11.26417"><ele>97.0</ele><time>2026-04-06T12:03:05.055Z</time></trkpt><trkpt lat="44.39384" lon="11.2641467"><ele>95.0</ele><time>2026-04-06T12:03:07.055Z</time></trkpt><trkpt lat="44.3939067" lon="11.2641733"><ele>93.0</ele><time>2026-04-06T12:03:08.056Z</time></trkpt><trkpt lat="44.3940283" lon="11.2642417"><ele>91.0</ele><time>2026-04-06T12:03:09.055Z</time></trkpt><trkpt lat="44.3941533" lon="11.2642967"><ele>89.0</ele><time>2026-04-06T12:03:10.055Z</time></trkpt><trkpt lat="44.3942533" lon="11.26433"><ele>89.0</ele><time>2026-04-06T12:03:11.055Z</time></trkpt><trkpt lat="44.3943317" lon="11.2643433"><ele>89.0</ele><time>2026-04-06T12:03:12.055Z</time></trkpt><trkpt lat="44.394385" lon="11.2642933"><ele>89.0</ele><time>2026-04-06T12:03:14.055Z</time></trkpt><trkpt lat="44.3942533" lon="11.2642133"><ele>89.0</ele><time>2026-04-06T12:03:16.055Z</time></trkpt><trkpt lat="44.3941217" lon="11.26417"><ele>89.0</ele><time>2026-04-06T12:03:17.055Z</time></trkpt><trkpt lat="44.3939867" lon="11.2641233"><ele>89.0</ele><time>2026-04-06T12:03:18.055Z</time></trkpt><trkpt lat="44.393865" lon="11.26407"><ele>89.0</ele><time>2026-04-06T12:03:19.055Z</time></trkpt><trkpt lat="44.3937683" lon="11.2640033"><ele>89.0</ele><time>2026-04-06T12:03:20.055Z</time></trkpt><trkpt lat="44.3936867" lon="11.2639"><ele>89.0</ele><time>2026-04-06T12:03:21.055Z</time></trkpt><trkpt lat="44.3936267" lon="11.26377"><ele>91.5</ele><time>2026-04-06T12:03:22.055Z</time></trkpt><trkpt lat="44.3935883" lon="11.2636383"><ele>94.0</ele><time>2026-04-06T12:03:23.055Z</time></trkpt><trkpt lat="44.3935617" lon="11.2635083"><ele>96.5</ele><time>2026-04-06T12:03:24.055Z</time></trkpt><trkpt lat="44.39353" lon="11.2633383"><ele>99.0</ele><time>2026-04-06T12:03:25.055Z</time></trkpt><trkpt lat="44.3934817" lon="11.2631367"><ele>98.0</ele><time>2026-04-06T12:03:26.055Z</time></trkpt><trkpt lat="44.393435" lon="11.2629283"><ele>97.0</ele><time>2026-04-06T12:03:27.055Z</time></trkpt><trkpt lat="44.3934133" lon="11.2627417"><ele>96.0</ele><time>2026-04-06T12:03:28.055Z</time></trkpt><trkpt lat="44.3934133" lon="11.26258"><ele>95.0</ele><time>2026-04-06T12:03:29.055Z</time></trkpt><trkpt lat="44.3934283" lon="11.2624683"><ele>95.0</ele><time>2026-04-06T12:03:30.055Z</time></trkpt><trkpt lat="44.3934767" lon="11.2623733"><ele>95.0</ele><time>2026-04-06T12:03:32.055Z</time></trkpt><trkpt lat="44.393545" lon="11.262365"><ele>95.0</ele><time>2026-04-06T12:03:34.056Z</time></trkpt><trkpt lat="44.393615" lon="11.2623883"><ele>95.0</ele><time>2026-04-06T12:03:35.055Z</time></trkpt><trkpt lat="44.3936967" lon="11.2624283"><ele>95.0</ele><time>2026-04-06T12:03:36.055Z</time></trkpt><trkpt lat="44.39377" lon="11.2624833"><ele>95.0</ele><time>2026-04-06T12:03:37.055Z</time></trkpt><trkpt lat="44.393835" lon="11.26257"><ele>95.0</ele><time>2026-04-06T12:03:38.055Z</time></trkpt><trkpt lat="44.3938667" lon="11.26266"><ele>95.0</ele><time>2026-04-06T12:03:39.055Z</time></trkpt><trkpt lat="44.3938733" lon="11.2627617"><ele>95.0</ele><time>2026-04-06T12:03:40.055Z</time></trkpt><trkpt lat="44.3937883" lon="11.2628367"><ele>95.0</ele><time>2026-04-06T12:03:42.055Z</time></trkpt><trkpt lat="44.3936783" lon="11.2627417"><ele>95.0</ele><time>2026-04-06T12:03:44.055Z</time></trkpt><trkpt lat="44.393625" lon="11.2626567"><ele>95.0</ele><time>2026-04-06T12:03:45.055Z</time></trkpt><trkpt lat="44.39358" lon="11.2625867"><ele>95.0</ele><time>2026-04-06T12:03:46.056Z</time></trkpt><trkpt lat="44.39353" lon="11.262665"><ele>95.0</ele><time>2026-04-06T12:03:49.055Z</time></trkpt><trkpt lat="44.393555" lon="11.26281"><ele>95.0</ele><time>2026-04-06T12:03:51.055Z</time></trkpt><trkpt lat="44.3935767" lon="11.2629083"><ele>95.0</ele><time>2026-04-06T12:03:52.055Z</time></trkpt><trkpt lat="44.393615" lon="11.2630533"><ele>95.0</ele><time>2026-04-06T12:03:53.055Z</time></trkpt><trkpt lat="44.3936567" lon="11.263215"><ele>95.8</ele><time>2026-04-06T12:03:54.055Z</time></trkpt><trkpt lat="44.3936933" lon="11.26335"><ele>96.6</ele><time>2026-04-06T12:03:55.055Z</time></trkpt><trkpt lat="44.3937233" lon="11.2634767"><ele>97.4</ele><time>2026-04-06T12:03:56.055Z</time></trkpt><trkpt lat="44.3937517" lon="11.26361"><ele>98.2</ele><time>2026-04-06T12:03:57.055Z</time></trkpt><trkpt lat="44.39377" lon="11.2637383"><ele>99.0</ele><time>2026-04-06T12:03:58.055Z</time></trkpt><trkpt lat="44.3937983" lon="11.263835"><ele>99.0</ele><time>2026-04-06T12:03:59.055Z</time></trkpt><trkpt lat="44.3938617" lon="11.2639233"><ele>99.0</ele><time>2026-04-06T12:04:01.055Z</time></trkpt><trkpt lat="44.3938633" lon="11.2637317"><ele>99.0</ele><time>2026-04-06T12:04:03.055Z</time></trkpt><trkpt lat="44.3938417" lon="11.2635867"><ele>99.0</ele><time>2026-04-06T12:04:04.055Z</time></trkpt><trkpt lat="44.3938317" lon="11.2634317"><ele>99.0</ele><time>2026-04-06T12:04:05.055Z</time></trkpt><trkpt lat="44.3938433" lon="11.263295"><ele>97.66666666666667</ele><time>2026-04-06T12:04:06.055Z</time></trkpt><trkpt lat="44.3938667" lon="11.2631833"><ele>96.33333333333333</ele><time>2026-04-06T12:04:07.055Z</time></trkpt><trkpt lat="44.3938983" lon="11.263095"><ele>95.0</ele><time>2026-04-06T12:04:08.055Z</time></trkpt><trkpt lat="44.393955" lon="11.263045"><ele>93.66666666666666</ele><time>2026-04-06T12:04:09.055Z</time></trkpt><trkpt lat="44.3940217" lon="11.2630533"><ele>92.33333333333333</ele><time>2026-04-06T12:04:10.055Z</time></trkpt><trkpt lat="44.3940983" lon="11.2631183"><ele>91.0</ele><time>2026-04-06T12:04:11.056Z</time></trkpt><trkpt lat="44.39417" lon="11.2632233"><ele>90.25</ele><time>2026-04-06T12:04:12.055Z</time></trkpt><trkpt lat="44.394235" lon="11.2633217"><ele>89.5</ele><time>2026-04-06T12:04:13.055Z</time></trkpt><trkpt lat="44.3943217" lon="11.263445"><ele>88.75</ele><time>2026-04-06T12:04:14.055Z</time></trkpt><trkpt lat="44.3944333" lon="11.2635867"><ele>88.0</ele><time>2026-04-06T12:04:15.056Z</time></trkpt><trkpt lat="44.3945367" lon="11.2637167"><ele>88.0</ele><time>2026-04-06T12:04:16.055Z</time></trkpt><trkpt lat="44.394625" lon="11.2638317"><ele>88.0</ele><time>2026-04-06T12:04:17.055Z</time></trkpt><trkpt lat="44.3947217" lon="11.26396"><ele>88.0</ele><time>2026-04-06T12:04:18.055Z</time></trkpt><trkpt lat="44.3948333" lon="11.2640983"><ele>88.0</ele><time>2026-04-06T12:04:19.055Z</time></trkpt><trkpt lat="44.394935" lon="11.264235"><ele>88.0</ele><time>2026-04-06T12:04:20.056Z</time></trkpt><trkpt lat="44.395" lon="11.2643567"><ele>88.0</ele><time>2026-04-06T12:04:21.055Z</time></trkpt><trkpt lat="44.3950383" lon="11.2644817"><ele>88.0</ele><time>2026-04-06T12:04:22.055Z</time></trkpt><trkpt lat="44.3950467" lon="11.2645917"><ele>88.0</ele><time>2026-04-06T12:04:23.056Z</time></trkpt><trkpt lat="44.3950367" lon="11.264695"><ele>88.0</ele><time>2026-04-06T12:04:24.055Z</time></trkpt><trkpt lat="44.3950083" lon="11.2647833"><ele>88.0</ele><time>2026-04-06T12:04:25.055Z</time></trkpt><trkpt lat="44.39495" lon="11.26486"><ele>88.25</ele><time>2026-04-06T12:04:26.055Z</time></trkpt><trkpt lat="44.394845" lon="11.2649533"><ele>88.5</ele><time>2026-04-06T12:04:27.055Z</time></trkpt><trkpt lat="44.3947233" lon="11.265015"><ele>88.75</ele><time>2026-04-06T12:04:28.055Z</time></trkpt><trkpt lat="44.3946083" lon="11.26507"><ele>89.0</ele><time>2026-04-06T12:04:29.056Z</time></trkpt><trkpt lat="44.39449" lon="11.2651133"><ele>89.0</ele><time>2026-04-06T12:04:30.056Z</time></trkpt><trkpt lat="44.3943617" lon="11.26515"><ele>89.0</ele><time>2026-04-06T12:04:31.056Z</time></trkpt><trkpt lat="44.3942533" lon="11.26519"><ele>89.0</ele><time>2026-04-06T12:04:32.056Z</time></trkpt><trkpt lat="44.3941667" lon="11.26525"><ele>89.0</ele><time>2026-04-06T12:04:33.055Z</time></trkpt><trkpt lat="44.3940967" lon="11.2653333"><ele>89.0</ele><time>2026-04-06T12:04:34.055Z</time></trkpt><trkpt lat="44.394055" lon="11.26543"><ele>89.0</ele><time>2026-04-06T12:04:35.055Z</time></trkpt><trkpt lat="44.3940133" lon="11.2655117"><ele>89.0</ele><time>2026-04-06T12:04:36.056Z</time></trkpt><trkpt lat="44.3939617" lon="11.265565"><ele>89.0</ele><time>2026-04-06T12:04:37.055Z</time></trkpt><trkpt lat="44.3938267" lon="11.2655517"><ele>89.0</ele><time>2026-04-06T12:04:39.055Z</time></trkpt><trkpt lat="44.3937533" lon="11.2654917"><ele>89.0</ele><time>2026-04-06T12:04:40.055Z</time></trkpt><trkpt lat="44.3936817" lon="11.2654167"><ele>89.0</ele><time>2026-04-06T12:04:41.055Z</time></trkpt><trkpt lat="44.3936233" lon="11.26533"><ele>90.83333333333334</ele><time>2026-04-06T12:04:42.055Z</time></trkpt><trkpt lat="44.3935883" lon="11.2652283"><ele>92.66666666666667</ele><time>2026-04-06T12:04:43.055Z</time></trkpt><trkpt lat="44.393575" lon="11.2651167"><ele>94.5</ele><time>2026-04-06T12:04:44.055Z</time></trkpt><trkpt lat="44.3935783" lon="11.2650083"><ele>96.33333333333334</ele><time>2026-04-06T12:04:45.055Z</time></trkpt><trkpt lat="44.3935983" lon="11.2649233"><ele>98.16666666666667</ele><time>2026-04-06T12:04:46.055Z</time></trkpt><trkpt lat="44.3936883" lon="11.2648483"><ele>100.0</ele><time>2026-04-06T12:04:48.055Z</time></trkpt><trkpt lat="44.3937433" lon="11.2648983"><ele>100.0</ele><time>2026-04-06T12:04:49.055Z</time></trkpt><trkpt lat="44.3937783" lon="11.2650017"><ele>100.0</ele><time>2026-04-06T12:04:50.056Z</time></trkpt><trkpt lat="44.393815" lon="11.2651"><ele>100.0</ele><time>2026-04-06T12:04:51.055Z</time></trkpt><trkpt lat="44.3938617" lon="11.26516"><ele>100.0</ele><time>2026-04-06T12:04:52.055Z</time></trkpt><trkpt lat="44.3939683" lon="11.2651567"><ele>100.0</ele><time>2026-04-06T12:04:54.055Z</time></trkpt><trkpt lat="44.3940783" lon="11.2650483"><ele>97.8</ele><time>2026-04-06T12:04:56.055Z</time></trkpt><trkpt lat="44.3941767" lon="11.26499"><ele>95.6</ele><time>2026-04-06T12:04:57.055Z</time></trkpt><trkpt lat="44.3942683" lon="11.2649517"><ele>93.4</ele><time>2026-04-06T12:04:58.056Z</time></trkpt><trkpt lat="44.394355" lon="11.2649267"><ele>91.2</ele><time>2026-04-06T12:04:59.055Z</time></trkpt><trkpt lat="44.39445" lon="11.2649"><ele>89.0</ele><time>2026-04-06T12:05:00.055Z</time></trkpt><trkpt lat="44.3945533" lon="11.26484"><ele>89.0</ele><time>2026-04-06T12:05:01.055Z</time></trkpt><trkpt lat="44.39464" lon="11.2647717"><ele>89.0</ele><time>2026-04-06T12:05:02.055Z</time></trkpt><trkpt lat="44.3947067" lon="11.2647"><ele>89.0</ele><time>2026-04-06T12:05:03.055Z</time></trkpt><trkpt lat="44.3947583" lon="11.26462"><ele>89.0</ele><time>2026-04-06T12:05:04.055Z</time></trkpt><trkpt lat="44.3947467" lon="11.2644433"><ele>89.0</ele><time>2026-04-06T12:05:06.055Z</time></trkpt><trkpt lat="44.3947167" lon="11.264345"><ele>89.0</ele><time>2026-04-06T12:05:07.055Z</time></trkpt><trkpt lat="44.3946683" lon="11.2642433"><ele>89.0</ele><time>2026-04-06T12:05:08.055Z</time></trkpt><trkpt lat="44.3946033" lon="11.2641467"><ele>89.0</ele><time>2026-04-06T12:05:09.055Z</time></trkpt><trkpt lat="44.3945183" lon="11.2640217"><ele>89.0</ele><time>2026-04-06T12:05:10.055Z</time></trkpt><trkpt lat="44.3944467" lon="11.26391"><ele>89.0</ele><time>2026-04-06T12:05:11.055Z</time></trkpt><trkpt lat="44.3943833" lon="11.2638067"><ele>88.80000000000001</ele><time>2026-04-06T12:05:12.055Z</time></trkpt><trkpt lat="44.3943167" lon="11.26368"><ele>88.60000000000001</ele><time>2026-04-06T12:05:13.055Z</time></trkpt><trkpt lat="44.394235" lon="11.26356"><ele>88.4</ele><time>2026-04-06T12:05:14.055Z</time></trkpt><trkpt lat="44.39415" lon="11.2634633"><ele>88.2</ele><time>2026-04-06T12:05:15.055Z</time></trkpt><trkpt lat="44.3940717" lon="11.263405"><ele>88.0</ele><time>2026-04-06T12:05:16.055Z</time></trkpt><trkpt lat="44.3940033" lon="11.2633867"><ele>88.0</ele><time>2026-04-06T12:05:17.056Z</time></trkpt><trkpt lat="44.3939367" lon="11.263415"><ele>88.0</ele><time>2026-04-06T12:05:18.055Z</time></trkpt><trkpt lat="44.3939" lon="11.2635683"><ele>88.0</ele><time>2026-04-06T12:05:20.055Z</time></trkpt><trkpt lat="44.3940017" lon="11.2637217"><ele>88.0</ele><time>2026-04-06T12:05:21.055Z</time></trkpt><trkpt lat="44.3940933" lon="11.263835"><ele>88.0</ele><time>2026-04-06T12:05:22.055Z</time></trkpt><trkpt lat="44.3941717" lon="11.2639167"><ele>88.0</ele><time>2026-04-06T12:05:23.055Z</time></trkpt><trkpt lat="44.39427" lon="11.2640217"><ele>88.0</ele><time>2026-04-06T12:05:24.055Z</time></trkpt><trkpt lat="44.3943767" lon="11.2641267"><ele>88.0</ele><time>2026-04-06T12:05:25.055Z</time></trkpt><trkpt lat="44.39448" lon="11.26422"><ele>88.2</ele><time>2026-04-06T12:05:26.055Z</time></trkpt><trkpt lat="44.3945483" lon="11.264325"><ele>88.4</ele><time>2026-04-06T12:05:27.055Z</time></trkpt><trkpt lat="44.3945783" lon="11.2644183"><ele>88.60000000000001</ele><time>2026-04-06T12:05:28.055Z</time></trkpt><trkpt lat="44.3945867" lon="11.26454"><ele>88.80000000000001</ele><time>2026-04-06T12:05:29.055Z</time></trkpt><trkpt lat="44.3945283" lon="11.264655"><ele>89.0</ele><time>2026-04-06T12:05:30.055Z</time></trkpt><trkpt lat="44.3944483" lon="11.264735"><ele>89.0</ele><time>2026-04-06T12:05:31.055Z</time></trkpt><trkpt lat="44.39435" lon="11.2647967"><ele>89.0</ele><time>2026-04-06T12:05:32.055Z</time></trkpt><trkpt lat="44.3942583" lon="11.2648383"><ele>89.0</ele><time>2026-04-06T12:05:33.056Z</time></trkpt><trkpt lat="44.3941767" lon="11.2648483"><ele>89.0</ele><time>2026-04-06T12:05:34.055Z</time></trkpt><trkpt lat="44.3940883" lon="11.264745"><ele>89.0</ele><time>2026-04-06T12:05:36.055Z</time></trkpt><trkpt lat="44.3940683" lon="11.264635"><ele>89.0</ele><time>2026-04-06T12:05:37.055Z</time></trkpt><trkpt lat="44.39405" lon="11.2645383"><ele>89.0</ele><time>2026-04-06T12:05:38.055Z</time></trkpt><trkpt lat="44.3939883" lon="11.2644717"><ele>89.0</ele><time>2026-04-06T12:05:40.055Z</time></trkpt><trkpt lat="44.393965" lon="11.2646633"><ele>89.0</ele><time>2026-04-06T12:05:42.055Z</time></trkpt><trkpt lat="44.3939667" lon="11.26478"><ele>89.0</ele><time>2026-04-06T12:05:43.055Z</time></trkpt><trkpt lat="44.3939083" lon="11.2648867"><ele>89.0</ele><time>2026-04-06T12:05:45.055Z</time></trkpt><trkpt lat="44.3938417" lon="11.264875"><ele>89.0</ele><time>2026-04-06T12:05:46.055Z</time></trkpt><trkpt lat="44.39376" lon="11.2648217"><ele>89.0</ele><time>2026-04-06T12:05:47.055Z</time></trkpt><trkpt lat="44.393685" lon="11.2647367"><ele>89.0</ele><time>2026-04-06T12:05:48.055Z</time></trkpt><trkpt lat="44.3936083" lon="11.2646483"><ele>89.0</ele><time>2026-04-06T12:05:49.056Z</time></trkpt><trkpt lat="44.3935333" lon="11.2645583"><ele>91.0</ele><time>2026-04-06T12:05:50.056Z</time></trkpt><trkpt lat="44.3934683" lon="11.26445"><ele>93.0</ele><time>2026-04-06T12:05:51.055Z</time></trkpt><trkpt lat="44.3934283" lon="11.2643267"><ele>95.0</ele><time>2026-04-06T12:05:52.056Z</time></trkpt><trkpt lat="44.3934" lon="11.2641833"><ele>97.0</ele><time>2026-04-06T12:05:53.055Z</time></trkpt><trkpt lat="44.393385" lon="11.2640317"><ele>99.0</ele><time>2026-04-06T12:05:54.055Z</time></trkpt><trkpt lat="44.393385" lon="11.2638917"><ele>99.0</ele><time>2026-04-06T12:05:55.055Z</time></trkpt><trkpt lat="44.3933933" lon="11.2637767"><ele>99.0</ele><time>2026-04-06T12:05:56.055Z</time></trkpt><trkpt lat="44.3934133" lon="11.263675"><ele>99.0</ele><time>2026-04-06T12:05:57.055Z</time></trkpt><trkpt lat="44.3935033" lon="11.263675"><ele>99.0</ele><time>2026-04-06T12:05:59.055Z</time></trkpt><trkpt lat="44.3935583" lon="11.2637733"><ele>99.0</ele><time>2026-04-06T12:06:00.055Z</time></trkpt><trkpt lat="44.39358" lon="11.26393"><ele>99.0</ele><time>2026-04-06T12:06:01.055Z</time></trkpt><trkpt lat="44.39359" lon="11.2641"><ele>99.0</ele><time>2026-04-06T12:06:02.056Z</time></trkpt><trkpt lat="44.3935967" lon="11.2642483"><ele>99.0</ele><time>2026-04-06T12:06:03.055Z</time></trkpt><trkpt lat="44.39361" lon="11.2643667"><ele>99.0</ele><time>2026-04-06T12:06:04.055Z</time></trkpt><trkpt lat="44.3936317" lon="11.264455"><ele>99.0</ele><time>2026-04-06T12:06:05.055Z</time></trkpt><trkpt lat="44.3937" lon="11.2645317"><ele>99.0</ele><time>2026-04-06T12:06:07.055Z</time></trkpt><trkpt lat="44.3936933" lon="11.264415"><ele>99.0</ele><time>2026-04-06T12:06:10.056Z</time></trkpt><trkpt lat="44.3936767" lon="11.2643117"><ele>99.0</ele><time>2026-04-06T12:06:12.055Z</time></trkpt><trkpt lat="44.39375" lon="11.26421"><ele>99.0</ele><time>2026-04-06T12:06:14.055Z</time></trkpt><trkpt lat="44.3938667" lon="11.2641633"><ele>99.0</ele><time>2026-04-06T12:06:16.055Z</time></trkpt><trkpt lat="44.3939583" lon="11.2641867"><ele>97.0</ele><time>2026-04-06T12:06:17.055Z</time></trkpt><trkpt lat="44.394095" lon="11.26425"><ele>95.0</ele><time>2026-04-06T12:06:18.055Z</time></trkpt><trkpt lat="44.3942117" lon="11.2643"><ele>93.0</ele><time>2026-04-06T12:06:19.055Z</time></trkpt><trkpt lat="44.394305" lon="11.2643283"><ele>91.0</ele><time>2026-04-06T12:06:20.056Z</time></trkpt><trkpt lat="44.3943783" lon="11.26434"><ele>89.0</ele><time>2026-04-06T12:06:21.055Z</time></trkpt><trkpt lat="44.3942967" lon="11.2642617"><ele>89.0</ele><time>2026-04-06T12:06:24.056Z</time></trkpt><trkpt lat="44.3941833" lon="11.2642083"><ele>89.0</ele><time>2026-04-06T12:06:25.055Z</time></trkpt><trkpt lat="44.3940367" lon="11.2641517"><ele>89.0</ele><time>2026-04-06T12:06:26.055Z</time></trkpt><trkpt lat="44.3939017" lon="11.26409"><ele>89.0</ele><time>2026-04-06T12:06:27.055Z</time></trkpt><trkpt lat="44.3937933" lon="11.26402"><ele>91.0</ele><time>2026-04-06T12:06:28.055Z</time></trkpt><trkpt lat="44.3937083" lon="11.263935"><ele>93.0</ele><time>2026-04-06T12:06:29.055Z</time></trkpt><trkpt lat="44.3936417" lon="11.2638167"><ele>95.0</ele><time>2026-04-06T12:06:30.055Z</time></trkpt><trkpt lat="44.393595" lon="11.2636917"><ele>97.0</ele><time>2026-04-06T12:06:31.056Z</time></trkpt><trkpt lat="44.3935683" lon="11.2635667"><ele>99.0</ele><time>2026-04-06T12:06:32.055Z</time></trkpt><trkpt lat="44.39354" lon="11.2633917"><ele>99.0</ele><time>2026-04-06T12:06:33.055Z</time></trkpt><trkpt lat="44.3934933" lon="11.2631933"><ele>99.0</ele><time>2026-04-06T12:06:34.055Z</time></trkpt><trkpt lat="44.3934467" lon="11.2629867"><ele>99.0</ele><time>2026-04-06T12:06:35.055Z</time></trkpt><trkpt lat="44.39342" lon="11.262795"><ele>99.0</ele><time>2026-04-06T12:06:36.055Z</time></trkpt><trkpt lat="44.3934117" lon="11.2626517"><ele>98.33333333333333</ele><time>2026-04-06T12:06:37.055Z</time></trkpt><trkpt lat="44.39342" lon="11.2625333"><ele>97.66666666666667</ele><time>2026-04-06T12:06:38.056Z</time></trkpt><trkpt lat="44.393437" lon="11.262434"><ele>97.0</ele><time>2026-04-06T12:06:39.055Z</time></trkpt><trkpt lat="44.3935018" lon="11.2624042"><ele>96.33333333333334</ele><time>2026-04-06T12:06:40.055Z</time></trkpt><trkpt lat="44.3935749" lon="11.2623816"><ele>95.66666666666667</ele><time>2026-04-06T12:06:41.055Z</time></trkpt><trkpt lat="44.3936488" lon="11.2623869"><ele>95.0</ele><time>2026-04-06T12:06:42.055Z</time></trkpt><trkpt lat="44.3937247" lon="11.2624141"><ele>95.0</ele><time>2026-04-06T12:06:43.055Z</time></trkpt><trkpt lat="44.393795" lon="11.2624658"><ele>95.0</ele><time>2026-04-06T12:06:44.055Z</time></trkpt><trkpt lat="44.3938495" lon="11.2625351"><ele>95.0</ele><time>2026-04-06T12:06:45.055Z</time></trkpt><trkpt lat="44.3938764" lon="11.2626301"><ele>95.0</ele><time>2026-04-06T12:06:46.056Z</time></trkpt><trkpt lat="44.3938492" lon="11.2627222"><ele>95.0</ele><time>2026-04-06T12:06:47.055Z</time></trkpt><trkpt lat="44.3937994" lon="11.2627828"><ele>95.0</ele><time>2026-04-06T12:06:48.055Z</time></trkpt><trkpt lat="44.3937003" lon="11.2627813"><ele>95.0</ele><time>2026-04-06T12:06:50.055Z</time></trkpt><trkpt lat="44.393639" lon="11.2627255"><ele>95.0</ele><time>2026-04-06T12:06:51.055Z</time></trkpt><trkpt lat="44.3935821" lon="11.2626628"><ele>95.0</ele><time>2026-04-06T12:06:52.056Z</time></trkpt><trkpt lat="44.3935559" lon="11.2627822"><ele>95.0</ele><time>2026-04-06T12:06:56.055Z</time></trkpt><trkpt lat="44.3935839" lon="11.2628754"><ele>95.0</ele><time>2026-04-06T12:06:57.055Z</time></trkpt><trkpt lat="44.3936194" lon="11.2629994"><ele>95.0</ele><time>2026-04-06T12:06:58.055Z</time></trkpt><trkpt lat="44.3936626" lon="11.2631509"><ele>95.8</ele><time>2026-04-06T12:06:59.055Z</time></trkpt><trkpt lat="44.3936981" lon="11.2633018"><ele>96.6</ele><time>2026-04-06T12:07:00.056Z</time></trkpt><trkpt lat="44.3937251" lon="11.2634413"><ele>97.4</ele><time>2026-04-06T12:07:01.055Z</time></trkpt><trkpt lat="44.3937537" lon="11.2635902"><ele>98.2</ele><time>2026-04-06T12:07:02.055Z</time></trkpt><trkpt lat="44.3937788" lon="11.2637337"><ele>99.0</ele><time>2026-04-06T12:07:03.055Z</time></trkpt><trkpt lat="44.3938029" lon="11.2638451"><ele>99.0</ele><time>2026-04-06T12:07:04.055Z</time></trkpt><trkpt lat="44.3938794" lon="11.2639127"><ele>99.0</ele><time>2026-04-06T12:07:06.055Z</time></trkpt><trkpt lat="44.3938867" lon="11.263757"><ele>99.0</ele><time>2026-04-06T12:07:08.055Z</time></trkpt><trkpt lat="44.3938576" lon="11.2636078"><ele>99.0</ele><time>2026-04-06T12:07:09.055Z</time></trkpt><trkpt lat="44.3938304" lon="11.2634565"><ele>99.0</ele><time>2026-04-06T12:07:10.055Z</time></trkpt><trkpt lat="44.3938252" lon="11.263299"><ele>97.4</ele><time>2026-04-06T12:07:11.055Z</time></trkpt><trkpt lat="44.3938473" lon="11.2631708"><ele>95.80000000000001</ele><time>2026-04-06T12:07:12.055Z</time></trkpt><trkpt lat="44.3938884" lon="11.2630759"><ele>94.19999999999999</ele><time>2026-04-06T12:07:13.055Z</time></trkpt><trkpt lat="44.3940049" lon="11.2630268"><ele>92.6</ele><time>2026-04-06T12:07:15.055Z</time></trkpt><trkpt lat="44.3940868" lon="11.2630855"><ele>91.0</ele><time>2026-04-06T12:07:16.055Z</time></trkpt><trkpt lat="44.3941687" lon="11.2631808"><ele>90.25</ele><time>2026-04-06T12:07:17.056Z</time></trkpt><trkpt lat="44.3942423" lon="11.2632854"><ele>89.5</ele><time>2026-04-06T12:07:18.056Z</time></trkpt><trkpt lat="44.3943216" lon="11.2634066"><ele>88.75</ele><time>2026-04-06T12:07:19.055Z</time></trkpt><trkpt lat="44.3944217" lon="11.263541"><ele>88.0</ele><time>2026-04-06T12:07:20.055Z</time></trkpt><trkpt lat="44.394523" lon="11.2636769"><ele>88.0</ele><time>2026-04-06T12:07:21.055Z</time></trkpt><trkpt lat="44.3946106" lon="11.2637922"><ele>88.0</ele><time>2026-04-06T12:07:22.055Z</time></trkpt><trkpt lat="44.3947063" lon="11.2639175"><ele>88.0</ele><time>2026-04-06T12:07:23.055Z</time></trkpt><trkpt lat="44.3948162" lon="11.2640586"><ele>88.0</ele><time>2026-04-06T12:07:24.055Z</time></trkpt><trkpt lat="44.3949171" lon="11.2641992"><ele>88.0</ele><time>2026-04-06T12:07:25.055Z</time></trkpt><trkpt lat="44.3949901" lon="11.2643306"><ele>88.0</ele><time>2026-04-06T12:07:26.055Z</time></trkpt><trkpt lat="44.3950271" lon="11.264453"><ele>88.0</ele><time>2026-04-06T12:07:27.055Z</time></trkpt><trkpt lat="44.39504" lon="11.2645677"><ele>88.0</ele><time>2026-04-06T12:07:28.055Z</time></trkpt><trkpt lat="44.3950292" lon="11.2646684"><ele>88.0</ele><time>2026-04-06T12:07:29.055Z</time></trkpt><trkpt lat="44.3950037" lon="11.2647657"><ele>88.0</ele><time>2026-04-06T12:07:30.056Z</time></trkpt><trkpt lat="44.3949479" lon="11.2648629"><ele>88.25</ele><time>2026-04-06T12:07:31.055Z</time></trkpt><trkpt lat="44.3948734" lon="11.2649601"><ele>88.5</ele><time>2026-04-06T12:07:32.055Z</time></trkpt><trkpt lat="44.3947581" lon="11.2650344"><ele>88.75</ele><time>2026-04-06T12:07:33.056Z</time></trkpt><trkpt lat="44.394617" lon="11.2650943"><ele>89.0</ele><time>2026-04-06T12:07:34.055Z</time></trkpt><trkpt lat="44.3944784" lon="11.26514"><ele>89.0</ele><time>2026-04-06T12:07:35.055Z</time></trkpt><trkpt lat="44.3943428" lon="11.2651725"><ele>89.0</ele><time>2026-04-06T12:07:36.055Z</time></trkpt><trkpt lat="44.3942342" lon="11.2652116"><ele>89.0</ele><time>2026-04-06T12:07:37.055Z</time></trkpt><trkpt lat="44.3941538" lon="11.2652658"><ele>89.0</ele><time>2026-04-06T12:07:38.055Z</time></trkpt><trkpt lat="44.3940892" lon="11.2653446"><ele>89.0</ele><time>2026-04-06T12:07:39.055Z</time></trkpt><trkpt lat="44.3940401" lon="11.265443"><ele>89.0</ele><time>2026-04-06T12:07:40.055Z</time></trkpt><trkpt lat="44.3939937" lon="11.2655176"><ele>89.0</ele><time>2026-04-06T12:07:41.055Z</time></trkpt><trkpt lat="44.3938743" lon="11.2655541"><ele>89.0</ele><time>2026-04-06T12:07:43.055Z</time></trkpt><trkpt lat="44.3937948" lon="11.2655009"><ele>89.0</ele><time>2026-04-06T12:07:44.055Z</time></trkpt><trkpt lat="44.3937235" lon="11.2654391"><ele>89.0</ele><time>2026-04-06T12:07:45.055Z</time></trkpt><trkpt lat="44.3936567" lon="11.2653467"><ele>90.83333333333334</ele><time>2026-04-06T12:07:46.055Z</time></trkpt><trkpt lat="44.3936083" lon="11.2652433"><ele>92.66666666666667</ele><time>2026-04-06T12:07:47.055Z</time></trkpt><trkpt lat="44.39359" lon="11.2651183"><ele>94.5</ele><time>2026-04-06T12:07:48.055Z</time></trkpt><trkpt lat="44.393585" lon="11.2650067"><ele>96.33333333333334</ele><time>2026-04-06T12:07:49.056Z</time></trkpt><trkpt lat="44.3935967" lon="11.2649133"><ele>98.16666666666667</ele><time>2026-04-06T12:07:50.056Z</time></trkpt><trkpt lat="44.3936283" lon="11.2648317"><ele>100.0</ele><time>2026-04-06T12:07:51.055Z</time></trkpt><trkpt lat="44.3937167" lon="11.2648267"><ele>100.0</ele><time>2026-04-06T12:07:53.055Z</time></trkpt><trkpt lat="44.3937767" lon="11.26499"><ele>100.0</ele><time>2026-04-06T12:07:55.055Z</time></trkpt><trkpt lat="44.3938233" lon="11.2650733"><ele>100.0</ele><time>2026-04-06T12:07:56.055Z</time></trkpt><trkpt lat="44.3939183" lon="11.2651333"><ele>100.0</ele><time>2026-04-06T12:07:58.055Z</time></trkpt><trkpt lat="44.3940267" lon="11.2650583"><ele>100.0</ele><time>2026-04-06T12:08:00.055Z</time></trkpt><trkpt lat="44.3941167" lon="11.265"><ele>97.8</ele><time>2026-04-06T12:08:01.055Z</time></trkpt><trkpt lat="44.3942183" lon="11.2649567"><ele>95.6</ele><time>2026-04-06T12:08:02.055Z</time></trkpt><trkpt lat="44.3943167" lon="11.2649233"><ele>93.4</ele><time>2026-04-06T12:08:03.055Z</time></trkpt><trkpt lat="44.394415" lon="11.2648917"><ele>91.2</ele><time>2026-04-06T12:08:04.055Z</time></trkpt><trkpt lat="44.3945217" lon="11.264835"><ele>89.0</ele><time>2026-04-06T12:08:05.055Z</time></trkpt><trkpt lat="44.3946117" lon="11.2647633"><ele>89.0</ele><time>2026-04-06T12:08:06.055Z</time></trkpt><trkpt lat="44.3946767" lon="11.2646983"><ele>89.0</ele><time>2026-04-06T12:08:07.055Z</time></trkpt><trkpt lat="44.3947183" lon="11.2646217"><ele>89.0</ele><time>2026-04-06T12:08:08.055Z</time></trkpt><trkpt lat="44.394745" lon="11.26453"><ele>89.0</ele><time>2026-04-06T12:08:09.055Z</time></trkpt><trkpt lat="44.394745" lon="11.2644267"><ele>89.0</ele><time>2026-04-06T12:08:10.055Z</time></trkpt><trkpt lat="44.3947133" lon="11.2643233"><ele>89.0</ele><time>2026-04-06T12:08:11.055Z</time></trkpt><trkpt lat="44.394665" lon="11.2642383"><ele>89.0</ele><time>2026-04-06T12:08:12.055Z</time></trkpt><trkpt lat="44.3945983" lon="11.26415"><ele>89.0</ele><time>2026-04-06T12:08:13.056Z</time></trkpt><trkpt lat="44.39451" lon="11.2640233"><ele>89.0</ele><time>2026-04-06T12:08:14.055Z</time></trkpt><trkpt lat="44.3944267" lon="11.2639067"><ele>89.0</ele><time>2026-04-06T12:08:15.055Z</time></trkpt><trkpt lat="44.39435" lon="11.26379"><ele>89.0</ele><time>2026-04-06T12:08:16.055Z</time></trkpt><trkpt lat="44.39428" lon="11.2636717"><ele>88.80000000000001</ele><time>2026-04-06T12:08:17.056Z</time></trkpt><trkpt lat="44.3941967" lon="11.2635583"><ele>88.60000000000001</ele><time>2026-04-06T12:08:18.056Z</time></trkpt><trkpt lat="44.3941083" lon="11.26348"><ele>88.4</ele><time>2026-04-06T12:08:19.055Z</time></trkpt><trkpt lat="44.3940333" lon="11.2634317"><ele>88.2</ele><time>2026-04-06T12:08:20.055Z</time></trkpt><trkpt lat="44.3939642" lon="11.2634078"><ele>88.0</ele><time>2026-04-06T12:08:21.055Z</time></trkpt><trkpt lat="44.3938793" lon="11.2634754"><ele>88.0</ele><time>2026-04-06T12:08:23.055Z</time></trkpt><trkpt lat="44.3938871" lon="11.2635633"><ele>88.0</ele><time>2026-04-06T12:08:24.056Z</time></trkpt><trkpt lat="44.39394" lon="11.2636862"><ele>88.0</ele><time>2026-04-06T12:08:25.056Z</time></trkpt><trkpt lat="44.3940331" lon="11.2638084"><ele>88.0</ele><time>2026-04-06T12:08:26.055Z</time></trkpt><trkpt lat="44.3941374" lon="11.2639094"><ele>88.0</ele><time>2026-04-06T12:08:27.055Z</time></trkpt><trkpt lat="44.3942504" lon="11.2640188"><ele>88.2</ele><time>2026-04-06T12:08:28.055Z</time></trkpt><trkpt lat="44.3943641" lon="11.2641225"><ele>88.4</ele><time>2026-04-06T12:08:29.055Z</time></trkpt><trkpt lat="44.3944719" lon="11.2642241"><ele>88.60000000000001</ele><time>2026-04-06T12:08:30.055Z</time></trkpt><trkpt lat="44.3945425" lon="11.2643212"><ele>88.80000000000001</ele><time>2026-04-06T12:08:31.055Z</time></trkpt><trkpt lat="44.3945792" lon="11.2644172"><ele>89.0</ele><time>2026-04-06T12:08:32.056Z</time></trkpt><trkpt lat="44.3945714" lon="11.2645265"><ele>89.0</ele><time>2026-04-06T12:08:33.055Z</time></trkpt><trkpt lat="44.3945238" lon="11.264633"><ele>89.0</ele><time>2026-04-06T12:08:34.055Z</time></trkpt><trkpt lat="44.394457" lon="11.2647161"><ele>89.0</ele><time>2026-04-06T12:08:35.055Z</time></trkpt><trkpt lat="44.3943695" lon="11.2647823"><ele>89.0</ele><time>2026-04-06T12:08:36.055Z</time></trkpt><trkpt lat="44.3942721" lon="11.2648273"><ele>89.0</ele><time>2026-04-06T12:08:37.055Z</time></trkpt><trkpt lat="44.394185" lon="11.2648438"><ele>89.0</ele><time>2026-04-06T12:08:38.055Z</time></trkpt><trkpt lat="44.3941213" lon="11.2648319"><ele>89.0</ele><time>2026-04-06T12:08:39.055Z</time></trkpt><trkpt lat="44.3940862" lon="11.2647585"><ele>89.0</ele><time>2026-04-06T12:08:40.055Z</time></trkpt><trkpt lat="44.3940657" lon="11.2646409"><ele>89.0</ele><time>2026-04-06T12:08:41.055Z</time></trkpt><trkpt lat="44.394052" lon="11.2645248"><ele>89.0</ele><time>2026-04-06T12:08:42.055Z</time></trkpt><trkpt lat="44.3940033" lon="11.2644152"><ele>89.0</ele><time>2026-04-06T12:08:44.055Z</time></trkpt><trkpt lat="44.3939714" lon="11.2646183"><ele>89.0</ele><time>2026-04-06T12:08:46.055Z</time></trkpt><trkpt lat="44.3939769" lon="11.2647676"><ele>89.0</ele><time>2026-04-06T12:08:47.055Z</time></trkpt><trkpt lat="44.393968" lon="11.2648743"><ele>89.0</ele><time>2026-04-06T12:08:48.055Z</time></trkpt><trkpt lat="44.3938663" lon="11.2648892"><ele>89.0</ele><time>2026-04-06T12:08:50.055Z</time></trkpt><trkpt lat="44.3937786" lon="11.2648059"><ele>89.0</ele><time>2026-04-06T12:08:51.055Z</time></trkpt><trkpt lat="44.3937089" lon="11.2647291"><ele>91.0</ele><time>2026-04-06T12:08:52.056Z</time></trkpt><trkpt lat="44.3936409" lon="11.2646446"><ele>93.0</ele><time>2026-04-06T12:08:53.056Z</time></trkpt><trkpt lat="44.393567" lon="11.264557"><ele>95.0</ele><time>2026-04-06T12:08:54.055Z</time></trkpt><trkpt lat="44.3935054" lon="11.2644557"><ele>97.0</ele><time>2026-04-06T12:08:55.055Z</time></trkpt><trkpt lat="44.393457" lon="11.2643404"><ele>99.0</ele><time>2026-04-06T12:08:56.055Z</time></trkpt><trkpt lat="44.3934178" lon="11.2642291"><ele>99.0</ele><time>2026-04-06T12:08:57.055Z</time></trkpt><trkpt lat="44.3933937" lon="11.2640908"><ele>99.0</ele><time>2026-04-06T12:08:58.055Z</time></trkpt><trkpt lat="44.3933894" lon="11.2639396"><ele>99.0</ele><time>2026-04-06T12:08:59.055Z</time></trkpt><trkpt lat="44.3933966" lon="11.2638159"><ele>99.0</ele><time>2026-04-06T12:09:00.055Z</time></trkpt><trkpt lat="44.3934105" lon="11.2637097"><ele>99.0</ele><time>2026-04-06T12:09:01.055Z</time></trkpt><trkpt lat="44.3934278" lon="11.2636245"><ele>99.0</ele><time>2026-04-06T12:09:02.055Z</time></trkpt><trkpt lat="44.3934917" lon="11.263614"><ele>99.0</ele><time>2026-04-06T12:09:04.055Z</time></trkpt><trkpt lat="44.3935534" lon="11.2638838"><ele>99.0</ele><time>2026-04-06T12:09:06.055Z</time></trkpt><trkpt lat="44.3935861" lon="11.2641071"><ele>99.0</ele><time>2026-04-06T12:09:07.056Z</time></trkpt><trkpt lat="44.3936075" lon="11.264287"><ele>99.0</ele><time>2026-04-06T12:09:08.055Z</time></trkpt><trkpt lat="44.3936214" lon="11.264421"><ele>99.0</ele><time>2026-04-06T12:09:09.056Z</time></trkpt><trkpt lat="44.3936518" lon="11.2645072"><ele>99.0</ele><time>2026-04-06T12:09:10.055Z</time></trkpt><trkpt lat="44.393738" lon="11.2644694"><ele>99.0</ele><time>2026-04-06T12:09:12.056Z</time></trkpt><trkpt lat="44.3937248" lon="11.2643577"><ele>99.0</ele><time>2026-04-06T12:09:16.055Z</time></trkpt><trkpt lat="44.3936809" lon="11.2642639"><ele>99.0</ele><time>2026-04-06T12:09:18.055Z</time></trkpt><trkpt lat="44.3937144" lon="11.2641663"><ele>99.0</ele><time>2026-04-06T12:09:20.055Z</time></trkpt><trkpt lat="44.3938203" lon="11.2641429"><ele>99.0</ele><time>2026-04-06T12:09:22.055Z</time></trkpt><trkpt lat="44.3938884" lon="11.2641543"><ele>99.0</ele><time>2026-04-06T12:09:23.055Z</time></trkpt><trkpt lat="44.3939953" lon="11.2641982"><ele>99.0</ele><time>2026-04-06T12:09:24.055Z</time></trkpt><trkpt lat="44.3941118" lon="11.2642511"><ele>99.0</ele><time>2026-04-06T12:09:25.055Z</time></trkpt><trkpt lat="44.3942169" lon="11.2642921"><ele>97.0</ele><time>2026-04-06T12:09:26.055Z</time></trkpt><trkpt lat="44.3943027" lon="11.2643083"><ele>95.0</ele><time>2026-04-06T12:09:27.056Z</time></trkpt><trkpt lat="44.3943721" lon="11.264316"><ele>93.0</ele><time>2026-04-06T12:09:28.055Z</time></trkpt><trkpt lat="44.394318" lon="11.2642375"><ele>91.0</ele><time>2026-04-06T12:09:31.055Z</time></trkpt><trkpt lat="44.3942216" lon="11.2641883"><ele>89.0</ele><time>2026-04-06T12:09:32.055Z</time></trkpt><trkpt lat="44.3941005" lon="11.2641432"><ele>89.0</ele><time>2026-04-06T12:09:33.056Z</time></trkpt><trkpt lat="44.3939579" lon="11.2640895"><ele>89.0</ele><time>2026-04-06T12:09:34.055Z</time></trkpt><trkpt lat="44.3938299" lon="11.2640224"><ele>89.0</ele><time>2026-04-06T12:09:35.055Z</time></trkpt><trkpt lat="44.3937302" lon="11.263937"><ele>89.0</ele><time>2026-04-06T12:09:36.055Z</time></trkpt><trkpt lat="44.3936617" lon="11.2638244"><ele>91.5</ele><time>2026-04-06T12:09:37.056Z</time></trkpt><trkpt lat="44.3936118" lon="11.2636991"><ele>94.0</ele><time>2026-04-06T12:09:38.055Z</time></trkpt><trkpt lat="44.3935751" lon="11.2635721"><ele>96.5</ele><time>2026-04-06T12:09:39.056Z</time></trkpt><trkpt lat="44.3935456" lon="11.2634092"><ele>99.0</ele><time>2026-04-06T12:09:40.055Z</time></trkpt><trkpt lat="44.3935068" lon="11.2632165"><ele>98.0</ele><time>2026-04-06T12:09:41.055Z</time></trkpt><trkpt lat="44.3934595" lon="11.2630086"><ele>97.0</ele><time>2026-04-06T12:09:42.055Z</time></trkpt><trkpt lat="44.3934268" lon="11.2628158"><ele>96.0</ele><time>2026-04-06T12:09:43.055Z</time></trkpt><trkpt lat="44.3934167" lon="11.2626533"><ele>95.0</ele><time>2026-04-06T12:09:44.055Z</time></trkpt><trkpt lat="44.3934271" lon="11.2625336"><ele>95.0</ele><time>2026-04-06T12:09:45.056Z</time></trkpt><trkpt lat="44.3934516" lon="11.2624449"><ele>95.0</ele><time>2026-04-06T12:09:46.055Z</time></trkpt><trkpt lat="44.3935454" lon="11.2623567"><ele>95.0</ele><time>2026-04-06T12:09:48.055Z</time></trkpt><trkpt lat="44.3936258" lon="11.2623582"><ele>95.0</ele><time>2026-04-06T12:09:49.056Z</time></trkpt><trkpt lat="44.3937185" lon="11.2624019"><ele>95.0</ele><time>2026-04-06T12:09:50.055Z</time></trkpt><trkpt lat="44.3938026" lon="11.2624885"><ele>95.0</ele><time>2026-04-06T12:09:51.055Z</time></trkpt><trkpt lat="44.3938594" lon="11.2625988"><ele>95.0</ele><time>2026-04-06T12:09:52.055Z</time></trkpt><trkpt lat="44.3938797" lon="11.2627069"><ele>95.0</ele><time>2026-04-06T12:09:53.055Z</time></trkpt><trkpt lat="44.3938391" lon="11.2628399"><ele>95.0</ele><time>2026-04-06T12:09:55.055Z</time></trkpt><trkpt lat="44.3937182" lon="11.2627712"><ele>95.0</ele><time>2026-04-06T12:09:57.055Z</time></trkpt><trkpt lat="44.3936462" lon="11.2626624"><ele>95.0</ele><time>2026-04-06T12:09:58.055Z</time></trkpt><trkpt lat="44.3935841" lon="11.2625729"><ele>95.0</ele><time>2026-04-06T12:09:59.055Z</time></trkpt><trkpt lat="44.3935098" lon="11.2626024"><ele>95.0</ele><time>2026-04-06T12:10:01.055Z</time></trkpt><trkpt lat="44.3935233" lon="11.2627417"><ele>95.0</ele><time>2026-04-06T12:10:03.055Z</time></trkpt><trkpt lat="44.3935533" lon="11.262835"><ele>95.0</ele><time>2026-04-06T12:10:04.055Z</time></trkpt><trkpt lat="44.3935967" lon="11.2629717"><ele>95.0</ele><time>2026-04-06T12:10:05.055Z</time></trkpt><trkpt lat="44.393645" lon="11.2631417"><ele>95.8</ele><time>2026-04-06T12:10:06.055Z</time></trkpt><trkpt lat="44.3936883" lon="11.2632983"><ele>96.6</ele><time>2026-04-06T12:10:07.055Z</time></trkpt><trkpt lat="44.3937167" lon="11.2634417"><ele>97.4</ele><time>2026-04-06T12:10:08.056Z</time></trkpt><trkpt lat="44.3937433" lon="11.2635883"><ele>98.2</ele><time>2026-04-06T12:10:09.055Z</time></trkpt><trkpt lat="44.393775" lon="11.2637283"><ele>99.0</ele><time>2026-04-06T12:10:10.055Z</time></trkpt><trkpt lat="44.3937967" lon="11.263835"><ele>99.0</ele><time>2026-04-06T12:10:11.055Z</time></trkpt><trkpt lat="44.3938717" lon="11.2639183"><ele>99.0</ele><time>2026-04-06T12:10:13.056Z</time></trkpt><trkpt lat="44.3938583" lon="11.2637433"><ele>99.0</ele><time>2026-04-06T12:10:15.056Z</time></trkpt><trkpt lat="44.3938283" lon="11.2635967"><ele>99.0</ele><time>2026-04-06T12:10:16.055Z</time></trkpt><trkpt lat="44.3938167" lon="11.2634417"><ele>99.0</ele><time>2026-04-06T12:10:17.055Z</time></trkpt><trkpt lat="44.39383" lon="11.2632867"><ele>97.66666666666667</ele><time>2026-04-06T12:10:18.055Z</time></trkpt><trkpt lat="44.39386" lon="11.26316"><ele>96.33333333333333</ele><time>2026-04-06T12:10:19.055Z</time></trkpt><trkpt lat="44.3939017" lon="11.263065"><ele>95.0</ele><time>2026-04-06T12:10:20.055Z</time></trkpt><trkpt lat="44.393975" lon="11.2630733"><ele>93.66666666666666</ele><time>2026-04-06T12:10:21.055Z</time></trkpt><trkpt lat="44.39406" lon="11.2631217"><ele>92.33333333333333</ele><time>2026-04-06T12:10:22.055Z</time></trkpt><trkpt lat="44.3941367" lon="11.2632017"><ele>91.0</ele><time>2026-04-06T12:10:23.055Z</time></trkpt><trkpt lat="44.39421" lon="11.26329"><ele>90.25</ele><time>2026-04-06T12:10:24.055Z</time></trkpt><trkpt lat="44.3942783" lon="11.2633833"><ele>89.5</ele><time>2026-04-06T12:10:25.055Z</time></trkpt><trkpt lat="44.3943583" lon="11.2634883"><ele>88.75</ele><time>2026-04-06T12:10:26.055Z</time></trkpt><trkpt lat="44.3944517" lon="11.2636117"><ele>88.0</ele><time>2026-04-06T12:10:27.055Z</time></trkpt><trkpt lat="44.3945417" lon="11.263725"><ele>88.0</ele><time>2026-04-06T12:10:28.055Z</time></trkpt><trkpt lat="44.3946267" lon="11.26384"><ele>88.0</ele><time>2026-04-06T12:10:29.055Z</time></trkpt><trkpt lat="44.3947267" lon="11.2639667"><ele>88.0</ele><time>2026-04-06T12:10:30.055Z</time></trkpt><trkpt lat="44.394835" lon="11.2641033"><ele>88.0</ele><time>2026-04-06T12:10:31.056Z</time></trkpt><trkpt lat="44.39493" lon="11.26424"><ele>88.0</ele><time>2026-04-06T12:10:32.055Z</time></trkpt><trkpt lat="44.3949917" lon="11.2643683"><ele>88.0</ele><time>2026-04-06T12:10:33.056Z</time></trkpt><trkpt lat="44.3950133" lon="11.2644983"><ele>88.0</ele><time>2026-04-06T12:10:34.055Z</time></trkpt><trkpt lat="44.3950167" lon="11.26462"><ele>88.0</ele><time>2026-04-06T12:10:35.055Z</time></trkpt><trkpt lat="44.3950083" lon="11.26473"><ele>88.0</ele><time>2026-04-06T12:10:36.055Z</time></trkpt><trkpt lat="44.3949767" lon="11.2648217"><ele>88.0</ele><time>2026-04-06T12:10:37.055Z</time></trkpt><trkpt lat="44.394915" lon="11.264915"><ele>88.25</ele><time>2026-04-06T12:10:38.055Z</time></trkpt><trkpt lat="44.3948167" lon="11.2650033"><ele>88.5</ele><time>2026-04-06T12:10:39.055Z</time></trkpt><trkpt lat="44.3946967" lon="11.2650683"><ele>88.75</ele><time>2026-04-06T12:10:40.055Z</time></trkpt><trkpt lat="44.3945417" lon="11.2651183"><ele>89.0</ele><time>2026-04-06T12:10:41.056Z</time></trkpt><trkpt lat="44.39439" lon="11.2651567"><ele>89.0</ele><time>2026-04-06T12:10:42.055Z</time></trkpt><trkpt lat="44.394265" lon="11.2651917"><ele>89.0</ele><time>2026-04-06T12:10:43.055Z</time></trkpt><trkpt lat="44.3941767" lon="11.2652517"><ele>89.0</ele><time>2026-04-06T12:10:44.055Z</time></trkpt><trkpt lat="44.3941083" lon="11.2653317"><ele>89.0</ele><time>2026-04-06T12:10:45.055Z</time></trkpt><trkpt lat="44.39406" lon="11.2654417"><ele>89.0</ele><time>2026-04-06T12:10:46.055Z</time></trkpt><trkpt lat="44.3940133" lon="11.2655117"><ele>89.0</ele><time>2026-04-06T12:10:47.055Z</time></trkpt><trkpt lat="44.3938917" lon="11.2655617"><ele>89.0</ele><time>2026-04-06T12:10:49.055Z</time></trkpt><trkpt lat="44.39381" lon="11.2655317"><ele>89.0</ele><time>2026-04-06T12:10:50.055Z</time></trkpt><trkpt lat="44.393725" lon="11.26546"><ele>89.0</ele><time>2026-04-06T12:10:51.055Z</time></trkpt><trkpt lat="44.39365" lon="11.2653833"><ele>89.0</ele><time>2026-04-06T12:10:52.055Z</time></trkpt><trkpt lat="44.3935967" lon="11.2652883"><ele>90.83333333333334</ele><time>2026-04-06T12:10:53.055Z</time></trkpt><trkpt lat="44.393575" lon="11.265175"><ele>92.66666666666667</ele><time>2026-04-06T12:10:54.055Z</time></trkpt><trkpt lat="44.3935567" lon="11.2650633"><ele>94.5</ele><time>2026-04-06T12:10:55.055Z</time></trkpt><trkpt lat="44.393555" lon="11.2649567"><ele>96.33333333333334</ele><time>2026-04-06T12:10:56.056Z</time></trkpt><trkpt lat="44.3935783" lon="11.2648633"><ele>98.16666666666667</ele><time>2026-04-06T12:10:57.055Z</time></trkpt><trkpt lat="44.3936417" lon="11.2648367"><ele>100.0</ele><time>2026-04-06T12:10:58.056Z</time></trkpt><trkpt lat="44.393715" lon="11.2649183"><ele>100.0</ele><time>2026-04-06T12:10:59.055Z</time></trkpt><trkpt lat="44.3937617" lon="11.265025"><ele>100.0</ele><time>2026-04-06T12:11:00.055Z</time></trkpt><trkpt lat="44.3937983" lon="11.2651167"><ele>100.0</ele><time>2026-04-06T12:11:01.055Z</time></trkpt><trkpt lat="44.3939" lon="11.26519"><ele>100.0</ele><time>2026-04-06T12:11:03.055Z</time></trkpt><trkpt lat="44.3939983" lon="11.265125"><ele>100.0</ele><time>2026-04-06T12:11:05.055Z</time></trkpt><trkpt lat="44.3940717" lon="11.2650567"><ele>97.8</ele><time>2026-04-06T12:11:06.055Z</time></trkpt><trkpt lat="44.3941617" lon="11.2649967"><ele>95.6</ele><time>2026-04-06T12:11:07.055Z</time></trkpt><trkpt lat="44.3942517" lon="11.2649467"><ele>93.4</ele><time>2026-04-06T12:11:08.055Z</time></trkpt><trkpt lat="44.3943333" lon="11.2648983"><ele>91.2</ele><time>2026-04-06T12:11:09.055Z</time></trkpt><trkpt lat="44.3944233" lon="11.264855"><ele>89.0</ele><time>2026-04-06T12:11:10.055Z</time></trkpt><trkpt lat="44.3945233" lon="11.2647983"><ele>89.0</ele><time>2026-04-06T12:11:11.055Z</time></trkpt><trkpt lat="44.394605" lon="11.2647283"><ele>89.0</ele><time>2026-04-06T12:11:12.055Z</time></trkpt><trkpt lat="44.3946733" lon="11.2646583"><ele>89.0</ele><time>2026-04-06T12:11:13.055Z</time></trkpt><trkpt lat="44.3947217" lon="11.2645733"><ele>89.0</ele><time>2026-04-06T12:11:14.055Z</time></trkpt><trkpt lat="44.3947433" lon="11.2644733"><ele>89.0</ele><time>2026-04-06T12:11:15.055Z</time></trkpt><trkpt lat="44.3947383" lon="11.2643667"><ele>89.0</ele><time>2026-04-06T12:11:16.056Z</time></trkpt><trkpt lat="44.3946883" lon="11.26427"><ele>89.0</ele><time>2026-04-06T12:11:17.055Z</time></trkpt><trkpt lat="44.3946233" lon="11.264195"><ele>89.0</ele><time>2026-04-06T12:11:18.055Z</time></trkpt><trkpt lat="44.3945483" lon="11.2640867"><ele>89.0</ele><time>2026-04-06T12:11:19.055Z</time></trkpt><trkpt lat="44.3944733" lon="11.2639667"><ele>89.0</ele><time>2026-04-06T12:11:20.055Z</time></trkpt><trkpt lat="44.3944" lon="11.2638517"><ele>89.0</ele><time>2026-04-06T12:11:21.055Z</time></trkpt><trkpt lat="44.39433" lon="11.263735"><ele>88.80000000000001</ele><time>2026-04-06T12:11:22.055Z</time></trkpt><trkpt lat="44.3942533" lon="11.2636183"><ele>88.60000000000001</ele><time>2026-04-06T12:11:23.055Z</time></trkpt><trkpt lat="44.3941683" lon="11.2635133"><ele>88.4</ele><time>2026-04-06T12:11:24.055Z</time></trkpt><trkpt lat="44.3940817" lon="11.26345"><ele>88.2</ele><time>2026-04-06T12:11:25.055Z</time></trkpt><trkpt lat="44.3940167" lon="11.2634317"><ele>88.0</ele><time>2026-04-06T12:11:26.055Z</time></trkpt><trkpt lat="44.39393" lon="11.2634917"><ele>88.0</ele><time>2026-04-06T12:11:28.055Z</time></trkpt><trkpt lat="44.3939517" lon="11.2636083"><ele>88.0</ele><time>2026-04-06T12:11:29.055Z</time></trkpt><trkpt lat="44.394" lon="11.2637233"><ele>88.0</ele><time>2026-04-06T12:11:30.056Z</time></trkpt><trkpt lat="44.39407" lon="11.26384"><ele>88.0</ele><time>2026-04-06T12:11:31.055Z</time></trkpt><trkpt lat="44.3941567" lon="11.2639383"><ele>88.0</ele><time>2026-04-06T12:11:32.056Z</time></trkpt><trkpt lat="44.394255" lon="11.2640217"><ele>88.2</ele><time>2026-04-06T12:11:33.055Z</time></trkpt><trkpt lat="44.3943633" lon="11.2641117"><ele>88.4</ele><time>2026-04-06T12:11:34.055Z</time></trkpt><trkpt lat="44.394465" lon="11.2642133"><ele>88.60000000000001</ele><time>2026-04-06T12:11:35.055Z</time></trkpt><trkpt lat="44.3945333" lon="11.2643083"><ele>88.80000000000001</ele><time>2026-04-06T12:11:36.055Z</time></trkpt><trkpt lat="44.3945717" lon="11.2644"><ele>89.0</ele><time>2026-04-06T12:11:37.055Z</time></trkpt><trkpt lat="44.3945833" lon="11.26451"><ele>89.0</ele><time>2026-04-06T12:11:38.055Z</time></trkpt><trkpt lat="44.39454" lon="11.2646233"><ele>89.0</ele><time>2026-04-06T12:11:39.055Z</time></trkpt><trkpt lat="44.3944467" lon="11.264715"><ele>89.0</ele><time>2026-04-06T12:11:40.055Z</time></trkpt><trkpt lat="44.3943533" lon="11.2647683"><ele>89.0</ele><time>2026-04-06T12:11:41.055Z</time></trkpt><trkpt lat="44.394255" lon="11.264805"><ele>89.0</ele><time>2026-04-06T12:11:42.056Z</time></trkpt><trkpt lat="44.3941717" lon="11.264825"><ele>89.0</ele><time>2026-04-06T12:11:43.056Z</time></trkpt><trkpt lat="44.39409" lon="11.2647167"><ele>89.0</ele><time>2026-04-06T12:11:45.055Z</time></trkpt><trkpt lat="44.3940667" lon="11.2646033"><ele>89.0</ele><time>2026-04-06T12:11:46.055Z</time></trkpt><trkpt lat="44.3940483" lon="11.2645083"><ele>89.0</ele><time>2026-04-06T12:11:47.055Z</time></trkpt><trkpt lat="44.39398" lon="11.26448"><ele>89.0</ele><time>2026-04-06T12:11:49.055Z</time></trkpt><trkpt lat="44.3939633" lon="11.264565"><ele>89.0</ele><time>2026-04-06T12:11:50.055Z</time></trkpt><trkpt lat="44.3939533" lon="11.26467"><ele>89.0</ele><time>2026-04-06T12:11:51.055Z</time></trkpt><trkpt lat="44.3939417" lon="11.2647633"><ele>89.0</ele><time>2026-04-06T12:11:52.056Z</time></trkpt><trkpt lat="44.3938367" lon="11.264825"><ele>89.0</ele><time>2026-04-06T12:11:54.055Z</time></trkpt><trkpt lat="44.39377" lon="11.264805"><ele>89.0</ele><time>2026-04-06T12:11:55.055Z</time></trkpt><trkpt lat="44.3937133" lon="11.2647583"><ele>89.0</ele><time>2026-04-06T12:11:56.055Z</time></trkpt><trkpt lat="44.3936533" lon="11.26468"><ele>89.0</ele><time>2026-04-06T12:11:57.055Z</time></trkpt><trkpt lat="44.3935833" lon="11.26459"><ele>91.0</ele><time>2026-04-06T12:11:58.055Z</time></trkpt><trkpt lat="44.3935133" lon="11.2644917"><ele>93.0</ele><time>2026-04-06T12:11:59.055Z</time></trkpt><trkpt lat="44.39346" lon="11.2643733"><ele>95.0</ele><time>2026-04-06T12:12:00.055Z</time></trkpt><trkpt lat="44.3934267" lon="11.26425"><ele>97.0</ele><time>2026-04-06T12:12:01.055Z</time></trkpt><trkpt lat="44.3933967" lon="11.2641133"><ele>99.0</ele><time>2026-04-06T12:12:02.055Z</time></trkpt><trkpt lat="44.393385" lon="11.26396"><ele>99.0</ele><time>2026-04-06T12:12:03.055Z</time></trkpt><trkpt lat="44.39339" lon="11.2638267"><ele>99.0</ele><time>2026-04-06T12:12:04.055Z</time></trkpt><trkpt lat="44.3934083" lon="11.2637267"><ele>99.0</ele><time>2026-04-06T12:12:05.055Z</time></trkpt><trkpt lat="44.3934317" lon="11.2636433"><ele>99.0</ele><time>2026-04-06T12:12:06.055Z</time></trkpt><trkpt lat="44.3934933" lon="11.2635767"><ele>99.0</ele><time>2026-04-06T12:12:08.055Z</time></trkpt><trkpt lat="44.3935267" lon="11.2636933"><ele>99.0</ele><time>2026-04-06T12:12:09.055Z</time></trkpt><trkpt lat="44.3935517" lon="11.26385"><ele>99.0</ele><time>2026-04-06T12:12:10.055Z</time></trkpt><trkpt lat="44.3935833" lon="11.2640617"><ele>99.0</ele><time>2026-04-06T12:12:11.055Z</time></trkpt><trkpt lat="44.393605" lon="11.26424"><ele>99.0</ele><time>2026-04-06T12:12:12.055Z</time></trkpt><trkpt lat="44.393625" lon="11.2643667"><ele>99.0</ele><time>2026-04-06T12:12:13.055Z</time></trkpt><trkpt lat="44.3936483" lon="11.2644583"><ele>99.0</ele><time>2026-04-06T12:12:14.055Z</time></trkpt><trkpt lat="44.393715" lon="11.2645383"><ele>99.0</ele><time>2026-04-06T12:12:16.055Z</time></trkpt><trkpt lat="44.3937117" lon="11.2644317"><ele>99.0</ele><time>2026-04-06T12:12:18.055Z</time></trkpt><trkpt lat="44.39368" lon="11.2643067"><ele>99.0</ele><time>2026-04-06T12:12:20.055Z</time></trkpt><trkpt lat="44.3937367" lon="11.2642133"><ele>99.0</ele><time>2026-04-06T12:12:22.055Z</time></trkpt><trkpt lat="44.393845" lon="11.2641817"><ele>99.0</ele><time>2026-04-06T12:12:24.056Z</time></trkpt><trkpt lat="44.3939467" lon="11.264215"><ele>97.0</ele><time>2026-04-06T12:12:25.056Z</time></trkpt><trkpt lat="44.39407" lon="11.26427"><ele>95.0</ele><time>2026-04-06T12:12:26.055Z</time></trkpt><trkpt lat="44.394195" lon="11.2643283"><ele>93.0</ele><time>2026-04-06T12:12:27.056Z</time></trkpt><trkpt lat="44.3942933" lon="11.2643517"><ele>91.0</ele><time>2026-04-06T12:12:28.055Z</time></trkpt><trkpt lat="44.3943633" lon="11.2643583"><ele>89.0</ele><time>2026-04-06T12:12:29.055Z</time></trkpt><trkpt lat="44.3944133" lon="11.264295"><ele>89.0</ele><time>2026-04-06T12:12:31.055Z</time></trkpt><trkpt lat="44.3943217" lon="11.264245"><ele>89.0</ele><time>2026-04-06T12:12:32.056Z</time></trkpt><trkpt lat="44.3942083" lon="11.2642"><ele>89.0</ele><time>2026-04-06T12:12:33.055Z</time></trkpt><trkpt lat="44.3940683" lon="11.26415"><ele>89.0</ele><time>2026-04-06T12:12:34.055Z</time></trkpt><trkpt lat="44.3939267" lon="11.2640867"><ele>91.5</ele><time>2026-04-06T12:12:35.055Z</time></trkpt><trkpt lat="44.3938067" lon="11.2640133"><ele>94.0</ele><time>2026-04-06T12:12:36.055Z</time></trkpt><trkpt lat="44.393715" lon="11.26392"><ele>96.5</ele><time>2026-04-06T12:12:37.055Z</time></trkpt><trkpt lat="44.3936467" lon="11.2637967"><ele>99.0</ele><time>2026-04-06T12:12:38.055Z</time></trkpt><trkpt lat="44.3936033" lon="11.2636617"><ele>99.0</ele><time>2026-04-06T12:12:39.055Z</time></trkpt><trkpt lat="44.3935733" lon="11.2635317"><ele>99.0</ele><time>2026-04-06T12:12:40.055Z</time></trkpt><trkpt lat="44.3935483" lon="11.2633583"><ele>99.0</ele><time>2026-04-06T12:12:41.055Z</time></trkpt><trkpt lat="44.393515" lon="11.263165"><ele>99.0</ele><time>2026-04-06T12:12:42.055Z</time></trkpt><trkpt lat="44.393475" lon="11.2629717"><ele>98.2</ele><time>2026-04-06T12:12:43.055Z</time></trkpt><trkpt lat="44.3934433" lon="11.2627967"><ele>97.4</ele><time>2026-04-06T12:12:44.055Z</time></trkpt><trkpt lat="44.3934283" lon="11.2626467"><ele>96.6</ele><time>2026-04-06T12:12:45.055Z</time></trkpt><trkpt lat="44.3934383" lon="11.262525"><ele>95.8</ele><time>2026-04-06T12:12:46.056Z</time></trkpt><trkpt lat="44.39346" lon="11.2624417"><ele>95.0</ele><time>2026-04-06T12:12:47.055Z</time></trkpt><trkpt lat="44.3935567" lon="11.2623617"><ele>95.0</ele><time>2026-04-06T12:12:49.055Z</time></trkpt><trkpt lat="44.3936383" lon="11.2623767"><ele>95.0</ele><time>2026-04-06T12:12:50.055Z</time></trkpt><trkpt lat="44.3937267" lon="11.2624333"><ele>95.0</ele><time>2026-04-06T12:12:51.055Z</time></trkpt><trkpt lat="44.3938083" lon="11.26253"><ele>95.0</ele><time>2026-04-06T12:12:52.055Z</time></trkpt><trkpt lat="44.39387" lon="11.2626117"><ele>95.0</ele><time>2026-04-06T12:12:53.055Z</time></trkpt><trkpt lat="44.3938983" lon="11.2627267"><ele>95.0</ele><time>2026-04-06T12:12:54.055Z</time></trkpt><trkpt lat="44.39387" lon="11.2628133"><ele>95.0</ele><time>2026-04-06T12:12:55.055Z</time></trkpt><trkpt lat="44.3937633" lon="11.2628183"><ele>95.0</ele><time>2026-04-06T12:12:57.055Z</time></trkpt><trkpt lat="44.3936933" lon="11.262755"><ele>95.0</ele><time>2026-04-06T12:12:58.055Z</time></trkpt><trkpt lat="44.393635" lon="11.2626817"><ele>95.0</ele><time>2026-04-06T12:12:59.055Z</time></trkpt><trkpt lat="44.3935817" lon="11.26262"><ele>95.0</ele><time>2026-04-06T12:13:00.055Z</time></trkpt><trkpt lat="44.3935483" lon="11.26275"><ele>95.0</ele><time>2026-04-06T12:13:03.055Z</time></trkpt><trkpt lat="44.3935783" lon="11.2628367"><ele>95.0</ele><time>2026-04-06T12:13:04.055Z</time></trkpt><trkpt lat="44.3936083" lon="11.2629483"><ele>95.0</ele><time>2026-04-06T12:13:05.056Z</time></trkpt><trkpt lat="44.3936383" lon="11.263095"><ele>95.0</ele><time>2026-04-06T12:13:06.055Z</time></trkpt><trkpt lat="44.39368" lon="11.2632583"><ele>95.0</ele><time>2026-04-06T12:13:07.055Z</time></trkpt><trkpt lat="44.3937167" lon="11.2633917"><ele>95.66666666666667</ele><time>2026-04-06T12:13:08.055Z</time></trkpt><trkpt lat="44.3937483" lon="11.263525"><ele>96.33333333333334</ele><time>2026-04-06T12:13:09.055Z</time></trkpt><trkpt lat="44.3937717" lon="11.2636717"><ele>97.0</ele><time>2026-04-06T12:13:10.055Z</time></trkpt><trkpt lat="44.3937933" lon="11.2637967"><ele>97.66666666666667</ele><time>2026-04-06T12:13:11.055Z</time></trkpt><trkpt lat="44.3938267" lon="11.2638867"><ele>98.33333333333333</ele><time>2026-04-06T12:13:12.055Z</time></trkpt><trkpt lat="44.3938917" lon="11.263935"><ele>99.0</ele><time>2026-04-06T12:13:14.056Z</time></trkpt><trkpt lat="44.39387" lon="11.2637317"><ele>97.4</ele><time>2026-04-06T12:13:16.056Z</time></trkpt><trkpt lat="44.393845" lon="11.2635517"><ele>95.80000000000001</ele><time>2026-04-06T12:13:17.055Z</time></trkpt><trkpt lat="44.3938483" lon="11.2633733"><ele>94.19999999999999</ele><time>2026-04-06T12:13:18.055Z</time></trkpt><trkpt lat="44.39387" lon="11.263225"><ele>92.6</ele><time>2026-04-06T12:13:19.056Z</time></trkpt><trkpt lat="44.3939" lon="11.26312"><ele>91.0</ele><time>2026-04-06T12:13:20.055Z</time></trkpt><trkpt lat="44.3939417" lon="11.2630517"><ele>91.0</ele><time>2026-04-06T12:13:21.055Z</time></trkpt><trkpt lat="44.3940883" lon="11.263105"><ele>91.0</ele><time>2026-04-06T12:13:23.055Z</time></trkpt><trkpt lat="44.3941783" lon="11.263215"><ele>91.0</ele><time>2026-04-06T12:13:24.055Z</time></trkpt><trkpt lat="44.3942617" lon="11.2633483"><ele>91.0</ele><time>2026-04-06T12:13:25.055Z</time></trkpt><trkpt lat="44.3943533" lon="11.2634833"><ele>90.25</ele><time>2026-04-06T12:13:26.055Z</time></trkpt><trkpt lat="44.3944533" lon="11.2636133"><ele>89.5</ele><time>2026-04-06T12:13:27.055Z</time></trkpt><trkpt lat="44.3945533" lon="11.2637383"><ele>88.75</ele><time>2026-04-06T12:13:28.055Z</time></trkpt><trkpt lat="44.3946433" lon="11.2638467"><ele>88.0</ele><time>2026-04-06T12:13:29.056Z</time></trkpt><trkpt lat="44.394755" lon="11.263985"><ele>88.0</ele><time>2026-04-06T12:13:30.055Z</time></trkpt><trkpt lat="44.3948683" lon="11.264135"><ele>88.0</ele><time>2026-04-06T12:13:31.055Z</time></trkpt><trkpt lat="44.39496" lon="11.2642783"><ele>88.0</ele><time>2026-04-06T12:13:32.055Z</time></trkpt><trkpt lat="44.395015" lon="11.2644017"><ele>88.0</ele><time>2026-04-06T12:13:33.055Z</time></trkpt><trkpt lat="44.395045" lon="11.2645333"><ele>88.0</ele><time>2026-04-06T12:13:34.055Z</time></trkpt><trkpt lat="44.3950533" lon="11.2646533"><ele>88.0</ele><time>2026-04-06T12:13:35.055Z</time></trkpt><trkpt lat="44.3950383" lon="11.2647567"><ele>88.0</ele><time>2026-04-06T12:13:36.055Z</time></trkpt><trkpt lat="44.3949833" lon="11.2648483"><ele>88.0</ele><time>2026-04-06T12:13:37.055Z</time></trkpt><trkpt lat="44.3948883" lon="11.2649383"><ele>88.0</ele><time>2026-04-06T12:13:38.055Z</time></trkpt><trkpt lat="44.39475" lon="11.2650267"><ele>88.25</ele><time>2026-04-06T12:13:39.055Z</time></trkpt><trkpt lat="44.3946183" lon="11.2650983"><ele>88.5</ele><time>2026-04-06T12:13:40.055Z</time></trkpt><trkpt lat="44.3944767" lon="11.265145"><ele>88.75</ele><time>2026-04-06T12:13:41.055Z</time></trkpt><trkpt lat="44.3943567" lon="11.2651817"><ele>89.0</ele><time>2026-04-06T12:13:42.055Z</time></trkpt><trkpt lat="44.39425" lon="11.2652067"><ele>89.0</ele><time>2026-04-06T12:13:43.055Z</time></trkpt><trkpt lat="44.39417" lon="11.26525"><ele>89.0</ele><time>2026-04-06T12:13:44.055Z</time></trkpt><trkpt lat="44.39411" lon="11.2653683"><ele>89.0</ele><time>2026-04-06T12:13:46.056Z</time></trkpt><trkpt lat="44.39412" lon="11.2654867"><ele>89.0</ele><time>2026-04-06T12:13:48.055Z</time></trkpt><trkpt lat="44.3941817" lon="11.265585"><ele>89.0</ele><time>2026-04-06T12:13:50.056Z</time></trkpt><trkpt lat="44.3942717" lon="11.265655"><ele>88.80000000000001</ele><time>2026-04-06T12:13:52.055Z</time></trkpt><trkpt lat="44.3943567" lon="11.265785"><ele>88.60000000000001</ele><time>2026-04-06T12:13:54.055Z</time></trkpt><trkpt lat="44.3943933" lon="11.2658617"><ele>88.4</ele><time>2026-04-06T12:13:55.055Z</time></trkpt><trkpt lat="44.3944583" lon="11.2659933"><ele>88.2</ele><time>2026-04-06T12:13:57.055Z</time></trkpt><trkpt lat="44.394515" lon="11.2660783"><ele>88.0</ele><time>2026-04-06T12:13:59.055Z</time></trkpt><trkpt lat="44.394575" lon="11.2660483"><ele>88.0</ele><time>2026-04-06T12:14:03.055Z</time></trkpt></trkseg></trk></gpx>